Provisional Data: Trout Run near Shawville, PA


Please select a monitoring station.
Please select start date.
Please select start date.

Toggle Unit: C/F Toggle Unit: C/F
Sample Time Temperature (C) Temperature (F) Specific Conductivity (mS/cm) pH   Turbidity (NTU+) DO (mg/L)
9/6/2021 12:00:00 AM 16.58 61.844 0.05 6.63 3.77 9.09
9/6/2021 12:15:00 AM 16.53 61.754 0.05 6.63 3.93 9.09
9/6/2021 12:30:00 AM 16.47 61.646 0.05 6.61 3.47 9.11
9/6/2021 12:45:00 AM 16.42 61.556 0.047 6.66 4.97 9.1
9/6/2021 1:00:00 AM 16.37 61.466 0.05 6.65 3.55 9.13
9/6/2021 1:15:00 AM 16.31 61.358 0.046 6.68 2.97 9.14
9/6/2021 1:30:00 AM 16.26 61.268 0.05 6.66 4.67 9.15
9/6/2021 1:45:00 AM 16.21 61.178 0.05 6.68 2.76 9.17
9/6/2021 2:00:00 AM 16.16 61.088 0.049 6.67 3.17 9.15
9/6/2021 2:15:00 AM 16.1 60.98 0.049 6.67 3.33 9.18
9/6/2021 2:30:00 AM 16.06 60.908 0.049 6.69 3.39 9.16
9/6/2021 2:45:00 AM 16.01 60.818 0.049 6.62 4.26 9.18
9/6/2021 3:00:00 AM 15.95 60.71 0.049 6.69 4.33 9.2
9/6/2021 3:15:00 AM 15.91 60.638 0.043 6.67 3.67 9.21
9/6/2021 3:30:00 AM 15.86 60.548 0.049 6.65 3.08 9.21
9/6/2021 3:45:00 AM 15.82 60.476 0.049 6.67 3.59 9.21
9/6/2021 4:00:00 AM 15.78 60.404 0.049 6.59 3.68 9.24
9/6/2021 4:15:00 AM 15.73 60.314 0.049 6.65 3.41 9.26
9/6/2021 4:30:00 AM 15.7 60.26 0.049 6.61 3.99 9.26
9/6/2021 4:45:00 AM 15.65 60.17 0.049 6.68 4.12 9.28
9/6/2021 5:00:00 AM 15.61 60.098 0.049 6.44 3.34 9.27
9/6/2021 5:15:00 AM 15.57 60.026 0.049 6.69 3.28 9.27
9/6/2021 5:30:00 AM 15.53 59.954 0.049 6.67 2.83 9.29
9/6/2021 5:45:00 AM 15.47 59.846 0.049 6.63 3.76 9.32
9/6/2021 6:00:00 AM 15.42 59.756 0.049 6.66 3.61 9.33
9/6/2021 6:15:00 AM 15.37 59.666 0.049 6.64 3.2 9.32
9/6/2021 6:30:00 AM 15.33 59.594 0.047 6.63 4.03 9.34
9/6/2021 6:45:00 AM 15.28 59.504 0.044 6.67 3.9 9.38
9/6/2021 7:00:00 AM 15.24 59.432 0.049 6.66 3.73 9.4
9/6/2021 7:15:00 AM 15.2 59.36 0.049 6.64 2.64 9.41
9/6/2021 7:30:00 AM 15.17 59.306 0.049 6.66 3.44 9.41
9/6/2021 7:45:00 AM 15.15 59.27 0.049 6.57 4.7 9.35
9/6/2021 8:00:00 AM 15.13 59.234 0.049 6.65 3.02 9.4
9/6/2021 8:15:00 AM 15.13 59.234 0.049 6.67 2.65 9.44
9/6/2021 8:30:00 AM 15.13 59.234 0.049 6.66 3.13 9.49
9/6/2021 8:45:00 AM 15.14 59.252 0.046 6.57 3.59 9.48
9/6/2021 9:00:00 AM 15.15 59.27 0.049 6.69 3.92 9.52
9/6/2021 9:15:00 AM 15.16 59.288 0.049 6.62 3.64 9.53
9/6/2021 9:30:00 AM 15.19 59.342 0.049 6.69 2.75 9.54
9/6/2021 9:45:00 AM 15.24 59.432 0.048 6.57 3.27 9.55
9/6/2021 10:00:00 AM 15.3 59.54 0.048 6.7 2.49 9.56
9/6/2021 10:15:00 AM 15.36 59.648 0.048 6.71 2.83 9.56
9/6/2021 10:30:00 AM 15.42 59.756 0.048 6.71 3.44 9.56
9/6/2021 10:45:00 AM 15.47 59.846 0.043 6.69 3.47 9.56
9/6/2021 11:00:00 AM 15.55 59.99 0.049 6.69 3.35 9.54
9/6/2021 11:15:00 AM 15.61 60.098 0.047 6.69 2.94 9.54
9/6/2021 11:30:00 AM 15.69 60.242 0.049 6.7 3.45 9.52
9/6/2021 11:45:00 AM 15.78 60.404 0.049 6.71 4.62 9.51
9/6/2021 12:00:00 PM 15.88 60.584 0.049 6.72 5.01 9.48
9/6/2021 12:15:00 PM 16 60.8 0.049 6.75 5.08 9.47
9/6/2021 12:30:00 PM 16.13 61.034 0.046 6.67 3.63 9.46
9/6/2021 12:45:00 PM 16.24 61.232 0.049 6.74 4.41 9.43
9/6/2021 1:00:00 PM 16.35 61.43 0.049 6.72 4.35 9.41
9/6/2021 1:15:00 PM 16.49 61.682 0.049 6.71 5.42 9.39
9/6/2021 1:30:00 PM 16.63 61.934 0.049 6.74 4.88 9.35
9/6/2021 1:45:00 PM 16.77 62.186 0.047 6.73 3.05 9.34
9/6/2021 2:00:00 PM 16.92 62.456 0.049 6.75 4.65 9.31
9/6/2021 2:15:00 PM 17.01 62.618 0.049 6.69 4.8 9.28
9/6/2021 2:30:00 PM 17.17 62.906 0.048 6.67 3.19 9.23
9/6/2021 2:45:00 PM -100000 -179968 -100000 -100000 -100000 -100000
9/6/2021 3:00:00 PM 17.39 63.302 0.047 6.7 2.9 9.16
9/6/2021 3:15:00 PM 17.4 63.32 0.048 6.63 3.24 9.15
9/6/2021 3:30:00 PM 17.42 63.356 0.048 6.71 2.64 9.12
9/6/2021 3:45:00 PM 17.49 63.482 0.048 6.74 4.24 9.08
9/6/2021 4:00:00 PM 17.53 63.554 0.049 6.67 4.2 9.03
9/6/2021 4:15:00 PM 17.58 63.644 0.046 6.7 2.59 9.03
9/6/2021 4:30:00 PM 17.6 63.68 0.049 6.74 4.17 8.98
9/6/2021 4:45:00 PM 17.64 63.752 0.045 6.73 3.77 8.97
9/6/2021 5:00:00 PM 17.68 63.824 0.045 6.64 3.68 8.95
9/6/2021 5:15:00 PM 17.69 63.842 0.047 6.7 3.53 8.96
9/6/2021 5:30:00 PM 17.71 63.878 0.045 6.69 3.31 8.95
9/6/2021 5:45:00 PM 17.71 63.878 0.048 6.72 3.71 8.9
9/6/2021 6:00:00 PM 17.74 63.932 0.045 6.71 3.52 8.91
9/6/2021 6:15:00 PM 17.74 63.932 0.044 6.71 3.44 8.9
9/6/2021 6:30:00 PM 17.74 63.932 0.047 6.69 3.29 8.89
9/6/2021 6:45:00 PM 17.73 63.914 0.046 6.7 3.43 8.9
9/6/2021 7:00:00 PM 17.71 63.878 0.042 6.7 3.53 8.9
9/6/2021 7:15:00 PM 17.68 63.824 0.047 6.69 4.43 8.88
9/6/2021 7:30:00 PM 17.65 63.77 0.045 6.69 3.38 8.9
9/6/2021 7:45:00 PM 17.61 63.698 0.044 6.71 3.49 8.87
9/6/2021 8:00:00 PM 17.58 63.644 0.044 6.66 3.58 8.91
9/6/2021 8:15:00 PM 17.53 63.554 0.044 6.68 3.72 8.9
9/6/2021 8:30:00 PM 17.49 63.482 0.046 6.68 3.78 8.88
9/6/2021 8:45:00 PM 17.43 63.374 0.044 6.66 4.02 8.89
9/6/2021 9:00:00 PM 17.35 63.23 0.045 6.67 3.74 8.91
9/6/2021 9:15:00 PM 17.28 63.104 0.044 6.67 3.56 8.93
9/6/2021 9:30:00 PM 17.2 62.96 0.044 6.67 3.59 8.94
9/6/2021 9:45:00 PM 17.1 62.78 0.045 6.68 3.59 8.99
9/6/2021 10:00:00 PM 16.99 62.582 0.046 6.66 3.59 9.01
9/6/2021 10:15:00 PM 16.89 62.402 0.045 6.63 3.35 9.02
9/6/2021 10:30:00 PM 16.75 62.15 0.046 6.66 3.38 9.08
9/6/2021 10:45:00 PM 16.62 61.916 0.046 6.66 3.46 9.11
9/6/2021 11:00:00 PM 16.49 61.682 0.044 6.68 3.65 9.14
9/6/2021 11:15:00 PM 16.37 61.466 0.043 6.65 3.4 9.15
9/6/2021 11:30:00 PM 16.25 61.25 0.045 6.67 3.47 9.18
9/6/2021 11:45:00 PM 16.15 61.07 0.045 6.63 4.93 9.18
9/7/2021 12:00:00 AM 16 60.8 0.044 6.65 4.75 9.23
9/7/2021 12:15:00 AM 15.89 60.602 0.046 6.69 3.5 9.25
9/7/2021 12:30:00 AM 15.79 60.422 0.046 6.68 4.18 9.29
9/7/2021 12:45:00 AM 15.65 60.17 0.047 6.68 3.62 9.32
9/7/2021 1:00:00 AM 15.56 60.008 0.045 6.67 3.53 9.33
9/7/2021 1:15:00 AM 15.44 59.792 0.047 6.66 3.96 9.36
9/7/2021 1:30:00 AM 15.31 59.558 0.047 6.67 3.79 9.41
9/7/2021 1:45:00 AM 15.23 59.414 0.047 6.66 3.37 9.39
9/7/2021 2:00:00 AM 15.12 59.216 0.047 6.67 3.4 9.45
9/7/2021 2:15:00 AM 15.04 59.072 0.047 6.67 3.51 9.42
9/7/2021 2:30:00 AM 14.93 58.874 0.043 6.66 3.22 9.48
9/7/2021 2:45:00 AM 14.83 58.694 0.047 6.66 4.22 9.52
9/7/2021 3:00:00 AM 14.73 58.514 0.047 6.55 3.15 9.54
9/7/2021 3:15:00 AM 14.65 58.37 0.047 6.66 4.72 9.53
9/7/2021 3:30:00 AM 14.57 58.226 0.047 6.68 2.72 9.55
9/7/2021 3:45:00 AM -100000 -179968 -100000 -100000 -100000 -100000
9/7/2021 4:00:00 AM 14.41 57.938 0.041 6.62 3.67 9.59
9/7/2021 4:15:00 AM 14.32 57.776 0.047 6.66 3.68 9.62
9/7/2021 4:30:00 AM 14.24 57.632 0.046 6.66 2.89 9.64
9/7/2021 4:45:00 AM -100000 -179968 -100000 -100000 -100000 -100000
9/7/2021 5:00:00 AM 14.1 57.38 0.047 6.68 3.98 9.65
9/7/2021 5:15:00 AM 14.03 57.254 0.047 6.65 2.96 9.67
9/7/2021 5:30:00 AM -100000 -179968 -100000 -100000 -100000 -100000
9/7/2021 5:45:00 AM 13.91 57.038 0.048 6.65 2.56 9.69
9/7/2021 6:00:00 AM 13.85 56.93 0.041 6.64 3.97 9.71
9/7/2021 6:15:00 AM 13.77 56.786 0.048 6.67 2.73 9.74
9/7/2021 6:30:00 AM 13.67 56.606 0.048 6.66 2.51 9.77
9/7/2021 6:45:00 AM 13.62 56.516 0.047 6.65 3.05 9.79
9/7/2021 7:00:00 AM 13.54 56.372 0.048 6.68 2.59 9.82
9/7/2021 7:15:00 AM -100000 -179968 -100000 -100000 -100000 -100000
9/7/2021 7:30:00 AM 13.42 56.156 0.048 6.66 2.86 9.85
9/7/2021 7:45:00 AM 13.38 56.084 0.048 6.66 2.96 9.84
9/7/2021 8:00:00 AM 13.34 56.012 0.048 6.69 2.41 9.88
9/7/2021 8:15:00 AM 13.29 55.922 0.048 6.69 3.15 9.92
9/7/2021 8:30:00 AM 13.26 55.868 0.048 6.67 2.93 9.95
9/7/2021 8:45:00 AM 13.24 55.832 0.048 6.67 3.54 9.99
9/7/2021 9:00:00 AM 13.23 55.814 0.046 6.68 2.99 10.01
9/7/2021 9:15:00 AM 13.23 55.814 0.048 6.41 2.45 10.04
9/7/2021 9:30:00 AM 13.25 55.85 0.048 6.63 3.78 10.05
9/7/2021 9:45:00 AM 13.27 55.886 0.048 6.68 3.6 10.06
9/7/2021 10:00:00 AM 13.34 56.012 0.048 6.69 4.14 10.05
9/7/2021 10:15:00 AM 13.41 56.138 0.042 6.7 2.78 10.04
9/7/2021 10:30:00 AM 13.52 56.336 0.048 6.7 2.83 10.05
9/7/2021 10:45:00 AM 13.58 56.444 0.047 6.7 3.04 10.03
9/7/2021 11:00:00 AM 13.65 56.57 0.048 6.67 3.56 10.01
9/7/2021 11:15:00 AM 13.76 56.768 0.048 6.68 4.41 9.99
9/7/2021 11:30:00 AM 13.82 56.876 0.048 6.72 4.73 9.96
9/7/2021 11:45:00 AM 13.94 57.092 0.046 6.73 2.75 9.94
9/7/2021 12:00:00 PM 14.11 57.398 0.048 6.71 4.14 9.93
9/7/2021 12:15:00 PM 14.22 57.596 0.047 6.73 2.46 9.91
9/7/2021 12:30:00 PM 14.41 57.938 0.048 6.72 3.35 9.89
9/7/2021 12:45:00 PM 14.56 58.208 0.048 6.73 3.84 9.85
9/7/2021 1:00:00 PM 14.74 58.532 0.048 6.74 3.42 9.8
9/7/2021 1:15:00 PM 14.92 58.856 0.048 6.72 3.14 9.76
9/7/2021 1:30:00 PM 15.06 59.108 0.048 6.73 3.36 9.72
9/7/2021 1:45:00 PM 15.28 59.504 0.048 6.73 3.17 9.68
9/7/2021 2:00:00 PM 15.44 59.792 0.047 6.74 3.35 9.63
9/7/2021 2:15:00 PM 15.62 60.116 0.048 6.74 4.34 9.59
9/7/2021 2:30:00 PM 15.83 60.494 0.048 6.74 3.92 9.54
9/7/2021 2:45:00 PM 15.92 60.656 0.047 6.74 3.28 9.52
9/7/2021 3:00:00 PM 16.05 60.89 0.049 6.72 3.96 9.46
9/7/2021 3:15:00 PM 16.28 61.304 0.047 6.72 3.07 9.41
9/7/2021 3:30:00 PM 16.43 61.574 0.047 6.73 3.11 9.36
9/7/2021 3:45:00 PM 16.56 61.808 0.047 6.74 3.15 9.3
9/7/2021 4:00:00 PM 16.75 62.15 0.047 6.71 4.5 9.25
9/7/2021 4:15:00 PM 16.91 62.438 0.047 6.71 3.43 9.19
9/7/2021 4:30:00 PM 17.01 62.618 0.047 6.71 3.5 9.16
9/7/2021 4:45:00 PM 17.15 62.87 0.048 6.72 3.34 9.12
9/7/2021 5:00:00 PM 17.3 63.14 0.047 6.73 3.21 9.08
9/7/2021 5:15:00 PM 17.38 63.284 0.048 6.72 3.18 9.04
9/7/2021 5:30:00 PM 17.5 63.5 0.046 6.7 3.34 9.02
9/7/2021 5:45:00 PM 17.52 63.536 0.048 6.73 3.5 8.99
9/7/2021 6:00:00 PM 17.61 63.698 0.048 6.69 3.54 8.97
9/7/2021 6:15:00 PM 17.7 63.86 0.048 6.69 3.72 8.95
9/7/2021 6:30:00 PM 17.73 63.914 0.047 6.71 3.52 8.93
9/7/2021 6:45:00 PM 17.76 63.968 0.046 6.67 3.38 8.91
9/7/2021 7:00:00 PM 17.8 64.04 0.046 6.68 3.59 8.88
9/7/2021 7:15:00 PM 17.81 64.058 0.047 6.65 3.58 8.89
9/7/2021 7:30:00 PM 17.81 64.058 0.048 6.69 3.46 8.87
9/7/2021 7:45:00 PM 17.83 64.094 0.045 6.67 3.64 8.85
9/7/2021 8:00:00 PM 17.89 64.202 0.048 6.65 3.05 8.78
9/7/2021 8:15:00 PM 17.91 64.238 0.048 6.64 2.48 8.78
9/7/2021 8:30:00 PM 17.89 64.202 0.048 6.67 3.64 8.78
9/7/2021 8:45:00 PM 17.91 64.238 0.043 6.63 3.35 8.76
9/7/2021 9:00:00 PM 17.91 64.238 0.048 6.65 4.38 8.74
9/7/2021 9:15:00 PM 17.89 64.202 0.048 6.67 2.56 8.77
9/7/2021 9:30:00 PM 17.86 64.148 0.048 6.64 3.93 8.78
9/7/2021 9:45:00 PM 17.82 64.076 0.048 6.67 3.2 8.77
9/7/2021 10:00:00 PM 17.78 64.004 0.048 6.66 3.46 8.82
9/7/2021 10:15:00 PM 17.72 63.896 0.048 6.63 3.61 8.8
9/7/2021 10:30:00 PM 17.66 63.788 0.048 6.65 2.85 8.82
9/7/2021 10:45:00 PM 17.6 63.68 0.049 6.68 3.68 8.84
9/7/2021 11:00:00 PM 17.49 63.482 0.048 6.68 2.66 8.85
9/7/2021 11:15:00 PM 17.4 63.32 0.048 6.66 4.09 8.92
9/7/2021 11:30:00 PM 17.34 63.212 0.048 6.62 2.9 8.89
9/7/2021 11:45:00 PM 17.23 63.014 0.044 6.67 3.38 8.96
9/8/2021 12:00:00 AM 17.13 62.834 0.045 6.62 3.47 8.95
9/8/2021 12:15:00 AM 17.07 62.726 0.045 6.69 3.53 8.94
9/8/2021 12:30:00 AM 16.95 62.51 0.049 6.66 3.37 8.95
9/8/2021 12:45:00 AM 16.87 62.366 0.049 6.69 2.81 9
9/8/2021 1:00:00 AM 16.76 62.168 0.049 6.65 4.2 9.04
9/8/2021 1:15:00 AM 16.7 62.06 0.049 6.68 2.49 9.03
9/8/2021 1:30:00 AM 16.6 61.88 0.049 6.67 4.25 9.05
9/8/2021 1:45:00 AM 16.52 61.736 0.049 6.69 2.82 9.07
9/8/2021 2:00:00 AM 16.43 61.574 0.049 6.68 2.76 9.08
9/8/2021 2:15:00 AM 16.34 61.412 0.049 6.67 3.39 9.14
9/8/2021 2:30:00 AM 16.29 61.322 0.049 6.69 2.41 9.15
9/8/2021 2:45:00 AM 16.21 61.178 0.049 6.69 3.29 9.15
9/8/2021 3:00:00 AM 16.17 61.106 0.044 6.67 2.86 9.11
9/8/2021 3:15:00 AM 16.09 60.962 0.049 6.67 4.81 9.13
9/8/2021 3:30:00 AM 15.99 60.782 0.049 6.66 2.69 9.19
9/8/2021 3:45:00 AM 15.93 60.674 0.049 6.67 2.72 9.18
9/8/2021 4:00:00 AM 15.87 60.566 0.048 6.67 4.02 9.2
9/8/2021 4:15:00 AM 15.81 60.458 0.049 6.67 2.5 9.23
9/8/2021 4:30:00 AM 15.75 60.35 0.049 6.66 2.54 9.23
9/8/2021 4:45:00 AM 15.67 60.206 0.049 6.63 2.65 9.26
9/8/2021 5:00:00 AM 15.61 60.098 0.049 6.68 3.23 9.27
9/8/2021 5:15:00 AM 15.56 60.008 0.049 6.66 2.4 9.28
9/8/2021 5:30:00 AM 15.52 59.936 0.049 6.67 2.57 9.25
9/8/2021 5:45:00 AM 15.46 59.828 0.049 6.69 2.84 9.32
9/8/2021 6:00:00 AM 15.4 59.72 0.049 6.68 2.46 9.31
9/8/2021 6:15:00 AM 15.35 59.63 0.049 6.67 2.78 9.3
9/8/2021 6:30:00 AM 15.32 59.576 0.049 6.68 2.72 9.32
9/8/2021 6:45:00 AM 15.26 59.468 0.049 6.67 2.54 9.35
9/8/2021 7:00:00 AM 15.22 59.396 0.049 6.67 2.52 9.37
9/8/2021 7:15:00 AM 15.18 59.324 0.049 6.66 2.86 9.37
9/8/2021 7:30:00 AM 15.16 59.288 0.049 6.69 2.44 9.38
9/8/2021 7:45:00 AM 15.11 59.198 0.049 6.68 2.66 9.43
9/8/2021 8:00:00 AM 15.1 59.18 0.049 6.66 2.59 9.44
9/8/2021 8:15:00 AM 15.09 59.162 0.049 6.7 3.18 9.47
9/8/2021 8:30:00 AM 15.09 59.162 0.049 6.69 4.01 9.48
9/8/2021 8:45:00 AM 15.09 59.162 0.048 6.68 2.61 9.5
9/8/2021 9:00:00 AM 15.11 59.198 0.043 6.69 3.37 9.52
9/8/2021 9:15:00 AM 15.14 59.252 0.049 6.7 2.87 9.55
9/8/2021 9:30:00 AM 15.19 59.342 0.049 6.71 2.39 9.57
9/8/2021 9:45:00 AM 15.25 59.45 0.049 6.7 5.82 9.59
9/8/2021 10:00:00 AM 15.32 59.576 0.049 6.72 3.87 9.57
9/8/2021 10:15:00 AM 15.36 59.648 0.049 6.65 4.07 9.59
9/8/2021 10:30:00 AM 15.41 59.738 0.05 6.73 3.15 9.59
9/8/2021 10:45:00 AM 15.49 59.882 0.05 6.75 3.24 9.58
9/8/2021 11:00:00 AM 15.63 60.134 0.049 6.72 3.21 9.59
9/8/2021 11:15:00 AM 15.73 60.314 0.049 6.74 3.36 9.58
9/8/2021 11:30:00 AM 15.82 60.476 0.049 6.75 3.21 9.55
9/8/2021 11:45:00 AM 15.87 60.566 0.05 6.77 3 9.53
9/8/2021 12:00:00 PM 15.98 60.764 0.05 6.76 2.36 9.49
9/8/2021 12:15:00 PM 16.11 60.998 0.05 6.77 3.21 9.49
9/8/2021 12:30:00 PM -100000 -179968 -100000 -100000 -100000 -100000
9/8/2021 12:45:00 PM 16.28 61.304 0.047 6.75 3.49 9.42
9/8/2021 1:00:00 PM 16.31 61.358 0.049 6.69 3.51 9.38
9/8/2021 1:15:00 PM 16.36 61.448 0.049 6.75 3.9 9.33
9/8/2021 1:30:00 PM 16.38 61.484 0.049 6.74 3.6 9.28
9/8/2021 1:45:00 PM 16.46 61.628 0.049 6.74 4.09 9.23
9/8/2021 2:00:00 PM 16.55 61.79 0.049 6.8 4.38 9.18
9/8/2021 2:15:00 PM 16.58 61.844 0.049 6.76 4.43 9.15
9/8/2021 2:30:00 PM 16.62 61.916 0.049 6.63 3.59 9.14
9/8/2021 2:45:00 PM 16.65 61.97 0.049 6.76 3.82 9.13
9/8/2021 3:00:00 PM 16.67 62.006 0.047 6.72 4.01 9.1
9/8/2021 3:15:00 PM 16.71 62.078 0.048 6.74 3.77 9.09
9/8/2021 3:30:00 PM 16.74 62.132 0.049 6.71 3.8 9.08
9/8/2021 3:45:00 PM 16.79 62.222 0.048 6.69 3.41 9.09
9/8/2021 4:00:00 PM 16.81 62.258 0.048 6.53 3.54 9.1
9/8/2021 4:15:00 PM 16.84 62.312 0.049 6.73 3.7 9.1
9/8/2021 4:30:00 PM 16.86 62.348 0.052 6.71 3.98 9.1
9/8/2021 4:45:00 PM 16.88 62.384 0.052 6.73 3.35 9.09
9/8/2021 5:00:00 PM 16.89 62.402 0.055 6.73 3.32 9.08
9/8/2021 5:15:00 PM 16.91 62.438 0.056 6.65 4.23 9.09
9/8/2021 5:30:00 PM 16.92 62.456 0.057 6.71 3.58 9.08
9/8/2021 5:45:00 PM 16.95 62.51 0.056 6.73 3.72 9.1
9/8/2021 6:00:00 PM -100000 -179968 -100000 -100000 -100000 -100000
9/8/2021 6:15:00 PM 16.97 62.546 0.055 6.73 3.41 9.1
9/8/2021 6:30:00 PM 16.96 62.528 0.056 6.71 3.1 9.1
9/8/2021 6:45:00 PM 16.96 62.528 0.056 6.74 3.58 9.08
9/8/2021 7:00:00 PM 16.94 62.492 0.055 6.71 4.08 9.08
9/8/2021 7:15:00 PM 16.93 62.474 0.053 6.7 3.59 9.08
9/8/2021 7:30:00 PM 16.91 62.438 0.055 6.72 3.54 9.05
9/8/2021 7:45:00 PM 16.89 62.402 0.049 6.71 3.38 9.03
9/8/2021 8:00:00 PM 16.87 62.366 0.053 6.68 3.84 9.05
9/8/2021 8:15:00 PM 16.85 62.33 0.055 6.59 3.92 8.98
9/8/2021 8:30:00 PM 16.83 62.294 0.055 6.68 3.39 8.97
9/8/2021 8:45:00 PM 16.81 62.258 0.054 6.69 3.4 8.98
9/8/2021 9:00:00 PM 16.79 62.222 0.053 6.68 3.6 9.02
9/8/2021 9:15:00 PM 16.77 62.186 0.053 6.68 4.26 9
9/8/2021 9:30:00 PM 16.75 62.15 0.054 6.69 3.51 8.99
9/8/2021 9:45:00 PM 16.72 62.096 0.053 6.65 3.51 8.99
9/8/2021 10:00:00 PM 16.69 62.042 0.053 6.68 3.38 9.02
9/8/2021 10:15:00 PM 16.65 61.97 0.053 6.66 3.62 9.04
9/8/2021 10:30:00 PM 16.62 61.916 0.053 6.68 3.55 9.07
9/8/2021 10:45:00 PM 16.59 61.862 0.053 6.69 3.53 9.05
9/8/2021 11:00:00 PM 16.55 61.79 0.053 6.67 4.31 9.09
9/8/2021 11:15:00 PM 16.5 61.7 0.053 6.52 3.5 9.1
9/8/2021 11:30:00 PM 16.47 61.646 0.053 6.68 3.43 9.09
9/8/2021 11:45:00 PM 16.44 61.592 0.053 6.68 3.59 9.1
9/9/2021 12:00:00 AM 16.41 61.538 0.053 6.68 3.31 9.09
9/9/2021 12:15:00 AM 16.35 61.43 0.053 6.7 4.09 9.11
9/9/2021 12:30:00 AM 16.32 61.376 0.053 6.69 3.42 9.11
9/9/2021 12:45:00 AM 16.29 61.322 0.053 6.67 3.92 9.12
9/9/2021 1:00:00 AM 16.25 61.25 0.053 6.69 3.51 9.14
9/9/2021 1:15:00 AM 16.22 61.196 0.053 6.67 3.83 9.15
9/9/2021 1:30:00 AM 16.18 61.124 0.052 6.71 3.38 9.15
9/9/2021 1:45:00 AM 16.14 61.052 0.053 6.66 3.87 9.18
9/9/2021 2:00:00 AM 16.11 60.998 0.052 6.63 2.68 9.17
9/9/2021 2:15:00 AM 16.08 60.944 0.052 6.69 2.46 9.18
9/9/2021 2:30:00 AM 16.05 60.89 0.052 6.55 2.71 9.22
9/9/2021 2:45:00 AM -100000 -179968 -100000 -100000 -100000 -100000
9/9/2021 3:00:00 AM 16.01 60.818 0.052 6.69 2.59 9.19
9/9/2021 3:15:00 AM 15.98 60.764 0.052 6.67 2.75 9.21
9/9/2021 3:30:00 AM 15.95 60.71 0.052 6.7 2.95 9.22
9/9/2021 3:45:00 AM 15.92 60.656 0.051 6.65 4.74 9.22
9/9/2021 4:00:00 AM 15.9 60.62 0.045 6.66 4.73 9.22
9/9/2021 4:15:00 AM 15.87 60.566 0.045 6.7 3.55 9.23
9/9/2021 4:30:00 AM 15.85 60.53 0.052 6.65 5.23 9.22
9/9/2021 4:45:00 AM 15.82 60.476 0.052 6.67 2.46 9.25
9/9/2021 5:00:00 AM 15.81 60.458 0.051 6.68 3.18 9.25
9/9/2021 5:15:00 AM 15.79 60.422 0.051 6.61 4.42 9.26
9/9/2021 5:30:00 AM 15.77 60.386 0.051 6.65 3.42 9.27
9/9/2021 5:45:00 AM 15.75 60.35 0.051 6.66 3.44 9.26
9/9/2021 6:00:00 AM 15.74 60.332 0.048 6.65 3.63 9.26
9/9/2021 6:15:00 AM 15.73 60.314 0.045 6.66 3.2 9.26
9/9/2021 6:30:00 AM 15.72 60.296 0.051 6.66 2.51 9.27
9/9/2021 6:45:00 AM 15.71 60.278 0.051 6.65 2.62 9.27
9/9/2021 7:00:00 AM 15.69 60.242 0.051 6.66 2.66 9.27
9/9/2021 7:15:00 AM 15.68 60.224 0.05 6.62 7.21 9.29
9/9/2021 7:30:00 AM 15.67 60.206 0.051 6.54 3.45 9.29
9/9/2021 7:45:00 AM 15.67 60.206 0.051 6.67 4 9.28
9/9/2021 8:00:00 AM 15.66 60.188 0.051 6.54 4.19 9.29
9/9/2021 8:15:00 AM 15.66 60.188 0.051 6.5 2.92 9.31
9/9/2021 8:30:00 AM 15.66 60.188 0.051 6.62 2.86 9.28
9/9/2021 8:45:00 AM 15.66 60.188 0.051 6.64 2.16 9.29
9/9/2021 9:00:00 AM 15.67 60.206 0.052 6.69 2.64 9.3
9/9/2021 9:15:00 AM 15.68 60.224 0.052 6.68 2.95 9.29
9/9/2021 9:30:00 AM 15.69 60.242 0.045 6.73 3.59 9.29
9/9/2021 9:45:00 AM 15.71 60.278 0.052 6.71 3.14 9.33
9/9/2021 10:00:00 AM 15.74 60.332 0.051 6.74 3.52 9.4
9/9/2021 10:15:00 AM 15.77 60.386 0.051 6.69 3.87 9.42
9/9/2021 10:30:00 AM 15.82 60.476 0.051 6.73 3.24 9.41
9/9/2021 10:45:00 AM 15.97 60.746 0.05 6.69 4.04 9.48
9/9/2021 11:00:00 AM 16.01 60.818 0.05 6.64 2.69 9.47
9/9/2021 11:15:00 AM 16.06 60.908 0.046 6.69 3.73 9.45
9/9/2021 11:30:00 AM 16.1 60.98 0.05 6.76 3.66 9.44
9/9/2021 11:45:00 AM 16.12 61.016 0.05 6.7 3.3 9.42
9/9/2021 12:00:00 PM 16.15 61.07 0.047 6.75 4.09 9.4
9/9/2021 12:15:00 PM 16.16 61.088 0.051 6.57 4.29 9.39
9/9/2021 12:30:00 PM 16.2 61.16 0.051 6.74 3.28 9.37
9/9/2021 12:45:00 PM 16.25 61.25 0.051 6.75 3.58 9.37
9/9/2021 1:00:00 PM 16.31 61.358 0.05 6.73 2.88 9.36
9/9/2021 1:15:00 PM 16.39 61.502 0.05 6.72 3.23 9.38
9/9/2021 1:30:00 PM 16.45 61.61 0.05 6.62 3.08 9.39
9/9/2021 1:45:00 PM 16.54 61.772 0.05 6.73 2.71 9.38
9/9/2021 2:00:00 PM 16.65 61.97 0.05 6.67 4.32 9.36
9/9/2021 2:15:00 PM 16.69 62.042 0.05 6.77 3.84 9.34
9/9/2021 2:30:00 PM 16.79 62.222 0.05 6.71 2.73 9.3
9/9/2021 2:45:00 PM 16.87 62.366 0.049 6.72 3.13 9.27
9/9/2021 3:00:00 PM 16.91 62.438 0.05 6.68 3.33 9.25
9/9/2021 3:15:00 PM 16.98 62.564 0.044 6.69 3.58 9.24
9/9/2021 3:30:00 PM 17.05 62.69 0.049 6.76 4.63 9.23
9/9/2021 3:45:00 PM 17.1 62.78 0.049 6.72 2.77 9.21
9/9/2021 4:00:00 PM 17.11 62.798 0.05 6.74 3.47 9.19
9/9/2021 4:15:00 PM 17.14 62.852 0.05 6.75 2.84 9.17
9/9/2021 4:30:00 PM 17.19 62.942 0.05 6.73 3.41 9.14
9/9/2021 4:45:00 PM 17.22 62.996 0.05 6.7 3.05 9.12
9/9/2021 5:00:00 PM 17.25 63.05 0.05 6.75 3.03 9.09
9/9/2021 5:15:00 PM 17.27 63.086 0.05 6.73 2.77 9.07
9/9/2021 5:30:00 PM 17.28 63.104 0.047 6.75 5.41 9.03
9/9/2021 5:45:00 PM 17.28 63.104 0.05 6.75 3.29 9.02
9/9/2021 6:00:00 PM 17.28 63.104 0.05 6.69 2.73 9
9/9/2021 6:15:00 PM 17.27 63.086 0.05 6.73 3.03 8.99
9/9/2021 6:30:00 PM 17.27 63.086 0.05 6.71 2.46 9
9/9/2021 6:45:00 PM 17.26 63.068 0.05 6.74 4.08 8.99
9/9/2021 7:00:00 PM 17.25 63.05 0.05 6.74 5.88 8.97
9/9/2021 7:15:00 PM 17.22 62.996 0.05 6.75 3.19 8.98
9/9/2021 7:30:00 PM 17.18 62.924 0.05 6.68 4.43 8.95
9/9/2021 7:45:00 PM 17.14 62.852 0.049 6.7 3.39 9
9/9/2021 8:00:00 PM 17.1 62.78 0.05 6.68 3.29 8.95
9/9/2021 8:15:00 PM 17.04 62.672 0.049 6.7 3.73 8.93
9/9/2021 8:30:00 PM 16.99 62.582 0.049 6.69 3.71 8.95
9/9/2021 8:45:00 PM 16.93 62.474 0.049 6.71 3.62 8.95
9/9/2021 9:00:00 PM 16.85 62.33 0.049 6.71 3.75 9
9/9/2021 9:15:00 PM 16.79 62.222 0.049 6.69 3.35 9.01
9/9/2021 9:30:00 PM 16.75 62.15 0.049 6.72 3.58 8.98
9/9/2021 9:45:00 PM 16.67 62.006 0.049 6.58 3.45 9.02
9/9/2021 10:00:00 PM 16.61 61.898 0.048 6.67 3.58 9.02
9/9/2021 10:15:00 PM 16.5 61.7 0.048 6.71 3.45 9.08
9/9/2021 10:30:00 PM 16.4 61.52 0.044 6.69 3.66 9.12
9/9/2021 10:45:00 PM 16.32 61.376 0.048 6.68 2.66 9.12
9/9/2021 11:00:00 PM -100000 -179968 -100000 -100000 -100000 -100000
9/9/2021 11:15:00 PM 16.13 61.034 0.047 6.68 2.88 9.16
9/9/2021 11:30:00 PM 16.03 60.854 0.043 6.58 2.77 9.18
9/9/2021 11:45:00 PM 15.94 60.692 0.042 6.71 3.34 9.2
9/10/2021 12:00:00 AM 15.83 60.494 0.044 6.57 2.82 9.21
9/10/2021 12:15:00 AM 15.73 60.314 0.042 6.67 3.39 9.23
9/10/2021 12:30:00 AM 15.62 60.116 0.042 6.68 2.97 9.28
9/10/2021 12:45:00 AM 15.52 59.936 0.049 6.64 3.07 9.31
9/10/2021 1:00:00 AM 15.44 59.792 0.047 6.64 3.19 9.3
9/10/2021 1:15:00 AM 15.36 59.648 0.041 6.6 3.32 9.32
9/10/2021 1:30:00 AM 15.28 59.504 0.049 6.68 3.37 9.34
9/10/2021 1:45:00 AM -100000 -179968 -100000 -100000 -100000 -100000
9/10/2021 2:00:00 AM 15.11 59.198 0.045 6.7 3.38 9.38
9/10/2021 2:15:00 AM 15.02 59.036 0.044 6.69 3.48 9.41
9/10/2021 2:30:00 AM 14.92 58.856 0.044 6.69 3.66 9.43
9/10/2021 2:45:00 AM 14.81 58.658 0.044 6.67 2.48 9.48
9/10/2021 3:00:00 AM 14.76 58.568 0.047 6.61 3.83 9.48
9/10/2021 3:15:00 AM 14.69 58.442 0.045 6.65 2.99 9.49
9/10/2021 3:30:00 AM 14.61 58.298 0.044 6.71 3.24 9.52
9/10/2021 3:45:00 AM 14.54 58.172 0.044 6.7 3.12 9.53
9/10/2021 4:00:00 AM 14.48 58.064 0.044 6.64 4.16 9.52
9/10/2021 4:15:00 AM 14.39 57.902 0.048 6.64 2.35 9.56
9/10/2021 4:30:00 AM 14.33 57.794 0.045 6.69 3.26 9.57
9/10/2021 4:45:00 AM -100000 -179968 -100000 -100000 -100000 -100000
9/10/2021 5:00:00 AM 14.24 57.632 0.05 6.67 3.28 9.58
9/10/2021 5:15:00 AM 14.15 57.47 0.05 6.69 2.98 9.62
9/10/2021 5:30:00 AM 14.09 57.362 0.046 6.69 2.46 9.62
9/10/2021 5:45:00 AM -100000 -179968 -100000 -100000 -100000 -100000
9/10/2021 6:00:00 AM 13.94 57.092 0.047 6.67 3.54 9.68
9/10/2021 6:15:00 AM 13.89 57.002 0.044 6.69 3.22 9.69
9/10/2021 6:30:00 AM 13.82 56.876 0.045 6.62 3.48 9.71
9/10/2021 6:45:00 AM 13.76 56.768 0.048 6.65 3.01 9.73
9/10/2021 7:00:00 AM 13.69 56.642 0.043 6.7 3.34 9.75
9/10/2021 7:15:00 AM 13.64 56.552 0.043 6.68 3.36 9.78
9/10/2021 7:30:00 AM 13.59 56.462 0.043 6.64 2.67 9.79
9/10/2021 7:45:00 AM -100000 -179968 -100000 -100000 -100000 -100000
9/10/2021 8:00:00 AM 13.47 56.246 0.043 6.66 3.39 9.85
9/10/2021 8:15:00 AM 13.46 56.228 0.045 6.66 3.89 9.85
9/10/2021 8:30:00 AM 13.4 56.12 0.043 6.68 4.5 9.9
9/10/2021 8:45:00 AM 13.39 56.102 0.044 6.71 3.49 9.92
9/10/2021 9:00:00 AM 13.4 56.12 0.044 6.68 3.36 9.92
9/10/2021 9:15:00 AM 13.42 56.156 0.045 6.7 2.99 9.95
9/10/2021 9:30:00 AM 13.45 56.21 0.043 6.7 4.36 9.95
9/10/2021 9:45:00 AM 13.5 56.3 0.046 6.73 3.36 9.96
9/10/2021 10:00:00 AM 13.58 56.444 0.043 6.74 3.53 9.97
9/10/2021 10:15:00 AM 13.66 56.588 0.044 6.73 2.44 9.98
9/10/2021 10:30:00 AM 13.72 56.696 0.048 6.68 3.05 10.01
9/10/2021 10:45:00 AM 13.81 56.858 0.044 6.76 3.41 10.02
9/10/2021 11:00:00 AM 13.85 56.93 0.043 6.73 3.38 9.99
9/10/2021 11:15:00 AM 13.92 57.056 0.045 6.79 2.89 9.99
9/10/2021 11:30:00 AM 13.98 57.164 0.045 6.72 3.41 9.96
9/10/2021 11:45:00 AM 14.07 57.326 0.045 6.75 3.65 9.95
9/10/2021 12:00:00 PM 14.18 57.524 0.046 6.72 2.44 9.94
9/10/2021 12:15:00 PM 14.3 57.74 0.046 6.75 3.2 9.92
9/10/2021 12:30:00 PM 14.44 57.992 0.045 6.75 2.28 9.91
9/10/2021 12:45:00 PM 14.52 58.136 0.043 6.72 3.15 9.9
9/10/2021 1:00:00 PM 14.66 58.388 0.045 6.75 2.36 9.86
9/10/2021 1:15:00 PM 14.81 58.658 0.044 6.7 3.49 9.81
9/10/2021 1:30:00 PM 14.94 58.892 0.044 6.71 2.95 9.8
9/10/2021 1:45:00 PM 15.07 59.126 0.047 6.67 3.06 9.77
9/10/2021 2:00:00 PM 15.21 59.378 0.043 6.76 3.39 9.73
9/10/2021 2:15:00 PM 15.45 59.81 0.049 6.74 3.72 9.68
9/10/2021 2:30:00 PM 15.56 60.008 0.043 6.78 3.36 9.66
9/10/2021 2:45:00 PM 15.65 60.17 0.048 6.78 2.36 9.63
9/10/2021 3:00:00 PM 15.78 60.404 0.041 6.74 3.59 9.6
9/10/2021 3:15:00 PM 15.92 60.656 0.042 6.76 3.35 9.54
9/10/2021 3:30:00 PM 16.06 60.908 0.045 6.74 3.49 9.5
9/10/2021 3:45:00 PM 16.12 61.016 0.046 6.72 2.38 9.47
9/10/2021 4:00:00 PM 16.2 61.16 0.045 6.74 3.59 9.44
9/10/2021 4:15:00 PM 16.27 61.286 0.047 6.66 3.81 9.41
9/10/2021 4:30:00 PM 16.37 61.466 0.046 6.73 2.94 9.38
9/10/2021 4:45:00 PM 16.44 61.592 0.043 6.71 3.38 9.36
9/10/2021 5:00:00 PM 16.5 61.7 0.047 6.74 2.45 9.33
9/10/2021 5:15:00 PM 16.56 61.808 0.043 6.74 3.31 9.3
9/10/2021 5:30:00 PM 16.58 61.844 0.042 6.75 2.79 9.28
9/10/2021 5:45:00 PM 16.6 61.88 0.044 6.71 3.34 9.25
9/10/2021 6:00:00 PM 16.62 61.916 0.047 6.7 3.56 9.24
9/10/2021 6:15:00 PM 16.66 61.988 0.047 6.7 3.75 9.21
9/10/2021 6:30:00 PM 16.67 62.006 0.047 6.69 3.62 9.2
9/10/2021 6:45:00 PM 16.69 62.042 0.048 6.72 3.42 9.17
9/10/2021 7:00:00 PM 16.69 62.042 0.048 6.64 3.34 9.17
9/10/2021 7:15:00 PM 16.68 62.024 0.048 6.49 3.15 9.16
9/10/2021 7:30:00 PM 16.65 61.97 0.048 6.72 2.62 9.17
9/10/2021 7:45:00 PM 16.62 61.916 0.048 6.7 3.62 9.14
9/10/2021 8:00:00 PM 16.59 61.862 0.049 6.66 2.38 9.12
9/10/2021 8:15:00 PM 16.55 61.79 0.042 6.65 3.71 9.14
9/10/2021 8:30:00 PM 16.52 61.736 0.049 6.7 3.32 9.12
9/10/2021 8:45:00 PM 16.47 61.646 0.047 6.7 2.47 9.09
9/10/2021 9:00:00 PM 16.41 61.538 0.048 6.71 2.66 9.13
9/10/2021 9:15:00 PM 16.34 61.412 0.048 6.63 3.56 9.16
9/10/2021 9:30:00 PM 16.28 61.304 0.049 6.67 3.2 9.13
9/10/2021 9:45:00 PM 16.19 61.142 0.048 6.57 2.85 9.2
9/10/2021 10:00:00 PM 16.13 61.034 0.048 6.69 2.48 9.2
9/10/2021 10:15:00 PM 16.02 60.836 0.048 6.59 3.21 9.23
9/10/2021 10:30:00 PM 15.94 60.692 0.047 6.73 4.08 9.25
9/10/2021 10:45:00 PM 15.85 60.53 0.048 6.61 4.21 9.29
9/10/2021 11:00:00 PM 15.75 60.35 0.039 6.67 3.35 9.31
9/10/2021 11:15:00 PM 15.65 60.17 0.048 6.35 2.68 9.35
9/10/2021 11:30:00 PM 15.58 60.044 0.042 6.69 3.63 9.35
9/10/2021 11:45:00 PM 15.51 59.918 0.049 6.68 3.74 9.32
9/11/2021 12:00:00 AM 15.39 59.702 0.049 6.69 2.72 9.38
9/11/2021 12:15:00 AM 15.29 59.522 0.049 6.49 2.96 9.37
9/11/2021 12:30:00 AM 15.19 59.342 0.047 6.59 3.98 9.41
9/11/2021 12:45:00 AM 15.09 59.162 0.042 6.68 3.33 9.44
9/11/2021 1:00:00 AM 14.96 58.928 0.049 6.67 3.7 9.49
9/11/2021 1:15:00 AM 14.88 58.784 0.049 6.63 3.2 9.49
9/11/2021 1:30:00 AM 14.77 58.586 0.049 6.67 4.26 9.53
9/11/2021 1:45:00 AM 14.65 58.37 0.049 6.65 3.89 9.54
9/11/2021 2:00:00 AM -100000 -179968 -100000 -100000 -100000 -100000
9/11/2021 2:15:00 AM 14.44 57.992 0.049 6.69 4.29 9.6
9/11/2021 2:30:00 AM 14.36 57.848 0.049 6.64 3.93 9.63
9/11/2021 2:45:00 AM 14.27 57.686 0.049 6.7 3.15 9.66
9/11/2021 3:00:00 AM -100000 -179968 -100000 -100000 -100000 -100000
9/11/2021 3:15:00 AM 14.11 57.398 0.049 6.69 3.59 9.67
9/11/2021 3:30:00 AM 14.04 57.272 0.049 6.68 3.05 9.71
9/11/2021 3:45:00 AM 13.93 57.074 0.049 6.66 4.28 9.75
9/11/2021 4:00:00 AM 13.89 57.002 0.049 6.69 4.56 9.74
9/11/2021 4:15:00 AM -100000 -179968 -100000 -100000 -100000 -100000
9/11/2021 4:30:00 AM 13.73 56.714 0.049 6.68 2.46 9.79
9/11/2021 4:45:00 AM 13.66 56.588 0.049 6.64 4.5 9.79
9/11/2021 5:00:00 AM 13.58 56.444 0.049 6.59 2.43 9.83
9/11/2021 5:15:00 AM -100000 -179968 -100000 -100000 -100000 -100000
9/11/2021 5:30:00 AM 13.44 56.192 0.049 6.56 4.45 9.85
9/11/2021 5:45:00 AM 13.37 56.066 0.049 6.65 2.77 9.86
9/11/2021 6:00:00 AM 13.3 55.94 0.049 6.56 4.12 9.92
9/11/2021 6:15:00 AM 13.25 55.85 0.049 6.64 3.79 9.91
9/11/2021 6:30:00 AM -100000 -179968 -100000 -100000 -100000 -100000
9/11/2021 6:45:00 AM 13.14 55.652 0.049 6.68 3.41 9.96
9/11/2021 7:00:00 AM 13.1 55.58 0.049 6.68 3.53 9.96
9/11/2021 7:15:00 AM 13.07 55.526 0.049 6.68 3.32 9.96
9/11/2021 7:30:00 AM 13.02 55.436 0.049 6.67 3.72 9.98
9/11/2021 7:45:00 AM 12.99 55.382 0.049 6.45 4.07 10
9/11/2021 8:00:00 AM 12.95 55.31 0.048 6.7 3.55 10.02
9/11/2021 8:15:00 AM 12.93 55.274 0.049 6.65 3.75 10.04
9/11/2021 8:30:00 AM 12.89 55.202 0.049 6.71 3.55 10.08
9/11/2021 8:45:00 AM 12.87 55.166 0.049 6.67 3.26 10.11
9/11/2021 9:00:00 AM 12.87 55.166 0.05 6.72 3.57 10.13
9/11/2021 9:15:00 AM 12.88 55.184 0.05 6.75 4.38 10.17
9/11/2021 9:30:00 AM 12.91 55.238 0.05 6.75 4.23 10.2
9/11/2021 9:45:00 AM 12.93 55.274 0.05 6.74 3.1 10.19
9/11/2021 10:00:00 AM 12.99 55.382 0.05 6.71 2.75 10.21
9/11/2021 10:15:00 AM 13.07 55.526 0.049 6.74 3.22 10.21
9/11/2021 10:30:00 AM 13.17 55.706 0.049 6.74 3.51 10.21
9/11/2021 10:45:00 AM 13.27 55.886 0.049 6.74 3.14 10.2
9/11/2021 11:00:00 AM 13.35 56.03 0.049 6.68 3.48 10.18
9/11/2021 11:15:00 AM 13.44 56.192 0.049 6.76 2.21 10.16
9/11/2021 11:30:00 AM 13.51 56.318 0.05 6.72 4.72 10.15
9/11/2021 11:45:00 AM 13.6 56.48 0.049 6.75 2.94 10.12
9/11/2021 12:00:00 PM 13.73 56.714 0.049 6.75 2.42 10.1
9/11/2021 12:15:00 PM 13.89 57.002 0.049 6.75 2.68 10.08
9/11/2021 12:30:00 PM 14.01 57.218 0.049 6.77 4.41 10.04
9/11/2021 12:45:00 PM 14.16 57.488 0.049 6.76 3.03 10
9/11/2021 1:00:00 PM 14.3 57.74 0.049 6.75 4.18 9.98
9/11/2021 1:15:00 PM 14.48 58.064 0.049 6.65 3.19 9.94
9/11/2021 1:30:00 PM 14.61 58.298 0.049 6.62 3.52 9.9
9/11/2021 1:45:00 PM 14.8 58.64 0.049 6.69 2.67 9.88
9/11/2021 2:00:00 PM 14.97 58.946 0.049 6.73 4.43 9.83
9/11/2021 2:15:00 PM 15.09 59.162 0.049 6.75 3 9.8
9/11/2021 2:30:00 PM 15.34 59.612 0.049 6.76 2.92 9.72
9/11/2021 2:45:00 PM 15.45 59.81 0.047 6.76 2.51 9.7
9/11/2021 3:00:00 PM 15.53 59.954 0.049 6.74 2.24 9.67
9/11/2021 3:15:00 PM 15.67 60.206 0.049 6.66 3.37 9.6
9/11/2021 3:30:00 PM 15.79 60.422 0.049 6.78 3.79 9.56
9/11/2021 3:45:00 PM 15.85 60.53 0.049 6.75 4.89 9.51
9/11/2021 4:00:00 PM 15.94 60.692 0.049 6.73 3.78 9.49
9/11/2021 4:15:00 PM 16.07 60.926 0.049 6.71 2.77 9.45
9/11/2021 4:30:00 PM 16.18 61.124 0.049 6.76 3.13 9.43
9/11/2021 4:45:00 PM 16.28 61.304 0.049 6.75 1.99 9.39
9/11/2021 5:00:00 PM 16.32 61.376 0.047 6.68 4.82 9.37
9/11/2021 5:15:00 PM 16.36 61.448 0.048 6.67 4.59 9.35
9/11/2021 5:30:00 PM 16.43 61.574 0.049 6.73 2.51 9.31
9/11/2021 5:45:00 PM 16.47 61.646 0.049 6.71 3.55 9.28
9/11/2021 6:00:00 PM 16.54 61.772 0.049 6.69 5.74 9.22
9/11/2021 6:15:00 PM 16.56 61.808 0.048 6.69 3.25 9.23
9/11/2021 6:30:00 PM 16.57 61.826 0.049 6.68 3.09 9.22
9/11/2021 6:45:00 PM 16.6 61.88 0.047 6.74 3.11 9.19
9/11/2021 7:00:00 PM 16.61 61.898 0.049 6.72 4.09 9.19
9/11/2021 7:15:00 PM 16.6 61.88 0.047 6.71 3.92 9.17
9/11/2021 7:30:00 PM 16.59 61.862 0.042 6.69 3.33 9.17
9/11/2021 7:45:00 PM 16.59 61.862 0.049 6.73 5.01 9.14
9/11/2021 8:00:00 PM 16.58 61.844 0.049 6.71 3.27 9.12
9/11/2021 8:15:00 PM 16.56 61.808 0.049 6.71 3.64 9.11
9/11/2021 8:30:00 PM 16.56 61.808 0.049 6.69 3.14 9.11
9/11/2021 8:45:00 PM 16.55 61.79 0.047 6.54 4.44 9.11
9/11/2021 9:00:00 PM 16.53 61.754 0.047 6.69 5.02 9.13
9/11/2021 9:15:00 PM 16.51 61.718 0.049 6.68 3.17 9.13
9/11/2021 9:30:00 PM 16.49 61.682 0.049 6.64 4.07 9.12
9/11/2021 9:45:00 PM 16.45 61.61 0.045 6.68 3.42 9.13
9/11/2021 10:00:00 PM 16.42 61.556 0.049 6.59 3.96 9.11
9/11/2021 10:15:00 PM 16.36 61.448 0.042 6.72 3.5 9.13
9/11/2021 10:30:00 PM 16.32 61.376 0.049 6.71 2.59 9.16
9/11/2021 10:45:00 PM 16.27 61.286 0.042 6.68 3.3 9.16
9/11/2021 11:00:00 PM 16.23 61.214 0.049 6.71 2.55 9.16
9/11/2021 11:15:00 PM 16.15 61.07 0.042 6.73 3.33 9.18
9/11/2021 11:30:00 PM 16.07 60.926 0.049 6.66 3.23 9.18
9/11/2021 11:45:00 PM 16.01 60.818 0.047 6.7 4.5 9.18
9/12/2021 12:00:00 AM 15.92 60.656 0.049 6.68 3.4 9.22
9/12/2021 12:15:00 AM 15.82 60.476 0.049 6.67 3.97 9.23
9/12/2021 12:30:00 AM 15.76 60.368 0.049 6.71 3.47 9.26
9/12/2021 12:45:00 AM 15.66 60.188 0.047 6.71 3.35 9.3
9/12/2021 1:00:00 AM 15.55 59.99 0.049 6.54 2.88 9.32
9/12/2021 1:15:00 AM 15.48 59.864 0.047 6.68 5.43 9.35
9/12/2021 1:30:00 AM 15.39 59.702 0.049 6.72 4.07 9.37
9/12/2021 1:45:00 AM 15.32 59.576 0.049 6.71 2.73 9.39
9/12/2021 2:00:00 AM 15.24 59.432 0.049 6.67 3.54 9.43
9/12/2021 2:15:00 AM 15.14 59.252 0.049 6.63 3.7 9.44
9/12/2021 2:30:00 AM 15.06 59.108 0.043 6.64 3.52 9.46
9/12/2021 2:45:00 AM 14.99 58.982 0.049 6.67 4.39 9.5
9/12/2021 3:00:00 AM 14.93 58.874 0.049 6.62 4.46 9.48
9/12/2021 3:15:00 AM 14.86 58.748 0.049 6.71 3.3 9.51
9/12/2021 3:30:00 AM 14.77 58.586 0.049 6.71 3.8 9.54
9/12/2021 3:45:00 AM 14.72 58.496 0.049 6.7 3.37 9.56
9/12/2021 4:00:00 AM 14.61 58.298 0.049 6.64 4.96 9.61
9/12/2021 4:15:00 AM 14.58 58.244 0.049 6.69 5.08 9.58
9/12/2021 4:30:00 AM 14.53 58.154 0.049 6.71 3.32 9.57
9/12/2021 4:45:00 AM 14.48 58.064 0.05 6.7 4.39 9.6
9/12/2021 5:00:00 AM 14.41 57.938 0.05 6.62 4.97 9.6
9/12/2021 5:15:00 AM 14.35 57.83 0.05 6.68 4.33 9.62
9/12/2021 5:30:00 AM 14.29 57.722 0.05 6.68 3.24 9.65
9/12/2021 5:45:00 AM 14.27 57.686 0.05 6.61 5.19 9.66
9/12/2021 6:00:00 AM 14.2 57.56 0.05 6.68 3.41 9.64
9/12/2021 6:15:00 AM 14.15 57.47 0.05 6.7 3.28 9.66
9/12/2021 6:30:00 AM 14.12 57.416 0.05 6.67 4.31 9.69
9/12/2021 6:45:00 AM 14.06 57.308 0.05 6.61 3.8 9.73
9/12/2021 7:00:00 AM 14.03 57.254 0.05 6.59 4.27 9.72
9/12/2021 7:15:00 AM 13.99 57.182 0.05 6.69 2.77 9.72
9/12/2021 7:30:00 AM 13.96 57.128 0.05 6.67 2.45 9.74
9/12/2021 7:45:00 AM -100000 -179968 -100000 -100000 -100000 -100000
9/12/2021 8:00:00 AM 13.89 57.002 0.05 6.68 3.48 9.81
9/12/2021 8:15:00 AM 13.88 56.984 0.049 6.64 5.13 9.82
9/12/2021 8:30:00 AM 13.88 56.984 0.048 6.7 3.58 9.81
9/12/2021 8:45:00 AM 13.87 56.966 0.045 6.68 3.61 9.85
9/12/2021 9:00:00 AM 13.9 57.02 0.047 6.71 3.99 9.87
9/12/2021 9:15:00 AM 13.93 57.074 0.05 6.73 3.42 9.85
9/12/2021 9:30:00 AM 13.94 57.092 0.05 6.73 3.69 9.91
9/12/2021 9:45:00 AM 13.97 57.146 0.049 6.74 3.51 9.91
9/12/2021 10:00:00 AM 14.02 57.236 0.051 6.75 3.37 9.92
9/12/2021 10:15:00 AM 14.09 57.362 0.05 6.74 2.9 9.89
9/12/2021 10:30:00 AM 14.18 57.524 0.051 6.73 3.45 9.91
9/12/2021 10:45:00 AM 14.28 57.704 0.049 6.74 3.41 9.94
9/12/2021 11:00:00 AM 14.34 57.812 0.043 6.78 3.49 9.94
9/12/2021 11:15:00 AM 14.39 57.902 0.049 6.77 3.52 9.94
9/12/2021 11:30:00 AM 14.48 58.064 0.05 6.74 3.66 9.92
9/12/2021 11:45:00 AM 14.51 58.118 0.044 6.71 3.26 9.89
9/12/2021 12:00:00 PM 14.63 58.334 0.047 6.75 3.34 9.89
9/12/2021 12:15:00 PM 14.77 58.586 0.045 6.76 3.21 9.88
9/12/2021 12:30:00 PM 14.83 58.694 0.048 6.76 3.49 9.87
9/12/2021 12:45:00 PM 14.98 58.964 0.049 6.81 2.44 9.83
9/12/2021 1:00:00 PM 15.15 59.27 0.047 6.79 3.33 9.81
9/12/2021 1:15:00 PM 15.38 59.684 0.044 6.71 3.38 9.77
9/12/2021 1:30:00 PM 15.49 59.882 0.044 6.8 3.22 9.74
9/12/2021 1:45:00 PM 15.68 60.224 0.045 6.8 3.41 9.69
9/12/2021 2:00:00 PM 15.88 60.584 0.045 6.79 3.13 9.65
9/12/2021 2:15:00 PM 16.05 60.89 0.043 6.79 3.35 9.6
9/12/2021 2:30:00 PM 16.29 61.322 0.044 6.79 3.23 9.54
9/12/2021 2:45:00 PM 16.39 61.502 0.05 6.78 3.46 9.51
9/12/2021 3:00:00 PM -100000 -179968 -100000 -100000 -100000 -100000
9/12/2021 3:15:00 PM 16.67 62.006 0.05 6.74 3.18 9.4
9/12/2021 3:30:00 PM 16.81 62.258 0.05 6.76 3.58 9.35
9/12/2021 3:45:00 PM 16.97 62.546 0.05 6.74 5 9.29
9/12/2021 4:00:00 PM 17.07 62.726 0.049 6.73 3.59 9.29
9/12/2021 4:15:00 PM 17.21 62.978 0.049 6.72 6.42 9.24
9/12/2021 4:30:00 PM 17.35 63.23 0.049 6.7 3.3 9.19
9/12/2021 4:45:00 PM 17.42 63.356 0.05 6.76 2.44 9.18
9/12/2021 5:00:00 PM 17.53 63.554 0.046 6.75 4.36 9.1
9/12/2021 5:15:00 PM 17.68 63.824 0.049 6.71 2.87 9.06
9/12/2021 5:30:00 PM 17.74 63.932 0.049 6.74 3.23 9.04
9/12/2021 5:45:00 PM 17.87 64.166 0.049 6.73 2.8 9
9/12/2021 6:00:00 PM 17.93 64.274 0.049 6.73 2.69 8.98
9/12/2021 6:15:00 PM 17.99 64.382 0.049 6.73 3.21 8.95
9/12/2021 6:30:00 PM 18.05 64.49 0.039 6.72 3.91 8.91
9/12/2021 6:45:00 PM 18.09 64.562 0.048 6.63 3.75 8.9
9/12/2021 7:00:00 PM 18.11 64.598 0.049 6.68 4.85 8.88
9/12/2021 7:15:00 PM 18.13 64.634 0.049 6.69 4.13 8.86
9/12/2021 7:30:00 PM 18.13 64.634 0.049 6.69 3.11 8.86
9/12/2021 7:45:00 PM 18.14 64.652 0.049 6.6 3.35 8.82
9/12/2021 8:00:00 PM 18.15 64.67 0.049 6.67 2.78 8.8
9/12/2021 8:15:00 PM 18.16 64.688 0.049 6.65 2.51 8.78
9/12/2021 8:30:00 PM 18.16 64.688 0.049 6.62 3.12 8.79
9/12/2021 8:45:00 PM 18.17 64.706 0.049 6.67 3.38 8.8
9/12/2021 9:00:00 PM 18.17 64.706 0.048 6.6 4.43 8.77
9/12/2021 9:15:00 PM 18.17 64.706 0.044 6.63 4.16 8.76
9/12/2021 9:30:00 PM 18.17 64.706 0.049 6.65 3.31 8.79
9/12/2021 9:45:00 PM 18.16 64.688 0.049 6.65 4.5 8.79
9/12/2021 10:00:00 PM 18.15 64.67 0.049 6.64 4.93 8.79
9/12/2021 10:15:00 PM 18.14 64.652 0.047 6.62 4.39 8.75
9/12/2021 10:30:00 PM 18.12 64.616 0.047 6.66 3.01 8.8
9/12/2021 10:45:00 PM 18.1 64.58 0.049 6.66 2.55 8.79
9/12/2021 11:00:00 PM 18.06 64.508 0.049 6.66 3.52 8.8
9/12/2021 11:15:00 PM 18.02 64.436 0.05 6.65 4.73 8.78
9/12/2021 11:30:00 PM 17.98 64.364 0.049 6.68 3.83 8.82
9/12/2021 11:45:00 PM 17.95 64.31 0.044 6.66 3.38 8.78
9/13/2021 12:00:00 AM 17.87 64.166 0.049 6.59 2.54 8.83
9/13/2021 12:15:00 AM 17.83 64.094 0.05 6.69 4.68 8.81
9/13/2021 12:30:00 AM 17.77 63.986 0.049 6.58 5.1 8.84
9/13/2021 12:45:00 AM 17.69 63.842 0.05 6.67 2.96 8.86
9/13/2021 1:00:00 AM 17.65 63.77 0.048 6.66 3.81 8.86
9/13/2021 1:15:00 AM 17.59 63.662 0.05 6.68 2.09 8.92
9/13/2021 1:30:00 AM 17.55 63.59 0.05 6.68 2.43 8.88
9/13/2021 1:45:00 AM 17.48 63.464 0.048 6.68 3.29 8.96
9/13/2021 2:00:00 AM 17.45 63.41 0.05 6.55 3.54 8.91
9/13/2021 2:15:00 AM 17.39 63.302 0.05 6.66 3.83 8.95
9/13/2021 2:30:00 AM 17.33 63.194 0.05 6.63 3.58 8.95
9/13/2021 2:45:00 AM 17.26 63.068 0.05 6.56 4.61 9.02
9/13/2021 3:00:00 AM 17.24 63.032 0.05 6.68 4.06 8.96
9/13/2021 3:15:00 AM 17.22 62.996 0.05 6.63 4.32 8.98
9/13/2021 3:30:00 AM 17.15 62.87 0.05 6.63 4.93 8.98
9/13/2021 3:45:00 AM 17.13 62.834 0.051 6.66 3.22 8.96
9/13/2021 4:00:00 AM 17.07 62.726 0.05 6.65 3.08 9.02
9/13/2021 4:15:00 AM 17.01 62.618 0.049 6.63 5 9.07
9/13/2021 4:30:00 AM 16.99 62.582 0.044 6.68 3.65 9.04
9/13/2021 4:45:00 AM 16.95 62.51 0.051 6.65 4.01 9.03
9/13/2021 5:00:00 AM 16.92 62.456 0.046 6.61 3.22 9.06
9/13/2021 5:15:00 AM 16.89 62.402 0.051 6.64 2.4 9.08
9/13/2021 5:30:00 AM 16.87 62.366 0.05 6.66 3.48 9.04
9/13/2021 5:45:00 AM 16.84 62.312 0.05 6.66 2.35 9.04
9/13/2021 6:00:00 AM 16.8 62.24 0.051 6.59 2.95 9.07
9/13/2021 6:15:00 AM 16.77 62.186 0.051 6.67 2.86 9.08
9/13/2021 6:30:00 AM 16.74 62.132 0.051 6.65 3.42 9.08
9/13/2021 6:45:00 AM 16.72 62.096 0.051 6.7 3.57 9.09
9/13/2021 7:00:00 AM 16.68 62.024 0.051 6.67 3.24 9.11
9/13/2021 7:15:00 AM 16.66 61.988 0.051 6.67 3.47 9.1
9/13/2021 7:30:00 AM 16.63 61.934 0.051 6.61 3.44 9.13
9/13/2021 7:45:00 AM 16.62 61.916 0.047 6.67 3.22 9.12
9/13/2021 8:00:00 AM 16.62 61.916 0.045 6.69 3.28 9.14
9/13/2021 8:15:00 AM 16.61 61.898 0.046 6.64 3.37 9.15
9/13/2021 8:30:00 AM 16.61 61.898 0.048 6.63 2.94 9.19
9/13/2021 8:45:00 AM 16.62 61.916 0.046 6.69 3.37 9.23
9/13/2021 9:00:00 AM 16.64 61.952 0.048 6.69 3.36 9.21
9/13/2021 9:15:00 AM 16.68 62.024 0.045 6.72 3.44 9.25
9/13/2021 9:30:00 AM 16.88 62.384 0.053 6.81 3.66 9.29
9/13/2021 9:45:00 AM 16.79 62.222 0.053 6.72 1.13 9.33
9/13/2021 10:00:00 AM 16.83 62.294 0.052 6.71 0.95 9.39
9/13/2021 10:15:00 AM 16.9 62.42 0.052 6.71 0.99 9.4
9/13/2021 10:30:00 AM 16.96 62.528 0.052 6.7 0.95 9.43
9/13/2021 10:45:00 AM 17.02 62.636 0.052 6.69 0.96 9.42
9/13/2021 11:00:00 AM 17.09 62.762 0.052 6.71 1 9.42
9/13/2021 11:15:00 AM 17.16 62.888 0.052 6.72 1.04 9.43
9/13/2021 11:30:00 AM 17.31 63.158 0.052 6.72 0.89 9.44
9/13/2021 11:45:00 AM 17.47 63.446 0.051 6.68 0.92 9.43
9/13/2021 12:00:00 PM 17.51 63.518 0.052 6.75 0.9 9.4
9/13/2021 12:15:00 PM 17.67 63.806 0.051 6.73 1.03 9.37
9/13/2021 12:30:00 PM 17.75 63.95 0.052 6.74 0.9 9.35
9/13/2021 12:45:00 PM 17.84 64.112 0.052 6.73 0.93 9.33
9/13/2021 1:00:00 PM 17.95 64.31 0.051 6.73 1.03 9.31
9/13/2021 1:15:00 PM 18.01 64.418 0.051 6.72 0.99 9.29
9/13/2021 1:30:00 PM 18.09 64.562 0.052 6.73 0.98 9.26
9/13/2021 1:45:00 PM 18.23 64.814 0.051 6.72 0.95 9.23
9/13/2021 2:00:00 PM 18.3 64.94 0.052 6.73 0.91 9.21
9/13/2021 2:15:00 PM 18.44 65.192 0.051 6.73 0.86 9.2
9/13/2021 2:30:00 PM 18.58 65.444 0.051 6.73 0.87 9.16
9/13/2021 2:45:00 PM 18.69 65.642 0.051 6.72 1 9.13
9/13/2021 3:00:00 PM 18.74 65.732 0.051 6.72 0.95 9.09
9/13/2021 3:15:00 PM -100000 -179968 -100000 -100000 -100000 -100000
9/13/2021 3:30:00 PM 18.92 66.056 0.051 6.71 0.93 9.03
9/13/2021 3:45:00 PM 19.02 66.236 0.051 6.71 0.89 8.99
9/13/2021 4:00:00 PM 19.11 66.398 0.051 6.72 0.82 8.97
9/13/2021 4:15:00 PM 19.2 66.56 0.051 6.66 0.91 8.94
9/13/2021 4:30:00 PM 19.24 66.632 0.051 6.7 0.91 8.91
9/13/2021 4:45:00 PM 19.26 66.668 0.051 6.68 0.88 8.9
9/13/2021 5:00:00 PM 19.31 66.758 0.051 6.69 1 8.88
9/13/2021 5:15:00 PM 19.35 66.83 0.051 6.69 0.9 8.86
9/13/2021 5:30:00 PM 19.37 66.866 0.051 6.69 0.88 8.84
9/13/2021 5:45:00 PM 19.42 66.956 0.051 6.67 0.83 8.81
9/13/2021 6:00:00 PM 19.45 67.01 0.051 6.66 0.95 8.78
9/13/2021 6:15:00 PM 19.48 67.064 0.051 6.66 0.89 8.77
9/13/2021 6:30:00 PM -100000 -179968 -100000 -100000 -100000 -100000
9/13/2021 6:45:00 PM 19.5 67.1 0.051 6.63 0.93 8.7
9/13/2021 7:00:00 PM 19.5 67.1 0.051 6.62 0.84 8.67
9/13/2021 7:15:00 PM 19.49 67.082 0.051 6.62 0.91 8.65
9/13/2021 7:30:00 PM 19.48 67.064 0.051 6.6 0.9 8.64
9/13/2021 7:45:00 PM 19.48 67.064 0.051 6.61 0.95 8.65
9/13/2021 8:00:00 PM 19.49 67.082 0.051 6.62 0.87 8.64
9/13/2021 8:15:00 PM 19.48 67.064 0.051 6.63 0.98 8.63
9/13/2021 8:30:00 PM 19.47 67.046 0.051 6.62 0.95 8.65
9/13/2021 8:45:00 PM 19.44 66.992 0.051 6.6 0.94 8.63
9/13/2021 9:00:00 PM 19.44 66.992 0.051 6.64 0.83 8.62
9/13/2021 9:15:00 PM 19.41 66.938 0.051 6.62 0.84 8.64
9/13/2021 9:30:00 PM 19.38 66.884 0.051 6.62 0.89 8.64
9/13/2021 9:45:00 PM 19.36 66.848 0.051 6.62 0.95 8.64
9/13/2021 10:00:00 PM 19.34 66.812 0.051 6.62 1 8.64
9/13/2021 10:15:00 PM 19.32 66.776 0.051 6.64 0.88 8.62
9/13/2021 10:30:00 PM 19.25 66.65 0.051 6.63 0.8 8.66
9/13/2021 10:45:00 PM 19.2 66.56 0.051 6.63 0.9 8.66
9/13/2021 11:00:00 PM 19.19 66.542 0.052 6.65 0.95 8.64
9/13/2021 11:15:00 PM 19.11 66.398 0.051 6.62 1.01 8.68
9/13/2021 11:30:00 PM 19.06 66.308 0.051 6.63 0.95 8.69
9/13/2021 11:45:00 PM 19 66.2 0.051 6.63 0.91 8.7
9/14/2021 12:00:00 AM 18.96 66.128 0.051 6.63 0.86 8.69
9/14/2021 12:15:00 AM 18.86 65.948 0.051 6.63 0.92 8.74
9/14/2021 12:30:00 AM 18.84 65.912 0.052 6.65 0.9 8.72
9/14/2021 12:45:00 AM 18.78 65.804 0.052 6.64 0.9 8.73
9/14/2021 1:00:00 AM 18.69 65.642 0.051 6.63 0.88 8.81
9/14/2021 1:15:00 AM 18.67 65.606 0.052 6.64 0.81 8.76
9/14/2021 1:30:00 AM 18.6 65.48 0.052 6.63 0.87 8.8
9/14/2021 1:45:00 AM 18.56 65.408 0.052 6.58 0.99 8.8
9/14/2021 2:00:00 AM 18.51 65.318 0.052 6.63 1.03 8.8
9/14/2021 2:15:00 AM 18.44 65.192 0.052 6.62 0.97 8.84
9/14/2021 2:30:00 AM 18.39 65.102 0.052 6.61 0.97 8.86
9/14/2021 2:45:00 AM 18.33 64.994 0.052 6.62 0.9 8.85
9/14/2021 3:00:00 AM 18.28 64.904 0.052 6.63 0.99 8.87
9/14/2021 3:15:00 AM 18.22 64.796 0.052 6.62 1.02 8.88
9/14/2021 3:30:00 AM 18.19 64.742 0.052 6.61 0.92 8.85
9/14/2021 3:45:00 AM 18.1 64.58 0.052 6.62 0.93 8.89
9/14/2021 4:00:00 AM 18.06 64.508 0.052 6.62 0.91 8.89
9/14/2021 4:15:00 AM 18.01 64.418 0.052 6.63 0.89 8.89
9/14/2021 4:30:00 AM 17.94 64.292 0.052 6.6 0.98 8.91
9/14/2021 4:45:00 AM 17.86 64.148 0.052 6.61 0.96 8.95
9/14/2021 5:00:00 AM 17.82 64.076 0.052 6.62 0.91 8.94
9/14/2021 5:15:00 AM 17.76 63.968 0.052 6.62 1 8.95
9/14/2021 5:30:00 AM 17.7 63.86 0.052 6.61 0.9 8.98
9/14/2021 5:45:00 AM 17.68 63.824 0.052 6.61 1.01 8.96
9/14/2021 6:00:00 AM 17.64 63.752 0.052 6.62 1 8.98
9/14/2021 6:15:00 AM 17.6 63.68 0.052 6.61 0.89 8.98
9/14/2021 6:30:00 AM 17.59 63.662 0.052 6.62 1.06 8.97
9/14/2021 6:45:00 AM 17.54 63.572 0.052 6.61 1 9
9/14/2021 7:00:00 AM 17.5 63.5 0.052 6.58 1.06 9.03
9/14/2021 7:15:00 AM 17.48 63.464 0.052 6.62 1 9.03
9/14/2021 7:30:00 AM 17.46 63.428 0.052 6.61 1.01 9.04
9/14/2021 7:45:00 AM 17.42 63.356 0.052 6.59 1.01 9.07
9/14/2021 8:00:00 AM 17.41 63.338 0.052 6.61 1.06 9.07
9/14/2021 8:15:00 AM 17.41 63.338 0.053 6.63 1.2 9.03
9/14/2021 8:30:00 AM 17.39 63.302 0.053 6.64 0.92 9.08
9/14/2021 8:45:00 AM 17.37 63.266 0.052 6.63 0.98 9.13
9/14/2021 9:00:00 AM 17.37 63.266 0.052 6.63 1.04 9.17
9/14/2021 9:15:00 AM 17.38 63.284 0.053 6.65 1.03 9.16
9/14/2021 9:30:00 AM 17.37 63.266 0.052 6.63 0.99 9.23
9/14/2021 9:45:00 AM 17.41 63.338 0.053 6.66 1.01 9.21
9/14/2021 10:00:00 AM 17.45 63.41 0.052 6.68 1.05 9.25
9/14/2021 10:15:00 AM 17.53 63.554 0.052 6.68 1.12 9.27
9/14/2021 10:30:00 AM 17.59 63.662 0.053 6.7 0.97 9.26
9/14/2021 10:45:00 AM 17.73 63.914 0.052 6.7 1.03 9.28
9/14/2021 11:00:00 AM 17.77 63.986 0.053 6.72 0.96 9.25
9/14/2021 11:15:00 AM 17.93 64.274 0.052 6.7 1.01 9.26
9/14/2021 11:30:00 AM 18.01 64.418 0.052 6.72 0.96 9.25
9/14/2021 11:45:00 AM 18.13 64.634 0.052 6.73 0.96 9.23
9/14/2021 12:00:00 PM 18.31 64.958 0.052 6.74 1.05 9.22
9/14/2021 12:15:00 PM 18.33 64.994 0.052 6.76 1.03 9.21
9/14/2021 12:30:00 PM 18.47 65.246 0.052 6.76 0.95 9.18
9/14/2021 12:45:00 PM 18.61 65.498 0.052 6.74 1.09 9.14
9/14/2021 1:00:00 PM 18.64 65.552 0.052 6.76 0.93 9.13
9/14/2021 1:15:00 PM 18.68 65.624 0.053 6.75 0.87 9.12
9/14/2021 1:30:00 PM 18.83 65.894 0.052 6.74 0.9 9.08
9/14/2021 1:45:00 PM 18.89 66.002 0.052 6.75 1 9.06
9/14/2021 2:00:00 PM 19.03 66.254 0.052 6.75 0.85 9.04
9/14/2021 2:15:00 PM 19.13 66.434 0.052 6.75 1 9.01
9/14/2021 2:30:00 PM 19.26 66.668 0.052 6.75 0.97 8.99
9/14/2021 2:45:00 PM -100000 -179968 -100000 -100000 -100000 -100000
9/14/2021 3:00:00 PM 19.5 67.1 0.052 6.75 0.88 8.91
9/14/2021 3:15:00 PM 19.61 67.298 0.052 6.74 1.03 8.9
9/14/2021 3:30:00 PM 19.71 67.478 0.052 6.74 0.85 8.87
9/14/2021 3:45:00 PM 19.84 67.712 0.052 6.73 0.93 8.82
9/14/2021 4:00:00 PM 19.91 67.838 0.052 6.72 0.95 8.79
9/14/2021 4:15:00 PM -100000 -179968 -100000 -100000 -100000 -100000
9/14/2021 4:30:00 PM 20.02 68.036 0.051 6.71 1 8.73
9/14/2021 4:45:00 PM 20.08 68.144 0.051 6.7 0.98 8.71
9/14/2021 5:00:00 PM 20.14 68.252 0.051 6.7 1.11 8.7
9/14/2021 5:15:00 PM -100000 -179968 -100000 -100000 -100000 -100000
9/14/2021 5:30:00 PM 20.2 68.36 0.051 6.69 0.94 8.64
9/14/2021 5:45:00 PM 20.23 68.414 0.051 6.69 1 8.61
9/14/2021 6:00:00 PM 20.24 68.432 0.051 6.64 0.98 8.58
9/14/2021 6:15:00 PM 20.27 68.486 0.051 6.67 1.08 8.56
9/14/2021 6:30:00 PM 20.28 68.504 0.051 6.67 1 8.54
9/14/2021 6:45:00 PM -100000 -179968 -100000 -100000 -100000 -100000
9/14/2021 7:00:00 PM 20.28 68.504 0.051 6.66 1.06 8.52
9/14/2021 7:15:00 PM 20.26 68.468 0.051 6.65 1.05 8.5
9/14/2021 7:30:00 PM 20.23 68.414 0.051 6.64 1.03 8.49
9/14/2021 7:45:00 PM 20.2 68.36 0.051 6.64 1.06 8.46
9/14/2021 8:00:00 PM 20.17 68.306 0.051 6.65 0.96 8.47
9/14/2021 8:15:00 PM 20.14 68.252 0.051 6.65 1.08 8.47
9/14/2021 8:30:00 PM 20.11 68.198 0.051 6.65 0.97 8.48
9/14/2021 8:45:00 PM 20.08 68.144 0.051 6.65 0.99 8.46
9/14/2021 9:00:00 PM 20.05 68.09 0.051 6.65 0.97 8.48
9/14/2021 9:15:00 PM 20.01 68.018 0.051 6.65 0.95 8.48
9/14/2021 9:30:00 PM 19.98 67.964 0.051 6.65 0.96 8.48
9/14/2021 9:45:00 PM 19.93 67.874 0.051 6.65 0.9 8.47
9/14/2021 10:00:00 PM 19.89 67.802 0.051 6.59 0.94 8.5
9/14/2021 10:15:00 PM 19.83 67.694 0.051 6.64 0.92 8.51
9/14/2021 10:30:00 PM 19.78 67.604 0.051 6.62 1.07 8.51
9/14/2021 10:45:00 PM 19.72 67.496 0.051 6.64 1.06 8.53
9/14/2021 11:00:00 PM 19.65 67.37 0.051 6.64 1.07 8.56
9/14/2021 11:15:00 PM -100000 -179968 -100000 -100000 -100000 -100000
9/14/2021 11:30:00 PM -100000 -179968 -100000 -100000 -100000 -100000
9/14/2021 11:45:00 PM 19.45 67.01 0.051 6.64 0.96 8.59
9/15/2021 12:00:00 AM 19.38 66.884 0.051 6.64 1.01 8.6
9/15/2021 12:15:00 AM 19.3 66.74 0.051 6.64 1 8.61
9/15/2021 12:30:00 AM 19.23 66.614 0.051 6.59 0.93 8.6
9/15/2021 12:45:00 AM 19.15 66.47 0.051 6.64 1 8.64
9/15/2021 1:00:00 AM 19.07 66.326 0.051 6.64 0.98 8.65
9/15/2021 1:15:00 AM 18.98 66.164 0.051 6.64 0.97 8.69
9/15/2021 1:30:00 AM 18.9 66.02 0.051 6.64 0.92 8.7
9/15/2021 1:45:00 AM 18.82 65.876 0.051 6.64 1.06 8.71
9/15/2021 2:00:00 AM 18.74 65.732 0.052 6.64 1.02 8.71
9/15/2021 2:15:00 AM 18.66 65.588 0.052 6.64 1.05 8.73
9/15/2021 2:30:00 AM 18.57 65.426 0.052 6.64 1.01 8.76
9/15/2021 2:45:00 AM 18.49 65.282 0.052 6.63 0.99 8.79
9/15/2021 3:00:00 AM 18.42 65.156 0.052 6.63 1 8.78
9/15/2021 3:15:00 AM 18.35 65.03 0.052 6.64 0.96 8.79
9/15/2021 3:30:00 AM 18.25 64.85 0.052 6.64 1.02 8.83
9/15/2021 3:45:00 AM 18.19 64.742 0.052 6.64 1 8.84
9/15/2021 4:00:00 AM 18.12 64.616 0.052 6.63 1.01 8.84
9/15/2021 4:15:00 AM 18.04 64.472 0.052 6.63 1.05 8.86
9/15/2021 4:30:00 AM 17.97 64.346 0.052 6.64 0.98 8.87
9/15/2021 4:45:00 AM 17.91 64.238 0.052 6.63 1.04 8.87
9/15/2021 5:00:00 AM 17.83 64.094 0.052 6.63 1 8.92
9/15/2021 5:15:00 AM 17.77 63.986 0.052 6.63 0.99 8.89
9/15/2021 5:30:00 AM 17.68 63.824 0.052 6.63 1.02 8.93
9/15/2021 5:45:00 AM 17.62 63.716 0.052 6.59 1.03 8.94
9/15/2021 6:00:00 AM 17.54 63.572 0.052 6.63 1.09 8.98
9/15/2021 6:15:00 AM 17.48 63.464 0.052 6.63 1.11 8.97
9/15/2021 6:30:00 AM 17.41 63.338 0.052 6.62 1.15 8.98
9/15/2021 6:45:00 AM 17.35 63.23 0.052 6.62 1.07 9
9/15/2021 7:00:00 AM 17.3 63.14 0.052 6.62 1.22 9
9/15/2021 7:15:00 AM 17.25 63.05 0.052 6.59 1.09 9
9/15/2021 7:30:00 AM 17.2 62.96 0.052 6.63 1.14 9.04
9/15/2021 7:45:00 AM 17.17 62.906 0.052 6.62 1.04 9.07
9/15/2021 8:00:00 AM 17.15 62.87 0.052 6.63 1.1 9.06
9/15/2021 8:15:00 AM 17.12 62.816 0.052 6.62 1.11 9.12
9/15/2021 8:30:00 AM 17.11 62.798 0.052 6.61 1.13 9.13
9/15/2021 8:45:00 AM 17.1 62.78 0.052 6.62 1.02 9.16
9/15/2021 9:00:00 AM 17.12 62.816 0.052 6.65 1.11 9.19
9/15/2021 9:15:00 AM 17.13 62.834 0.052 6.64 1.05 9.22
9/15/2021 9:30:00 AM 17.12 62.816 0.052 6.62 1.1 9.21
9/15/2021 9:45:00 AM 17.12 62.816 0.052 6.65 1.14 9.21
9/15/2021 10:00:00 AM 17.15 62.87 0.052 6.65 1.05 9.23
9/15/2021 10:15:00 AM 17.26 63.068 0.052 6.65 1.06 9.27
9/15/2021 10:30:00 AM 17.4 63.32 0.052 6.67 1.12 9.3
9/15/2021 10:45:00 AM 17.41 63.338 0.052 6.67 0.99 9.26
9/15/2021 11:00:00 AM 17.4 63.32 0.052 6.67 1.14 9.22
9/15/2021 11:15:00 AM 17.4 63.32 0.052 6.67 1.49 9.19
9/15/2021 11:30:00 AM 17.48 63.464 0.052 6.71 2.38 9.12
9/15/2021 11:45:00 AM 17.54 63.572 0.053 6.77 2.63 9.07
9/15/2021 12:00:00 PM 17.59 63.662 0.053 6.74 2.1 9.08
9/15/2021 12:15:00 PM 17.62 63.716 0.053 6.75 2.03 9.11
9/15/2021 12:30:00 PM 17.63 63.734 0.053 6.73 1.73 9.09
9/15/2021 12:45:00 PM 17.64 63.752 0.053 6.75 1.72 9.08
9/15/2021 1:00:00 PM 17.69 63.842 0.054 6.71 1.39 9.09
9/15/2021 1:15:00 PM 17.73 63.914 0.053 6.73 1.23 9.1
9/15/2021 1:30:00 PM 17.75 63.95 0.053 6.69 1.31 9.12
9/15/2021 1:45:00 PM 17.77 63.986 0.053 6.71 1.51 9.06
9/15/2021 2:00:00 PM 17.78 64.004 0.053 6.65 1.21 9.03
9/15/2021 2:15:00 PM 17.78 64.004 0.054 6.7 1.28 9.03
9/15/2021 2:30:00 PM 17.8 64.04 0.055 6.73 1.2 8.99
9/15/2021 2:45:00 PM 17.82 64.076 0.055 6.75 1.28 8.97
9/15/2021 3:00:00 PM 17.84 64.112 0.055 6.75 1.34 8.97
9/15/2021 3:15:00 PM 17.87 64.166 0.056 6.75 1.14 8.98
9/15/2021 3:30:00 PM 17.89 64.202 0.056 6.74 1.22 9.01
9/15/2021 3:45:00 PM 17.91 64.238 0.056 6.74 1.29 8.99
9/15/2021 4:00:00 PM 17.91 64.238 0.057 6.73 1.08 8.98
9/15/2021 4:15:00 PM 17.95 64.31 0.057 6.71 1.19 8.99
9/15/2021 4:30:00 PM 17.99 64.382 0.057 6.71 1.2 9.01
9/15/2021 4:45:00 PM 18.03 64.454 0.058 6.7 1.38 9
9/15/2021 5:00:00 PM 18.05 64.49 0.058 6.7 1.26 8.98
9/15/2021 5:15:00 PM 18.07 64.526 0.057 6.69 1.31 8.96
9/15/2021 5:30:00 PM 18.07 64.526 0.057 6.7 1.2 8.94
9/15/2021 5:45:00 PM 18.07 64.526 0.057 6.7 1.2 8.93
9/15/2021 6:00:00 PM 18.07 64.526 0.057 6.7 1.19 8.91
9/15/2021 6:15:00 PM 18.06 64.508 0.056 6.69 1.17 8.9
9/15/2021 6:30:00 PM 18.06 64.508 0.057 6.71 1.3 8.88
9/15/2021 6:45:00 PM 18.05 64.49 0.057 6.73 1.19 8.85
9/15/2021 7:00:00 PM 18.04 64.472 0.057 6.72 1.18 8.85
9/15/2021 7:15:00 PM 18.02 64.436 0.056 6.72 1.37 8.84
9/15/2021 7:30:00 PM 18 64.4 0.057 6.73 1.51 8.81
9/15/2021 7:45:00 PM 17.99 64.382 0.056 6.71 1.29 8.83
9/15/2021 8:00:00 PM 17.97 64.346 0.056 6.71 1.32 8.82
9/15/2021 8:15:00 PM 17.95 64.31 0.055 6.68 1.3 8.86
9/15/2021 8:30:00 PM 17.92 64.256 0.055 6.68 1.33 8.85
9/15/2021 8:45:00 PM 17.91 64.238 0.055 6.64 1.33 8.84
9/15/2021 9:00:00 PM 17.88 64.184 0.055 6.68 1.45 8.85
9/15/2021 9:15:00 PM 17.84 64.112 0.054 6.66 1.45 8.9
9/15/2021 9:30:00 PM 17.81 64.058 0.053 6.66 1.37 8.92
9/15/2021 9:45:00 PM 17.8 64.04 0.054 6.66 1.55 8.92
9/15/2021 10:00:00 PM 17.76 63.968 0.053 6.65 1.89 8.95
9/15/2021 10:15:00 PM 17.72 63.896 0.053 6.64 2.41 8.97
9/15/2021 10:30:00 PM 17.67 63.806 0.052 6.64 3.15 8.99
9/15/2021 10:45:00 PM 17.61 63.698 0.05 6.64 3.69 9.01
9/15/2021 11:00:00 PM 17.55 63.59 0.049 6.65 3.17 9.02
9/15/2021 11:15:00 PM 17.5 63.5 0.047 6.61 3.1 9.04
9/15/2021 11:30:00 PM 17.44 63.392 0.046 6.66 2.45 9.05
9/15/2021 11:45:00 PM 17.39 63.302 0.046 6.65 2.55 9.06
9/16/2021 12:00:00 AM 17.31 63.158 0.045 6.66 2.36 9.08
9/16/2021 12:15:00 AM 17.27 63.086 0.044 6.66 2 9.09
9/16/2021 12:30:00 AM 17.22 62.996 0.043 6.66 2.04 9.11
9/16/2021 12:45:00 AM 17.18 62.924 0.043 6.66 1.83 9.1
9/16/2021 1:00:00 AM 17.13 62.834 0.043 6.61 2.75 9.12
9/16/2021 1:15:00 AM 17.08 62.744 0.043 6.66 2.07 9.13
9/16/2021 1:30:00 AM 17.03 62.654 0.043 6.66 2.13 9.14
9/16/2021 1:45:00 AM 16.99 62.582 0.042 6.65 1.95 9.14
9/16/2021 2:00:00 AM 16.96 62.528 0.042 6.66 2.16 9.15
9/16/2021 2:15:00 AM 16.92 62.456 0.042 6.66 1.94 9.16
9/16/2021 2:30:00 AM 16.88 62.384 0.042 6.66 2 9.18
9/16/2021 2:45:00 AM 16.85 62.33 0.042 6.66 1.86 9.19
9/16/2021 3:00:00 AM 16.83 62.294 0.041 6.6 1.95 9.19
9/16/2021 3:15:00 AM 16.8 62.24 0.041 6.65 1.8 9.19
9/16/2021 3:30:00 AM 16.79 62.222 0.041 6.6 1.75 9.19
9/16/2021 3:45:00 AM 16.76 62.168 0.041 6.65 2.04 9.19
9/16/2021 4:00:00 AM 16.74 62.132 0.041 6.65 1.77 9.2
9/16/2021 4:15:00 AM 16.71 62.078 0.041 6.65 1.81 9.21
9/16/2021 4:30:00 AM 16.7 62.06 0.041 6.65 1.89 9.21
9/16/2021 4:45:00 AM 16.68 62.024 0.041 6.64 1.72 9.21
9/16/2021 5:00:00 AM 16.66 61.988 0.041 6.64 1.75 9.22
9/16/2021 5:15:00 AM 16.64 61.952 0.041 6.65 1.83 9.22
9/16/2021 5:30:00 AM 16.62 61.916 0.041 6.65 1.88 9.23
9/16/2021 5:45:00 AM 16.6 61.88 0.041 6.65 1.77 9.23
9/16/2021 6:00:00 AM 16.58 61.844 0.041 6.65 1.68 9.23
9/16/2021 6:15:00 AM 16.56 61.808 0.041 6.63 1.65 9.24
9/16/2021 6:30:00 AM 16.54 61.772 0.041 6.64 1.89 9.24
9/16/2021 6:45:00 AM 16.52 61.736 0.041 6.59 1.74 9.25
9/16/2021 7:00:00 AM 16.51 61.718 0.041 6.61 1.87 9.26
9/16/2021 7:15:00 AM 16.49 61.682 0.041 6.64 1.79 9.26
9/16/2021 7:30:00 AM 16.47 61.646 0.041 6.65 2.03 9.27
9/16/2021 7:45:00 AM 16.45 61.61 0.041 6.6 1.68 9.28
9/16/2021 8:00:00 AM 16.44 61.592 0.041 6.63 1.72 9.29
9/16/2021 8:15:00 AM 16.43 61.574 0.041 6.65 1.7 9.29
9/16/2021 8:30:00 AM 16.43 61.574 0.041 6.65 1.95 9.31
9/16/2021 8:45:00 AM 16.42 61.556 0.041 6.63 1.76 9.32
9/16/2021 9:00:00 AM 16.43 61.574 0.041 6.66 1.83 9.33
9/16/2021 9:15:00 AM 16.43 61.574 0.041 6.66 1.83 9.37
9/16/2021 9:30:00 AM 16.44 61.592 0.041 6.66 1.92 9.38
9/16/2021 9:45:00 AM 16.44 61.592 0.041 6.67 1.9 9.39
9/16/2021 10:00:00 AM 16.47 61.646 0.041 6.67 1.65 9.42
9/16/2021 10:15:00 AM 16.49 61.682 0.041 6.68 1.76 9.43
9/16/2021 10:30:00 AM 16.52 61.736 0.041 6.68 1.76 9.45
9/16/2021 10:45:00 AM 16.55 61.79 0.041 6.69 1.7 9.46
9/16/2021 11:00:00 AM 16.59 61.862 0.041 6.7 1.66 9.47
9/16/2021 11:15:00 AM 16.64 61.952 0.041 6.7 1.8 9.49
9/16/2021 11:30:00 AM 16.69 62.042 0.041 6.7 1.72 9.51
9/16/2021 11:45:00 AM 16.77 62.186 0.041 6.69 1.71 9.5
9/16/2021 12:00:00 PM 16.82 62.276 0.041 6.71 1.76 9.49
9/16/2021 12:15:00 PM 16.87 62.366 0.041 6.69 1.82 9.47
9/16/2021 12:30:00 PM 16.91 62.438 0.041 6.7 1.72 9.45
9/16/2021 12:45:00 PM 16.95 62.51 0.041 6.7 1.81 9.44
9/16/2021 1:00:00 PM 17 62.6 0.041 6.7 1.76 9.43
9/16/2021 1:15:00 PM 17.08 62.744 0.041 6.7 1.94 9.43
9/16/2021 1:30:00 PM 17.11 62.798 0.041 6.7 1.74 9.42
9/16/2021 1:45:00 PM 17.13 62.834 0.041 6.7 1.75 9.38
9/16/2021 2:00:00 PM 17.17 62.906 0.041 6.69 1.64 9.36
9/16/2021 2:15:00 PM 17.23 63.014 0.041 6.67 1.77 9.34
9/16/2021 2:30:00 PM 17.25 63.05 0.041 6.66 1.78 9.33
9/16/2021 2:45:00 PM 17.32 63.176 0.041 6.69 1.67 9.33
9/16/2021 3:00:00 PM 17.4 63.32 0.041 6.69 1.69 9.33
9/16/2021 3:15:00 PM 17.47 63.446 0.041 6.7 1.75 9.32
9/16/2021 3:30:00 PM 17.52 63.536 0.042 6.7 1.84 9.31
9/16/2021 3:45:00 PM -100000 -179968 -100000 -100000 -100000 -100000
9/16/2021 4:00:00 PM 17.65 63.77 0.042 6.7 1.65 9.27
9/16/2021 4:15:00 PM 17.72 63.896 0.042 6.69 1.7 9.23
9/16/2021 4:30:00 PM 17.75 63.95 0.042 6.69 1.82 9.21
9/16/2021 4:45:00 PM 17.82 64.076 0.042 6.69 1.79 9.2
9/16/2021 5:00:00 PM 17.85 64.13 0.042 6.69 1.81 9.17
9/16/2021 5:15:00 PM 17.88 64.184 0.042 6.69 2.04 9.15
9/16/2021 5:30:00 PM 17.9 64.22 0.042 6.68 1.62 9.13
9/16/2021 5:45:00 PM 17.92 64.256 0.042 6.66 1.9 9.09
9/16/2021 6:00:00 PM 17.92 64.256 0.042 6.66 1.92 9.07
9/16/2021 6:15:00 PM 17.93 64.274 0.042 6.66 1.71 9.03
9/16/2021 6:30:00 PM 17.94 64.292 0.042 6.64 1.78 9.02
9/16/2021 6:45:00 PM 17.93 64.274 0.043 6.58 1.6 9
9/16/2021 7:00:00 PM 17.93 64.274 0.043 6.62 1.88 8.99
9/16/2021 7:15:00 PM 17.91 64.238 0.043 6.63 1.86 8.97
9/16/2021 7:30:00 PM 17.9 64.22 0.043 6.61 3.28 8.95
9/16/2021 7:45:00 PM 17.9 64.22 0.043 6.6 1.82 8.96
9/16/2021 8:00:00 PM 17.89 64.202 0.043 6.6 2.7 8.93
9/16/2021 8:15:00 PM 17.88 64.184 0.043 6.58 3.04 8.95
9/16/2021 8:30:00 PM 17.88 64.184 0.043 6.59 2.4 8.94
9/16/2021 8:45:00 PM 17.85 64.13 0.043 6.58 2.18 8.96
9/16/2021 9:00:00 PM 17.84 64.112 0.044 6.59 2.5 8.96
9/16/2021 9:15:00 PM 17.83 64.094 0.044 6.61 2.39 8.94
9/16/2021 9:30:00 PM 17.81 64.058 0.044 6.61 2.35 8.94
9/16/2021 9:45:00 PM 17.79 64.022 0.044 6.59 1.95 8.94
9/16/2021 10:00:00 PM 17.77 63.986 0.044 6.59 2.16 8.97
9/16/2021 10:15:00 PM -100000 -179968 -100000 -100000 -100000 -100000
9/16/2021 10:30:00 PM 17.72 63.896 0.044 6.58 3.31 8.98
9/16/2021 10:45:00 PM 17.7 63.86 0.044 6.59 2.3 8.99
9/16/2021 11:00:00 PM 17.67 63.806 0.044 6.58 1.59 9
9/16/2021 11:15:00 PM 17.64 63.752 0.044 6.54 2.05 9
9/16/2021 11:30:00 PM 17.61 63.698 0.044 6.57 3.41 9
9/16/2021 11:45:00 PM 17.57 63.626 0.044 6.57 2.64 9.01
9/17/2021 12:00:00 AM 17.52 63.536 0.044 6.58 1.66 9.03
9/17/2021 12:15:00 AM 17.5 63.5 0.045 6.59 2.32 9
9/17/2021 12:30:00 AM 17.46 63.428 0.045 6.61 1.64 9
9/17/2021 12:45:00 AM 17.41 63.338 0.045 6.61 1.63 9.04
9/17/2021 1:00:00 AM 17.37 63.266 0.045 6.61 3.53 9.05
9/17/2021 1:15:00 AM 17.34 63.212 0.045 6.63 3.61 9.05
9/17/2021 1:30:00 AM 17.29 63.122 0.045 6.63 1.97 9.09
9/17/2021 1:45:00 AM 17.26 63.068 0.045 6.63 1.71 9.09
9/17/2021 2:00:00 AM 17.24 63.032 0.045 6.63 1.65 9.09
9/17/2021 2:15:00 AM 17.21 62.978 0.045 6.62 2.22 9.1
9/17/2021 2:30:00 AM 17.2 62.96 0.045 6.63 1.37 9.1
9/17/2021 2:45:00 AM 17.17 62.906 0.045 6.62 1.77 9.1
9/17/2021 3:00:00 AM 17.15 62.87 0.046 6.56 3.75 9.12
9/17/2021 3:15:00 AM 17.13 62.834 0.046 6.61 1.35 9.1
9/17/2021 3:30:00 AM 17.11 62.798 0.046 6.62 1.85 9.09
9/17/2021 3:45:00 AM 17.08 62.744 0.046 6.6 2.1 9.11
9/17/2021 4:00:00 AM 17.05 62.69 0.046 6.61 1.93 9.11
9/17/2021 4:15:00 AM 17.04 62.672 0.046 6.61 2 9.11
9/17/2021 4:30:00 AM 17.01 62.618 0.046 6.6 1.67 9.13
9/17/2021 4:45:00 AM 16.99 62.582 0.046 6.56 2.1 9.14
9/17/2021 5:00:00 AM 16.99 62.582 0.046 6.61 2.27 9.11
9/17/2021 5:15:00 AM 16.97 62.546 0.046 6.61 3.72 9.12
9/17/2021 5:30:00 AM 16.95 62.51 0.046 6.6 1.62 9.14
9/17/2021 5:45:00 AM 16.94 62.492 0.046 6.61 1.61 9.12
9/17/2021 6:00:00 AM 16.93 62.474 0.047 6.61 3.07 9.12
9/17/2021 6:15:00 AM 16.91 62.438 0.047 6.6 3.7 9.11
9/17/2021 6:30:00 AM 16.89 62.402 0.046 6.59 1.23 9.16
9/17/2021 6:45:00 AM 16.89 62.402 0.047 6.59 1.17 9.14
9/17/2021 7:00:00 AM 16.87 62.366 0.047 6.55 1.16 9.16
9/17/2021 7:15:00 AM 16.87 62.366 0.047 6.59 1.14 9.15
9/17/2021 7:30:00 AM 16.85 62.33 0.047 6.58 1.46 9.17
9/17/2021 7:45:00 AM 16.84 62.312 0.047 6.58 1.32 9.18
9/17/2021 8:00:00 AM 16.84 62.312 0.047 6.58 1.12 9.19
9/17/2021 8:15:00 AM 16.85 62.33 0.048 6.61 1.14 9.14
9/17/2021 8:30:00 AM 16.85 62.33 0.048 6.6 1.19 9.15
9/17/2021 8:45:00 AM 16.85 62.33 0.048 6.6 1.16 9.17
9/17/2021 9:00:00 AM 16.86 62.348 0.048 6.6 1.25 9.19
9/17/2021 9:15:00 AM 16.86 62.348 0.048 6.61 1.11 9.2
9/17/2021 9:30:00 AM 16.91 62.438 0.048 6.61 1.33 9.23
9/17/2021 9:45:00 AM 16.95 62.51 0.048 6.62 1.14 9.25
9/17/2021 10:00:00 AM 17.01 62.618 0.047 6.64 1.16 9.29
9/17/2021 10:15:00 AM 17.09 62.762 0.047 6.63 1.21 9.33
9/17/2021 10:30:00 AM 17.15 62.87 0.047 6.67 1.32 9.38
9/17/2021 10:45:00 AM 17.17 62.906 0.047 6.68 1.19 9.37
9/17/2021 11:00:00 AM 17.22 62.996 0.047 6.68 1.5 9.36
9/17/2021 11:15:00 AM 17.24 63.032 0.047 6.7 1.15 9.37
9/17/2021 11:30:00 AM 17.28 63.104 0.047 6.7 1.15 9.34
9/17/2021 11:45:00 AM 17.34 63.212 0.047 6.72 1.12 9.34
9/17/2021 12:00:00 PM 17.39 63.302 0.047 6.72 1.1 9.34
9/17/2021 12:15:00 PM 17.44 63.392 0.047 6.72 1.12 9.34
9/17/2021 12:30:00 PM 17.48 63.464 0.047 6.73 1.06 9.32
9/17/2021 12:45:00 PM 17.56 63.608 0.047 6.72 1.03 9.34
9/17/2021 1:00:00 PM -100000 -179968 -100000 -100000 -100000 -100000
9/17/2021 1:15:00 PM 17.72 63.896 0.047 6.74 1.09 9.32
9/17/2021 1:30:00 PM 17.78 64.004 0.047 6.68 1.17 9.31
9/17/2021 1:45:00 PM 17.85 64.13 0.047 6.74 1.03 9.29
9/17/2021 2:00:00 PM 17.95 64.31 0.047 6.73 1.02 9.27
9/17/2021 2:15:00 PM 18.08 64.544 0.047 6.73 0.99 9.26
9/17/2021 2:30:00 PM -100000 -179968 -100000 -100000 -100000 -100000
9/17/2021 2:45:00 PM 18.26 64.868 0.046 6.73 1.05 9.19
9/17/2021 3:00:00 PM 18.29 64.922 0.047 6.73 1.03 9.16
9/17/2021 3:15:00 PM 18.35 65.03 0.047 6.72 1.7 9.13
9/17/2021 3:30:00 PM 18.45 65.21 0.046 6.7 1.12 9.08
9/17/2021 3:45:00 PM 18.54 65.372 0.046 6.7 1.02 9.06
9/17/2021 4:00:00 PM 18.62 65.516 0.046 6.66 1.04 9.04
9/17/2021 4:15:00 PM 18.7 65.66 0.046 6.7 1.08 9.02
9/17/2021 4:30:00 PM 18.78 65.804 0.046 6.7 1.11 9
9/17/2021 4:45:00 PM 18.83 65.894 0.046 6.7 0.92 8.99
9/17/2021 5:00:00 PM 18.89 66.002 0.046 6.7 0.99 8.96
9/17/2021 5:15:00 PM 18.9 66.02 0.047 6.7 0.97 8.93
9/17/2021 5:30:00 PM 18.96 66.128 0.046 6.69 0.97 8.91
9/17/2021 5:45:00 PM 19 66.2 0.047 6.69 1.03 8.89
9/17/2021 6:00:00 PM 19.04 66.272 0.046 6.67 0.96 8.85
9/17/2021 6:15:00 PM 19.02 66.236 0.047 6.69 0.91 8.84
9/17/2021 6:30:00 PM 19.03 66.254 0.047 6.67 1.05 8.82
9/17/2021 6:45:00 PM 19.02 66.236 0.047 6.67 0.97 8.79
9/17/2021 7:00:00 PM 19.03 66.254 0.047 6.64 1.11 8.78
9/17/2021 7:15:00 PM 19.01 66.218 0.047 6.64 0.97 8.77
9/17/2021 7:30:00 PM 19 66.2 0.047 6.58 1.07 8.75
9/17/2021 7:45:00 PM 18.99 66.182 0.047 6.63 1.14 8.73
9/17/2021 8:00:00 PM 18.98 66.164 0.047 6.62 1.42 8.72
9/17/2021 8:15:00 PM 18.97 66.146 0.047 6.62 1.07 8.72
9/17/2021 8:30:00 PM 18.96 66.128 0.047 6.63 1.07 8.7
9/17/2021 8:45:00 PM 18.95 66.11 0.048 6.64 0.94 8.7
9/17/2021 9:00:00 PM 18.93 66.074 0.048 6.61 1 8.68
9/17/2021 9:15:00 PM 18.92 66.056 0.048 6.65 1.01 8.69
9/17/2021 9:30:00 PM 18.88 65.984 0.048 6.65 0.9 8.69
9/17/2021 9:45:00 PM 18.85 65.93 0.048 6.65 0.92 8.7
9/17/2021 10:00:00 PM 18.82 65.876 0.048 6.65 0.97 8.7
9/17/2021 10:15:00 PM 18.78 65.804 0.048 6.66 0.95 8.68
9/17/2021 10:30:00 PM 18.74 65.732 0.048 6.65 0.96 8.71
9/17/2021 10:45:00 PM 18.7 65.66 0.048 6.65 1.08 8.72
9/17/2021 11:00:00 PM -100000 -179968 -100000 -100000 -100000 -100000
9/17/2021 11:15:00 PM 18.59 65.462 0.048 6.66 1.1 8.74
9/17/2021 11:30:00 PM 18.53 65.354 0.048 6.65 1.11 8.77
9/17/2021 11:45:00 PM 18.48 65.264 0.048 6.65 1.2 8.76
9/18/2021 12:00:00 AM 18.4 65.12 0.047 6.64 1 8.82
9/18/2021 12:15:00 AM 18.33 64.994 0.048 6.64 1.14 8.84
9/18/2021 12:30:00 AM 18.25 64.85 0.047 6.64 0.98 8.88
9/18/2021 12:45:00 AM 18.23 64.814 0.048 6.59 1.08 8.79
9/18/2021 1:00:00 AM 18.16 64.688 0.048 6.65 1.06 8.84
9/18/2021 1:15:00 AM 18.1 64.58 0.048 6.66 1.21 8.84
9/18/2021 1:30:00 AM 18.03 64.454 0.048 6.65 1.13 8.87
9/18/2021 1:45:00 AM 17.94 64.292 0.048 6.64 0.96 8.91
9/18/2021 2:00:00 AM 17.93 64.274 0.048 6.65 1.02 8.89
9/18/2021 2:15:00 AM 17.86 64.148 0.048 6.64 1.05 8.91
9/18/2021 2:30:00 AM 17.81 64.058 0.048 6.64 1.02 8.91
9/18/2021 2:45:00 AM 17.76 63.968 0.048 6.64 1.09 8.94
9/18/2021 3:00:00 AM 17.7 63.86 0.048 6.64 1.05 8.95
9/18/2021 3:15:00 AM 17.67 63.806 0.049 6.64 1.14 8.95
9/18/2021 3:30:00 AM 17.6 63.68 0.048 6.63 1.42 8.94
9/18/2021 3:45:00 AM 17.58 63.644 0.048 6.65 1.05 8.96
9/18/2021 4:00:00 AM 17.51 63.518 0.048 6.63 1.09 9.01
9/18/2021 4:15:00 AM 17.46 63.428 0.048 6.62 1.03 9.01
9/18/2021 4:30:00 AM 17.45 63.41 0.049 6.64 0.97 8.99
9/18/2021 4:45:00 AM 17.41 63.338 0.049 6.64 1.09 9
9/18/2021 5:00:00 AM 17.38 63.284 0.049 6.64 1.07 9
9/18/2021 5:15:00 AM 17.32 63.176 0.048 6.62 0.99 9.01
9/18/2021 5:30:00 AM -100000 -179968 -100000 -100000 -100000 -100000
9/18/2021 5:45:00 AM 17.25 63.05 0.048 6.63 1.03 9.05
9/18/2021 6:00:00 AM 17.23 63.014 0.049 6.61 1.05 9.03
9/18/2021 6:15:00 AM 17.21 62.978 0.049 6.63 1.07 9.04
9/18/2021 6:30:00 AM 17.18 62.924 0.049 6.64 1.12 9.04
9/18/2021 6:45:00 AM 17.17 62.906 0.049 6.63 1.13 9.04
9/18/2021 7:00:00 AM 17.13 62.834 0.049 6.62 1.06 9.08
9/18/2021 7:15:00 AM 17.13 62.834 0.05 6.64 1.09 9.03
9/18/2021 7:30:00 AM 17.09 62.762 0.049 6.62 1.15 9.1
9/18/2021 7:45:00 AM 17.08 62.744 0.049 6.63 1.11 9.08
9/18/2021 8:00:00 AM 17.08 62.744 0.049 6.58 1.17 9.07
9/18/2021 8:15:00 AM 17.07 62.726 0.049 6.64 1.07 9.08
9/18/2021 8:30:00 AM 17.07 62.726 0.05 6.65 1.02 9.07
9/18/2021 8:45:00 AM 17.06 62.708 0.051 6.63 1.02 9.1
9/18/2021 9:00:00 AM 17.06 62.708 0.051 6.64 1.04 9.11
9/18/2021 9:15:00 AM 17.06 62.708 0.051 6.66 1.12 9.06
9/18/2021 9:30:00 AM 17.08 62.744 0.05 6.65 1.05 9.15
9/18/2021 9:45:00 AM 17.1 62.78 0.051 6.67 1.03 9.12
9/18/2021 10:00:00 AM 17.13 62.834 0.05 6.68 1.09 9.21
9/18/2021 10:15:00 AM 17.18 62.924 0.05 6.67 1.09 9.28
9/18/2021 10:30:00 AM 17.27 63.086 0.049 6.68 1.07 9.29
9/18/2021 10:45:00 AM 17.38 63.284 0.049 6.68 1.12 9.32
9/18/2021 11:00:00 AM 17.48 63.464 0.049 6.68 1.05 9.28
9/18/2021 11:15:00 AM 17.57 63.626 0.049 6.69 1.05 9.27
9/18/2021 11:30:00 AM 17.65 63.77 0.049 6.69 1.44 9.25
9/18/2021 11:45:00 AM 17.72 63.896 0.05 6.7 1.11 9.23
9/18/2021 12:00:00 PM 17.83 64.094 0.049 6.7 1.04 9.22
9/18/2021 12:15:00 PM 17.96 64.328 0.049 6.7 1.06 9.22
9/18/2021 12:30:00 PM 18.04 64.472 0.049 6.71 1.05 9.2
9/18/2021 12:45:00 PM 18.15 64.67 0.048 6.66 1.04 9.18
9/18/2021 1:00:00 PM 18.32 64.976 0.048 6.72 1.01 9.16
9/18/2021 1:15:00 PM 18.37 65.066 0.049 6.73 1.12 9.17
9/18/2021 1:30:00 PM 18.49 65.282 0.048 6.72 0.98 9.16
9/18/2021 1:45:00 PM 18.6 65.48 0.049 6.74 0.97 9.14
9/18/2021 2:00:00 PM 18.73 65.714 0.049 6.75 0.96 9.13
9/18/2021 2:15:00 PM 18.81 65.858 0.049 6.75 1 9.1
9/18/2021 2:30:00 PM 18.9 66.02 0.048 6.73 1.19 9.05
9/18/2021 2:45:00 PM 18.98 66.164 0.048 6.72 1.08 8.99
9/18/2021 3:00:00 PM 19.05 66.29 0.048 6.72 1.08 8.97
9/18/2021 3:15:00 PM 19.15 66.47 0.048 6.72 0.96 8.95
9/18/2021 3:30:00 PM 19.3 66.74 0.048 6.71 1.04 8.92
9/18/2021 3:45:00 PM 19.4 66.92 0.048 6.71 1.01 8.91
9/18/2021 4:00:00 PM 19.46 67.028 0.048 6.7 1.12 8.86
9/18/2021 4:15:00 PM 19.52 67.136 0.048 6.7 1.11 8.83
9/18/2021 4:30:00 PM 19.57 67.226 0.048 6.7 1.08 8.8
9/18/2021 4:45:00 PM 19.62 67.316 0.048 6.7 0.99 8.81
9/18/2021 5:00:00 PM 19.66 67.388 0.048 6.7 1.03 8.8
9/18/2021 5:15:00 PM -100000 -179968 -100000 -100000 -100000 -100000
9/18/2021 5:30:00 PM 19.72 67.496 0.048 6.69 0.95 8.73
9/18/2021 5:45:00 PM 19.79 67.622 0.048 6.61 0.94 8.7
9/18/2021 6:00:00 PM 19.83 67.694 0.048 6.66 1.01 8.68
9/18/2021 6:15:00 PM 19.84 67.712 0.048 6.66 0.98 8.66
9/18/2021 6:30:00 PM 19.85 67.73 0.048 6.65 1.02 8.62
9/18/2021 6:45:00 PM 19.85 67.73 0.048 6.64 1.01 8.62
9/18/2021 7:00:00 PM 19.86 67.748 0.048 6.63 0.92 8.6
9/18/2021 7:15:00 PM 19.84 67.712 0.048 6.65 0.98 8.59
9/18/2021 7:30:00 PM 19.83 67.694 0.048 6.6 0.98 8.56
9/18/2021 7:45:00 PM 19.82 67.676 0.048 6.64 1.09 8.54
9/18/2021 8:00:00 PM 19.8 67.64 0.048 6.64 0.93 8.54
9/18/2021 8:15:00 PM 19.77 67.586 0.048 6.64 1.04 8.52
9/18/2021 8:30:00 PM 19.75 67.55 0.048 6.64 1.03 8.54
9/18/2021 8:45:00 PM 19.72 67.496 0.048 6.62 1.01 8.53
9/18/2021 9:00:00 PM 19.68 67.424 0.048 6.64 1.04 8.58
9/18/2021 9:15:00 PM 19.65 67.37 0.048 6.64 1.08 8.53
9/18/2021 9:30:00 PM 19.6 67.28 0.048 6.59 0.98 8.56
9/18/2021 9:45:00 PM 19.54 67.172 0.048 6.64 1.02 8.59
9/18/2021 10:00:00 PM 19.49 67.082 0.048 6.64 1.05 8.6
9/18/2021 10:15:00 PM 19.42 66.956 0.048 6.64 1.03 8.59
9/18/2021 10:30:00 PM 19.35 66.83 0.048 6.63 1.07 8.63
9/18/2021 10:45:00 PM 19.29 66.722 0.048 6.64 1.07 8.62
9/18/2021 11:00:00 PM 19.23 66.614 0.048 6.65 1.06 8.61
9/18/2021 11:15:00 PM 19.15 66.47 0.048 6.64 1.05 8.61
9/18/2021 11:30:00 PM 19.08 66.344 0.048 6.63 1.13 8.69
9/18/2021 11:45:00 PM 18.99 66.182 0.048 6.64 1.1 8.69
9/19/2021 12:00:00 AM 18.92 66.056 0.048 6.64 1.06 8.7
9/19/2021 12:15:00 AM 18.83 65.894 0.048 6.64 1 8.71
9/19/2021 12:30:00 AM 18.79 65.82201 0.048 6.65 1.19 8.68
9/19/2021 12:45:00 AM 18.66 65.588 0.048 6.64 1.12 8.73
9/19/2021 1:00:00 AM 18.6 65.48 0.049 6.65 1.02 8.75
9/19/2021 1:15:00 AM 18.5 65.3 0.049 6.64 1.12 8.73
9/19/2021 1:30:00 AM 18.37 65.066 0.048 6.64 1.1 8.85
9/19/2021 1:45:00 AM 18.28 64.904 0.049 6.64 1.08 8.83
9/19/2021 2:00:00 AM 18.2 64.76 0.049 6.64 1.05 8.83
9/19/2021 2:15:00 AM 18.08 64.544 0.049 6.64 1.06 8.88
9/19/2021 2:30:00 AM 17.99 64.382 0.049 6.64 1.12 8.92
9/19/2021 2:45:00 AM 17.9 64.22 0.049 6.64 1.08 8.92
9/19/2021 3:00:00 AM 17.83 64.094 0.049 6.64 1.05 8.9
9/19/2021 3:15:00 AM 17.71 63.878 0.049 6.64 1.11 8.95
9/19/2021 3:30:00 AM 17.61 63.698 0.049 6.64 1.01 8.95
9/19/2021 3:45:00 AM 17.51 63.518 0.049 6.64 1.08 9.01
9/19/2021 4:00:00 AM 17.41 63.338 0.049 6.64 1.09 9.03
9/19/2021 4:15:00 AM 17.34 63.212 0.049 6.64 1.15 8.99
9/19/2021 4:30:00 AM 17.24 63.032 0.049 6.64 1.09 9.03
9/19/2021 4:45:00 AM 17.13 62.834 0.049 6.63 1.14 9.05
9/19/2021 5:00:00 AM 17.02 62.636 0.049 6.63 1.17 9.1
9/19/2021 5:15:00 AM 16.95 62.51 0.049 6.64 1.11 9.08
9/19/2021 5:30:00 AM 16.84 62.312 0.049 6.57 1.14 9.15
9/19/2021 5:45:00 AM 16.77 62.186 0.049 6.64 1.17 9.16
9/19/2021 6:00:00 AM 16.68 62.024 0.049 6.63 1.12 9.21
9/19/2021 6:15:00 AM 16.61 61.898 0.049 6.64 1.17 9.22
9/19/2021 6:30:00 AM 16.54 61.772 0.049 6.64 1.18 9.22
9/19/2021 6:45:00 AM 16.49 61.682 0.049 6.64 1.18 9.22
9/19/2021 7:00:00 AM 16.41 61.538 0.049 6.64 1.18 9.25
9/19/2021 7:15:00 AM 16.31 61.358 0.049 6.63 1.24 9.3
9/19/2021 7:30:00 AM 16.25 61.25 0.049 6.64 1.22 9.29
9/19/2021 7:45:00 AM 16.17 61.106 0.049 6.64 1.18 9.32
9/19/2021 8:00:00 AM 16.09 60.962 0.049 6.65 1.18 9.38
9/19/2021 8:15:00 AM 16.04 60.872 0.049 6.66 1.14 9.4
9/19/2021 8:30:00 AM 15.97 60.746 0.049 6.66 1.26 9.47
9/19/2021 8:45:00 AM 15.94 60.692 0.049 6.67 1.24 9.49
9/19/2021 9:00:00 AM 15.91 60.638 0.049 6.68 1.18 9.52
9/19/2021 9:15:00 AM 15.89 60.602 0.049 6.69 1.24 9.58
9/19/2021 9:30:00 AM 15.89 60.602 0.049 6.7 1.19 9.61
9/19/2021 9:45:00 AM 15.89 60.602 0.049 6.7 1.14 9.62
9/19/2021 10:00:00 AM 15.9 60.62 0.049 6.72 1.13 9.61
9/19/2021 10:15:00 AM -100000 -179968 -100000 -100000 -100000 -100000
9/19/2021 10:30:00 AM 15.92 60.656 0.05 6.74 1.13 9.6
9/19/2021 10:45:00 AM 15.97 60.746 0.049 6.73 1.13 9.69
9/19/2021 11:00:00 AM 16.04 60.872 0.049 6.72 1.13 9.7
9/19/2021 11:15:00 AM 16.1 60.98 0.049 6.73 1.22 9.65
9/19/2021 11:30:00 AM 16.16 61.088 0.049 6.7 1.13 9.61
9/19/2021 11:45:00 AM 16.23 61.214 0.049 6.73 1.13 9.57
9/19/2021 12:00:00 PM 16.33 61.394 0.049 6.71 1.11 9.54
9/19/2021 12:15:00 PM 16.41 61.538 0.049 6.68 1.15 9.52
9/19/2021 12:30:00 PM 16.54 61.772 0.049 6.72 1.13 9.48
9/19/2021 12:45:00 PM 16.65 61.97 0.049 6.68 1.12 9.47
9/19/2021 1:00:00 PM 16.75 62.15 0.049 6.71 1.13 9.43
9/19/2021 1:15:00 PM 16.85 62.33 0.049 6.71 1.14 9.4
9/19/2021 1:30:00 PM 16.98 62.564 0.049 6.71 1.02 9.36
9/19/2021 1:45:00 PM -100000 -179968 -100000 -100000 -100000 -100000
9/19/2021 2:00:00 PM 17.23 63.014 0.049 6.7 1.07 9.29
9/19/2021 2:15:00 PM 17.35 63.23 0.049 6.7 1.08 9.26
9/19/2021 2:30:00 PM 17.45 63.41 0.049 6.69 1.12 9.22
9/19/2021 2:45:00 PM 17.52 63.536 0.049 6.7 1.17 9.19
9/19/2021 3:00:00 PM 17.61 63.698 0.049 6.7 1.1 9.16
9/19/2021 3:15:00 PM 17.72 63.896 0.049 6.69 1.14 9.13
9/19/2021 3:30:00 PM 17.81 64.058 0.049 6.69 1.09 9.1
9/19/2021 3:45:00 PM 17.9 64.22 0.049 6.68 1.07 9.08
9/19/2021 4:00:00 PM 17.98 64.364 0.049 6.69 1.05 9.05
9/19/2021 4:15:00 PM 18.04 64.472 0.049 6.68 1.09 9.03
9/19/2021 4:30:00 PM 18.07 64.526 0.049 6.63 1.04 9
9/19/2021 4:45:00 PM 18.1 64.58 0.049 6.69 1.04 8.98
9/19/2021 5:00:00 PM 18.12 64.616 0.049 6.68 1.2 8.97
9/19/2021 5:15:00 PM 18.15 64.67 0.049 6.62 1.12 8.96
9/19/2021 5:30:00 PM 18.16 64.688 0.049 6.68 1.1 8.93
9/19/2021 5:45:00 PM 18.19 64.742 0.049 6.67 1.07 8.93
9/19/2021 6:00:00 PM 18.22 64.796 0.049 6.67 1.05 8.92
9/19/2021 6:15:00 PM 18.23 64.814 0.049 6.67 1.09 8.91
9/19/2021 6:30:00 PM 18.21 64.778 0.049 6.67 1.09 8.9
9/19/2021 6:45:00 PM 18.19 64.742 0.049 6.67 1.15 8.91
9/19/2021 7:00:00 PM 18.15 64.67 0.049 6.67 5.48 8.9
9/19/2021 7:15:00 PM 18.1 64.58 0.049 6.67 1.29 8.9
9/19/2021 7:30:00 PM 18.06 64.508 0.049 6.66 1.06 8.92
9/19/2021 7:45:00 PM 18 64.4 0.049 6.66 1.05 8.89
9/19/2021 8:00:00 PM -100000 -179968 -100000 -100000 -100000 -100000
9/19/2021 8:15:00 PM 17.92 64.256 0.049 6.66 1.01 8.92
9/19/2021 8:30:00 PM 17.87 64.166 0.049 6.65 1.05 8.9
9/19/2021 8:45:00 PM 17.83 64.094 0.049 6.66 1.16 8.94
9/19/2021 9:00:00 PM 17.79 64.022 0.049 6.65 1.05 8.95
9/19/2021 9:15:00 PM 17.73 63.914 0.048 6.65 0.95 8.94
9/19/2021 9:30:00 PM 17.68 63.824 0.048 6.65 1.03 8.97
9/19/2021 9:45:00 PM 17.6 63.68 0.049 6.65 1.03 8.96
9/19/2021 10:00:00 PM 17.53 63.554 0.048 6.58 1.03 8.98
9/19/2021 10:15:00 PM 17.46 63.428 0.049 6.65 1.02 9.02
9/19/2021 10:30:00 PM 17.38 63.284 0.049 6.65 1.04 9.02
9/19/2021 10:45:00 PM 17.28 63.104 0.048 6.64 1.16 9.06
9/19/2021 11:00:00 PM 17.19 62.942 0.049 6.64 1.02 9.07
9/19/2021 11:15:00 PM 17.1 62.78 0.049 6.63 1.03 9.08
9/19/2021 11:30:00 PM 17.01 62.618 0.049 6.6 1.06 9.1
9/19/2021 11:45:00 PM 16.9 62.42 0.049 6.64 1.04 9.11
9/20/2021 12:00:00 AM 16.8 62.24 0.049 6.65 1.03 9.15
9/20/2021 12:15:00 AM 16.7 62.06 0.049 6.65 1.03 9.18
9/20/2021 12:30:00 AM 16.59 61.862 0.049 6.65 1.06 9.2
9/20/2021 12:45:00 AM 16.48 61.664 0.049 6.65 1.1 9.24
9/20/2021 1:00:00 AM 16.37 61.466 0.049 6.64 1.07 9.26
9/20/2021 1:15:00 AM 16.25 61.25 0.049 6.65 1.02 9.28
9/20/2021 1:30:00 AM 16.14 61.052 0.049 6.64 1.06 9.3
9/20/2021 1:45:00 AM 16.03 60.854 0.049 6.65 1.1 9.35
9/20/2021 2:00:00 AM -100000 -179968 -100000 -100000 -100000 -100000
9/20/2021 2:15:00 AM 15.82 60.476 0.049 6.65 1.14 9.39
9/20/2021 2:30:00 AM 15.7 60.26 0.049 6.65 1.05 9.41
9/20/2021 2:45:00 AM 15.6 60.08 0.05 6.65 1.06 9.45
9/20/2021 3:00:00 AM 15.49 59.882 0.05 6.64 1.11 9.45
9/20/2021 3:15:00 AM 15.39 59.702 0.05 6.65 1.13 9.49
9/20/2021 3:30:00 AM 15.3 59.54 0.05 6.65 1.24 9.5
9/20/2021 3:45:00 AM 15.18 59.324 0.05 6.64 1.14 9.54
9/20/2021 4:00:00 AM 15.1 59.18 0.05 6.64 1.11 9.56
9/20/2021 4:15:00 AM 15.01 59.018 0.05 6.63 1.15 9.57
9/20/2021 4:30:00 AM 14.91 58.838 0.05 6.65 1.09 9.6
9/20/2021 4:45:00 AM 14.83 58.694 0.05 6.65 1.1 9.62
9/20/2021 5:00:00 AM 14.75 58.55 0.05 6.64 1.11 9.63
9/20/2021 5:15:00 AM 14.67 58.406 0.05 6.64 1.19 9.67
9/20/2021 5:30:00 AM 14.61 58.298 0.05 6.61 1.13 9.68
9/20/2021 5:45:00 AM 14.54 58.172 0.05 6.65 1.15 9.7
9/20/2021 6:00:00 AM 14.48 58.064 0.05 6.64 1.14 9.72
9/20/2021 6:15:00 AM 14.41 57.938 0.05 6.64 1.21 9.73
9/20/2021 6:30:00 AM 14.36 57.848 0.05 6.64 1.21 9.75
9/20/2021 6:45:00 AM 14.31 57.758 0.05 6.65 1.27 9.76
9/20/2021 7:00:00 AM 14.26 57.668 0.05 6.64 1.22 9.76
9/20/2021 7:15:00 AM 14.2 57.56 0.05 6.65 1.26 9.8
9/20/2021 7:30:00 AM 14.15 57.47 0.05 6.64 1.19 9.81
9/20/2021 7:45:00 AM 14.11 57.398 0.05 6.65 1.15 9.83
9/20/2021 8:00:00 AM 14.07 57.326 0.05 6.66 1.18 9.85
9/20/2021 8:15:00 AM 14.05 57.29 0.05 6.66 1.15 9.89
9/20/2021 8:30:00 AM 14.01 57.218 0.05 6.6 1.18 9.9
9/20/2021 8:45:00 AM 13.98 57.164 0.05 6.67 1.24 9.93
9/20/2021 9:00:00 AM 13.98 57.164 0.05 6.67 1.22 9.96
9/20/2021 9:15:00 AM 13.99 57.182 0.05 6.68 1.17 9.99
9/20/2021 9:30:00 AM 14.03 57.254 0.05 6.69 1.2 10.03
9/20/2021 9:45:00 AM 14.08 57.344 0.05 6.69 1.18 10.04
9/20/2021 10:00:00 AM 14.16 57.488 0.05 6.71 1.19 10.06
9/20/2021 10:15:00 AM 14.24 57.632 0.05 6.71 1.13 10.05
9/20/2021 10:30:00 AM 14.31 57.758 0.05 6.72 1.13 10.05
9/20/2021 10:45:00 AM 14.38 57.884 0.05 6.72 1.19 10.04
9/20/2021 11:00:00 AM 14.46 58.028 0.05 6.72 1.29 10.02
9/20/2021 11:15:00 AM 14.53 58.154 0.05 6.72 1.11 10.01
9/20/2021 11:30:00 AM 14.62 58.316 0.05 6.72 1.16 9.99
9/20/2021 11:45:00 AM -100000 -179968 -100000 -100000 -100000 -100000
9/20/2021 12:00:00 PM 14.82 58.676 0.05 6.74 1.21 9.97
9/20/2021 12:15:00 PM 14.94 58.892 0.05 6.74 1.13 9.96
9/20/2021 12:30:00 PM 15.09 59.162 0.05 6.74 1.16 9.94
9/20/2021 12:45:00 PM 15.23 59.414 0.05 6.75 1.07 9.9
9/20/2021 1:00:00 PM 15.35 59.63 0.05 6.75 1.14 9.88
9/20/2021 1:15:00 PM 15.5 59.9 0.05 6.76 1.16 9.87
9/20/2021 1:30:00 PM 15.65 60.17 0.05 6.77 1.21 9.83
9/20/2021 1:45:00 PM 15.85 60.53 0.05 6.77 3.47 9.8
9/20/2021 2:00:00 PM 16.04 60.872 0.05 6.77 1.11 9.76
9/20/2021 2:15:00 PM 16.2 61.16 0.05 6.77 1.2 9.71
9/20/2021 2:30:00 PM 16.34 61.412 0.05 6.76 1.13 9.66
9/20/2021 2:45:00 PM 16.52 61.736 0.05 6.75 1.16 9.62
9/20/2021 3:00:00 PM 16.65 61.97 0.05 6.77 1.02 9.58
9/20/2021 3:15:00 PM 16.8 62.24 0.05 6.76 1.09 9.52
9/20/2021 3:30:00 PM 16.91 62.438 0.05 6.75 1.11 9.49
9/20/2021 3:45:00 PM 17 62.6 0.05 6.76 1.06 9.47
9/20/2021 4:00:00 PM 17.07 62.726 0.05 6.75 1.03 9.44
9/20/2021 4:15:00 PM 17.13 62.834 0.05 6.74 1.1 9.38
9/20/2021 4:30:00 PM 17.18 62.924 0.05 6.72 1.07 9.32
9/20/2021 4:45:00 PM 17.23 63.014 0.05 6.71 1.25 9.27
9/20/2021 5:00:00 PM 17.3 63.14 0.05 6.69 1.08 9.23
9/20/2021 5:15:00 PM 17.36 63.248 0.05 6.69 1.11 9.24
9/20/2021 5:30:00 PM 17.4 63.32 0.05 6.66 1.07 9.21
9/20/2021 5:45:00 PM 17.42 63.356 0.05 6.69 1.08 9.17
9/20/2021 6:00:00 PM 17.44 63.392 0.05 6.67 1.06 9.15
9/20/2021 6:15:00 PM 17.46 63.428 0.05 6.67 1.06 9.11
9/20/2021 6:30:00 PM -100000 -179968 -100000 -100000 -100000 -100000
9/20/2021 6:45:00 PM 17.51 63.518 0.05 6.62 1.12 9.09
9/20/2021 7:00:00 PM 17.53 63.554 0.05 6.66 1.14 9.07
9/20/2021 7:15:00 PM 17.54 63.572 0.05 6.65 1.1 9.08
9/20/2021 7:30:00 PM 17.55 63.59 0.05 6.61 1.08 9.04
9/20/2021 7:45:00 PM 17.55 63.59 0.05 6.6 1.04 9.02
9/20/2021 8:00:00 PM 17.56 63.608 0.05 6.65 1.17 9.02
9/20/2021 8:15:00 PM 17.55 63.59 0.05 6.65 1.13 9.03
9/20/2021 8:30:00 PM 17.55 63.59 0.05 6.66 1.01 9.03
9/20/2021 8:45:00 PM 17.53 63.554 0.05 6.66 1.03 9.01
9/20/2021 9:00:00 PM 17.51 63.518 0.05 6.66 1.11 9.03
9/20/2021 9:15:00 PM 17.49 63.482 0.05 6.66 1.1 9.05
9/20/2021 9:30:00 PM 17.46 63.428 0.05 6.66 1.14 9.04
9/20/2021 9:45:00 PM 17.42 63.356 0.05 6.66 1.05 9.04
9/20/2021 10:00:00 PM 17.38 63.284 0.05 6.6 1.07 9.06
9/20/2021 10:15:00 PM 17.34 63.212 0.05 6.66 1.08 9.08
9/20/2021 10:30:00 PM 17.3 63.14 0.05 6.66 1.03 9.08
9/20/2021 10:45:00 PM 17.25 63.05 0.05 6.66 1.11 9.07
9/20/2021 11:00:00 PM -100000 -179968 -100000 -100000 -100000 -100000
9/20/2021 11:15:00 PM 17.15 62.87 0.05 6.66 1.12 9.09
9/20/2021 11:30:00 PM 17.08 62.744 0.05 6.66 1.15 9.12
9/20/2021 11:45:00 PM 17.02 62.636 0.05 6.65 1.15 9.11
9/21/2021 12:00:00 AM 16.96 62.528 0.05 6.66 1.12 9.14
9/21/2021 12:15:00 AM 16.9 62.42 0.05 6.65 1.12 9.15
9/21/2021 12:30:00 AM 16.83 62.294 0.05 6.66 1.16 9.18
9/21/2021 12:45:00 AM 16.76 62.168 0.05 6.65 1.12 9.17
9/21/2021 1:00:00 AM 16.69 62.042 0.05 6.66 1.11 9.2
9/21/2021 1:15:00 AM 16.63 61.934 0.05 6.66 1.16 9.22
9/21/2021 1:30:00 AM 16.58 61.844 0.05 6.65 1.15 9.22
9/21/2021 1:45:00 AM 16.52 61.736 0.051 6.65 1.16 9.23
9/21/2021 2:00:00 AM 16.46 61.628 0.051 6.66 1.15 9.25
9/21/2021 2:15:00 AM 16.41 61.538 0.051 6.65 1.15 9.25
9/21/2021 2:30:00 AM -100000 -179968 -100000 -100000 -100000 -100000
9/21/2021 2:45:00 AM 16.32 61.376 0.051 6.66 1.17 9.29
9/21/2021 3:00:00 AM 16.28 61.304 0.051 6.66 1.18 9.31
9/21/2021 3:15:00 AM 16.24 61.232 0.051 6.66 1.08 9.32
9/21/2021 3:30:00 AM 16.2 61.16 0.051 6.66 1.14 9.33
9/21/2021 3:45:00 AM 16.17 61.106 0.051 6.65 1.2 9.3
9/21/2021 4:00:00 AM 16.14 61.052 0.051 6.65 1.14 9.34
9/21/2021 4:15:00 AM 16.1 60.98 0.051 6.66 1.18 9.35
9/21/2021 4:30:00 AM 16.07 60.926 0.051 6.65 1.23 9.34
9/21/2021 4:45:00 AM 16.04 60.872 0.051 6.62 1.18 9.38
9/21/2021 5:00:00 AM 16.01 60.818 0.051 6.65 1.18 9.37
9/21/2021 5:15:00 AM 15.99 60.782 0.051 6.65 1.12 9.37
9/21/2021 5:30:00 AM 15.97 60.746 0.051 6.63 1.23 9.38
9/21/2021 5:45:00 AM 15.94 60.692 0.051 6.65 1.19 9.4
9/21/2021 6:00:00 AM 15.92 60.656 0.051 6.65 1.21 9.41
9/21/2021 6:15:00 AM 15.9 60.62 0.051 6.64 1.26 9.38
9/21/2021 6:30:00 AM 15.88 60.584 0.051 6.64 1.17 9.4
9/21/2021 6:45:00 AM 15.86 60.548 0.051 6.64 1.16 9.42
9/21/2021 7:00:00 AM 15.84 60.512 0.051 6.64 1.16 9.43
9/21/2021 7:15:00 AM 15.83 60.494 0.051 6.63 1.27 9.42
9/21/2021 7:30:00 AM 15.82 60.476 0.051 6.65 1.19 9.43
9/21/2021 7:45:00 AM 15.81 60.458 0.051 6.64 1.18 9.45
9/21/2021 8:00:00 AM 15.8 60.44 0.051 6.64 1.15 9.47
9/21/2021 8:15:00 AM 15.8 60.44 0.051 6.66 1.2 9.49
9/21/2021 8:30:00 AM 15.81 60.458 0.051 6.67 1.19 9.52
9/21/2021 8:45:00 AM 15.83 60.494 0.051 6.61 1.17 9.56
9/21/2021 9:00:00 AM 15.85 60.53 0.051 6.65 1.36 9.58
9/21/2021 9:15:00 AM 15.88 60.584 0.051 6.69 1.2 9.6
9/21/2021 9:30:00 AM 15.92 60.656 0.051 6.71 1.21 9.62
9/21/2021 9:45:00 AM 15.97 60.746 0.051 6.72 1.13 9.65
9/21/2021 10:00:00 AM 16 60.8 0.051 6.73 1.17 9.64
9/21/2021 10:15:00 AM 16.02 60.836 0.051 6.72 1.15 9.61
9/21/2021 10:30:00 AM 16.05 60.89 0.051 6.67 1.16 9.62
9/21/2021 10:45:00 AM 16.09 60.962 0.051 6.74 1.13 9.63
9/21/2021 11:00:00 AM 16.12 61.016 0.051 6.74 1.15 9.62
9/21/2021 11:15:00 AM 16.15 61.07 0.051 6.74 1.14 9.62
9/21/2021 11:30:00 AM 16.23 61.214 0.051 6.75 1.13 9.64
9/21/2021 11:45:00 AM 16.28 61.304 0.051 6.76 1.11 9.64
9/21/2021 12:00:00 PM 16.32 61.376 0.051 6.75 1.12 9.61
9/21/2021 12:15:00 PM 16.37 61.466 0.051 6.76 1.07 9.6
9/21/2021 12:30:00 PM -100000 -179968 -100000 -100000 -100000 -100000
9/21/2021 12:45:00 PM 16.46 61.628 0.051 6.75 1.15 9.57
9/21/2021 1:00:00 PM 16.53 61.754 0.051 6.75 1.08 9.58
9/21/2021 1:15:00 PM 16.55 61.79 0.051 6.75 1.27 9.54
9/21/2021 1:30:00 PM 16.62 61.916 0.051 6.75 1.13 9.54
9/21/2021 1:45:00 PM 16.71 62.078 0.051 6.76 1.06 9.55
9/21/2021 2:00:00 PM 16.76 62.168 0.051 6.75 1.08 9.53
9/21/2021 2:15:00 PM 16.83 62.294 0.051 6.76 1 9.52
9/21/2021 2:30:00 PM 16.91 62.438 0.051 6.69 1.15 9.5
9/21/2021 2:45:00 PM 16.96 62.528 0.051 6.75 1.12 9.47
9/21/2021 3:00:00 PM 17.04 62.672 0.051 6.74 1.13 9.44
9/21/2021 3:15:00 PM 17.11 62.798 0.051 6.75 1.09 9.45
9/21/2021 3:30:00 PM 17.2 62.96 0.051 6.7 1.08 9.43
9/21/2021 3:45:00 PM 17.26 63.068 0.051 6.76 1.04 9.4
9/21/2021 4:00:00 PM 17.3 63.14 0.051 6.75 1.08 9.36
9/21/2021 4:15:00 PM 17.32 63.176 0.051 6.73 1.17 9.3
9/21/2021 4:30:00 PM 17.33 63.194 0.051 6.72 1.12 9.28
9/21/2021 4:45:00 PM 17.37 63.266 0.051 6.71 1.14 9.28
9/21/2021 5:00:00 PM 17.4 63.32 0.051 6.71 1.07 9.28
9/21/2021 5:15:00 PM 17.43 63.374 0.051 6.71 1.09 9.27
9/21/2021 5:30:00 PM 17.44 63.392 0.051 6.7 1.06 9.24
9/21/2021 5:45:00 PM 17.46 63.428 0.051 6.7 1.04 9.22
9/21/2021 6:00:00 PM 17.47 63.446 0.051 6.68 1.08 9.18
9/21/2021 6:15:00 PM 17.48 63.464 0.051 6.68 1.08 9.14
9/21/2021 6:30:00 PM 17.49 63.482 0.051 6.66 1.1 9.11
9/21/2021 6:45:00 PM 17.49 63.482 0.051 6.66 1.1 9.08
9/21/2021 7:00:00 PM 17.5 63.5 0.051 6.65 1.61 9.06
9/21/2021 7:15:00 PM 17.5 63.5 0.051 6.64 1.14 9.05
9/21/2021 7:30:00 PM 17.5 63.5 0.051 6.57 1.18 9.04
9/21/2021 7:45:00 PM 17.49 63.482 0.051 6.64 1.2 9.02
9/21/2021 8:00:00 PM 17.49 63.482 0.051 6.64 1.2 9
9/21/2021 8:15:00 PM 17.49 63.482 0.051 6.63 1.22 9.01
9/21/2021 8:30:00 PM 17.49 63.482 0.051 6.63 1.5 8.99
9/21/2021 8:45:00 PM 17.49 63.482 0.051 6.63 1.39 8.99
9/21/2021 9:00:00 PM 17.48 63.464 0.051 6.63 1.29 8.98
9/21/2021 9:15:00 PM 17.48 63.464 0.051 6.63 1.42 8.97
9/21/2021 9:30:00 PM 17.47 63.446 0.051 6.64 1.39 8.94
9/21/2021 9:45:00 PM 17.47 63.446 0.051 6.65 1.25 8.93
9/21/2021 10:00:00 PM 17.47 63.446 0.052 6.69 1.16 8.94
9/21/2021 10:15:00 PM 17.46 63.428 0.052 6.68 1.31 8.93
9/21/2021 10:30:00 PM 17.46 63.428 0.053 6.71 1.29 8.9
9/21/2021 10:45:00 PM 17.45 63.41 0.052 6.68 1.19 8.89
9/21/2021 11:00:00 PM 17.44 63.392 0.052 6.69 1.45 8.92
9/21/2021 11:15:00 PM 17.43 63.374 0.053 6.7 1.24 8.89
9/21/2021 11:30:00 PM 17.42 63.356 0.053 6.68 1.38 8.91
9/21/2021 11:45:00 PM 17.4 63.32 0.053 6.67 1.43 8.92
9/22/2021 12:00:00 AM 17.39 63.302 0.053 6.67 1.21 8.86
9/22/2021 12:15:00 AM 17.38 63.284 0.054 6.67 1.29 8.85
9/22/2021 12:30:00 AM 17.33 63.194 0.054 6.64 1.34 8.94
9/22/2021 12:45:00 AM 17.33 63.194 0.055 6.66 1.22 8.92
9/22/2021 1:00:00 AM 17.31 63.158 0.056 6.66 1.36 8.87
9/22/2021 1:15:00 AM 17.28 63.104 0.058 6.63 3.03 8.93
9/22/2021 1:30:00 AM 17.27 63.086 0.059 6.65 2.03 8.89
9/22/2021 1:45:00 AM 17.24 63.032 0.06 6.58 2.78 8.92
9/22/2021 2:00:00 AM 17.24 63.032 0.061 6.66 2.93 8.9
9/22/2021 2:15:00 AM 17.19 62.942 0.063 6.63 5.9 8.94
9/22/2021 2:30:00 AM 17.18 62.924 0.064 6.65 1.59 8.92
9/22/2021 2:45:00 AM 17.16 62.888 0.065 6.65 1.5 8.94
9/22/2021 3:00:00 AM 17.14 62.852 0.066 6.65 1.16 8.93
9/22/2021 3:15:00 AM 17.12 62.816 0.066 6.65 1.11 8.94
9/22/2021 3:30:00 AM 17.09 62.762 0.066 6.64 1.13 9
9/22/2021 3:45:00 AM 17.07 62.726 0.066 6.64 1.82 9
9/22/2021 4:00:00 AM 17.05 62.69 0.066 6.64 1.16 9
9/22/2021 4:15:00 AM 17.04 62.672 0.066 6.65 1.19 8.98
9/22/2021 4:30:00 AM 17.01 62.618 0.065 6.66 1.27 8.97
9/22/2021 4:45:00 AM 16.99 62.582 0.065 6.66 1.17 8.98
9/22/2021 5:00:00 AM 16.97 62.546 0.064 6.66 1.16 9
9/22/2021 5:15:00 AM 16.96 62.528 0.064 6.67 1.09 8.97
9/22/2021 5:30:00 AM 16.94 62.492 0.063 6.67 1.25 8.99
9/22/2021 5:45:00 AM 16.92 62.456 0.062 6.67 1.12 9.03
9/22/2021 6:00:00 AM 16.91 62.438 0.064 6.68 1.14 9.02
9/22/2021 6:15:00 AM 16.88 62.384 0.062 6.67 1.27 9.03
9/22/2021 6:30:00 AM 16.86 62.348 0.061 6.68 1.13 9.04
9/22/2021 6:45:00 AM 16.85 62.33 0.061 6.65 1.25 9.02
9/22/2021 7:00:00 AM 16.83 62.294 0.06 6.69 1.26 9.04
9/22/2021 7:15:00 AM 16.82 62.276 0.06 6.69 1.2 9.04
9/22/2021 7:30:00 AM 16.8 62.24 0.06 6.69 1.19 9.04
9/22/2021 7:45:00 AM 16.79 62.222 0.06 6.65 1.3 9.05
9/22/2021 8:00:00 AM 16.77 62.186 0.059 6.68 1.39 9.04
9/22/2021 8:15:00 AM 16.76 62.168 0.059 6.68 1.15 9.06
9/22/2021 8:30:00 AM 16.74 62.132 0.059 6.67 1.13 9.05
9/22/2021 8:45:00 AM 16.73 62.114 0.058 6.65 1.14 9.09
9/22/2021 9:00:00 AM 16.72 62.096 0.058 6.65 1.38 9.08
9/22/2021 9:15:00 AM 16.72 62.096 0.058 6.67 1.2 9.09
9/22/2021 9:30:00 AM 16.72 62.096 0.058 6.67 1.14 9.13
9/22/2021 9:45:00 AM 16.72 62.096 0.058 6.69 1.17 9.09
9/22/2021 10:00:00 AM 16.73 62.114 0.058 6.7 1.12 9.13
9/22/2021 10:15:00 AM 16.73 62.114 0.058 6.69 1.08 9.15
9/22/2021 10:30:00 AM 16.73 62.114 0.057 6.68 1.2 9.17
9/22/2021 10:45:00 AM 16.74 62.132 0.057 6.7 1.18 9.16
9/22/2021 11:00:00 AM 16.75 62.15 0.057 6.71 1.11 9.16
9/22/2021 11:15:00 AM 16.76 62.168 0.057 6.7 1.27 9.17
9/22/2021 11:30:00 AM 16.77 62.186 0.057 6.73 1.14 9.16
9/22/2021 11:45:00 AM 16.82 62.276 0.056 6.72 1.3 9.18
9/22/2021 12:00:00 PM 16.83 62.294 0.056 6.7 1.66 9.17
9/22/2021 12:15:00 PM 16.85 62.33 0.056 6.74 1.44 9.19
9/22/2021 12:30:00 PM 16.87 62.366 0.055 6.73 1.39 9.22
9/22/2021 12:45:00 PM 16.9 62.42 0.055 6.75 1.62 9.21
9/22/2021 1:00:00 PM 16.93 62.474 0.055 6.77 1.6 9.21
9/22/2021 1:15:00 PM 16.95 62.51 0.055 6.77 1.5 9.19
9/22/2021 1:30:00 PM 17 62.6 0.055 6.77 1.81 9.16
9/22/2021 1:45:00 PM 17.02 62.636 0.056 6.76 1.54 9.16
9/22/2021 2:00:00 PM 17.04 62.672 0.056 6.69 1.89 9.15
9/22/2021 2:15:00 PM 17.05 62.69 0.057 6.74 1.78 9.14
9/22/2021 2:30:00 PM 17.06 62.708 0.058 6.74 1.87 9.15
9/22/2021 2:45:00 PM 17.09 62.762 0.06 6.74 2.02 9.14
9/22/2021 3:00:00 PM 17.11 62.798 0.061 6.67 15.46 9.13
9/22/2021 3:15:00 PM 17.14 62.852 0.063 6.74 1.69 9.15
9/22/2021 3:30:00 PM 17.18 62.924 0.066 6.74 3.04 9.14
9/22/2021 3:45:00 PM 17.21 62.978 0.068 6.72 2.23 9.14
9/22/2021 4:00:00 PM 17.28 63.104 0.068 6.77 1.7 9.17
9/22/2021 4:15:00 PM 17.33 63.194 0.067 6.77 2.08 9.15
9/22/2021 4:30:00 PM 17.36 63.248 0.065 6.77 2.16 9.15
9/22/2021 4:45:00 PM 17.4 63.32 0.063 6.76 1.87 9.12
9/22/2021 5:00:00 PM 17.42 63.356 0.062 6.7 2 9.08
9/22/2021 5:15:00 PM 17.44 63.392 0.061 6.75 1.76 9.05
9/22/2021 5:30:00 PM 17.45 63.41 0.06 6.73 2.72 9.03
9/22/2021 5:45:00 PM 17.45 63.41 0.058 6.72 2.3 9.01
9/22/2021 6:00:00 PM 17.45 63.41 0.058 6.7 2.04 8.99
9/22/2021 6:15:00 PM 17.44 63.392 0.057 6.69 2.58 8.98
9/22/2021 6:30:00 PM 17.42 63.356 0.057 6.68 2.79 8.97
9/22/2021 6:45:00 PM 17.41 63.338 0.057 6.66 3.41 8.96
9/22/2021 7:00:00 PM 17.4 63.32 0.057 6.66 3.13 8.95
9/22/2021 7:15:00 PM 17.38 63.284 0.057 6.64 3.34 8.94
9/22/2021 7:30:00 PM 17.36 63.248 0.056 6.63 4.33 8.95
9/22/2021 7:45:00 PM 17.34 63.212 0.055 6.65 4.12 8.94
9/22/2021 8:00:00 PM 17.32 63.176 0.054 6.66 5.25 8.96
9/22/2021 8:15:00 PM 17.3 63.14 0.052 6.64 6.51 8.97
9/22/2021 8:30:00 PM 17.26 63.068 0.05 6.56 6.64 8.98
9/22/2021 8:45:00 PM 17.23 63.014 0.049 6.62 7.2 8.99
9/22/2021 9:00:00 PM 17.2 62.96 0.047 6.62 6.49 9
9/22/2021 9:15:00 PM 17.18 62.924 0.047 6.62 5.96 8.99
9/22/2021 9:30:00 PM 17.15 62.87 0.046 6.62 5.93 9.02
9/22/2021 9:45:00 PM 17.14 62.852 0.046 6.69 5.76 9.02
9/22/2021 10:00:00 PM 17.1 62.78 0.045 6.66 5.1 9.03
9/22/2021 10:15:00 PM 17.06 62.708 0.045 6.65 5.05 9.03
9/22/2021 10:30:00 PM 17.02 62.636 0.044 6.64 5.43 9.05
9/22/2021 10:45:00 PM -100000 -179968 -100000 -100000 -100000 -100000
9/22/2021 11:00:00 PM 16.97 62.546 0.044 6.64 4.82 9.05
9/22/2021 11:15:00 PM 16.95 62.51 0.044 6.63 4.76 9.06
9/22/2021 11:30:00 PM 16.93 62.474 0.044 6.63 3.91 9.06
9/22/2021 11:45:00 PM 16.9 62.42 0.045 6.62 4.3 9.07
9/23/2021 12:00:00 AM 16.87 62.366 0.045 6.62 4.45 9.08
9/23/2021 12:15:00 AM 16.85 62.33 0.045 6.63 3.83 9.09
9/23/2021 12:30:00 AM 16.82 62.276 0.046 6.63 4.26 9.1
9/23/2021 12:45:00 AM 16.79 62.222 0.046 6.69 4.44 9.09
9/23/2021 1:00:00 AM 16.76 62.168 0.046 6.69 4.56 9.11
9/23/2021 1:15:00 AM 16.72 62.096 0.045 6.66 4.51 9.12
9/23/2021 1:30:00 AM 16.68 62.024 0.046 6.64 5.36 9.12
9/23/2021 1:45:00 AM 16.64 61.952 0.046 6.61 5.77 9.14
9/23/2021 2:00:00 AM 16.61 61.898 0.046 6.61 6.21 9.14
9/23/2021 2:15:00 AM 16.58 61.844 0.047 6.6 5.87 9.15
9/23/2021 2:30:00 AM 16.56 61.808 0.048 6.64 6.86 9.16
9/23/2021 2:45:00 AM 16.52 61.736 0.048 6.65 7.28 9.17
9/23/2021 3:00:00 AM 16.49 61.682 0.049 6.62 9.33 9.17
9/23/2021 3:15:00 AM 16.46 61.628 0.049 6.62 9.84 9.18
9/23/2021 3:30:00 AM 16.42 61.556 0.048 6.61 11.99 9.18
9/23/2021 3:45:00 AM 16.39 61.502 0.049 6.59 13.87 9.2
9/23/2021 4:00:00 AM 16.36 61.448 0.049 6.59 12.39 9.2
9/23/2021 4:15:00 AM 16.33 61.394 0.051 6.58 15.17 9.22
9/23/2021 4:30:00 AM 16.29 61.322 0.052 6.59 13.69 9.23
9/23/2021 4:45:00 AM 16.24 61.232 0.054 6.56 16.11 9.24
9/23/2021 5:00:00 AM 16.21 61.178 0.056 6.52 22.56 9.24
9/23/2021 5:15:00 AM 16.18 61.124 0.057 6.51 22.32 9.26
9/23/2021 5:30:00 AM 16.14 61.052 0.062 6.49 29.97 9.27
9/23/2021 5:45:00 AM 16.11 60.998 0.063 6.49 28.91 9.28
9/23/2021 6:00:00 AM 16.08 60.944 0.06 6.46 32.74 9.29
9/23/2021 6:15:00 AM 16.05 60.89 0.057 6.36 32.48 9.3
9/23/2021 6:30:00 AM 16.01 60.818 0.055 6.41 37.87 9.31
9/23/2021 6:45:00 AM 15.97 60.746 0.052 6.38 41.23 9.33
9/23/2021 7:00:00 AM 15.92 60.656 0.049 6.34 43.49 9.34
9/23/2021 7:15:00 AM 15.87 60.566 0.047 6.32 41.99 9.35
9/23/2021 7:30:00 AM 15.82 60.476 0.044 6.29 43.63 9.37
9/23/2021 7:45:00 AM 15.79 60.422 0.043 6.26 37.93 9.38
9/23/2021 8:00:00 AM 15.75 60.35 0.041 6.24 38.48 9.39
9/23/2021 8:15:00 AM 15.73 60.314 0.04 6.21 41.55 9.41
9/23/2021 8:30:00 AM 15.7 60.26 0.039 6.2 39.78 9.42
9/23/2021 8:45:00 AM 15.69 60.242 0.038 6.18 36.84 9.42
9/23/2021 9:00:00 AM 15.68 60.224 0.037 6.11 36.14 9.42
9/23/2021 9:15:00 AM 15.67 60.206 0.037 6.16 36.11 9.43
9/23/2021 9:30:00 AM 15.67 60.206 0.036 6.09 27.53 9.44
9/23/2021 9:45:00 AM 15.66 60.188 0.036 6.14 32.04 9.44
9/23/2021 10:00:00 AM 15.64 60.152 0.036 6.12 33.69 9.46
9/23/2021 10:15:00 AM 15.64 60.152 0.035 6.09 27.14 9.47
9/23/2021 10:30:00 AM 15.66 60.188 0.035 6.02 25.01 9.48
9/23/2021 10:45:00 AM 15.69 60.242 0.035 6.11 23.35 9.46
9/23/2021 11:00:00 AM 15.69 60.242 0.035 6.08 21.38 9.47
9/23/2021 11:15:00 AM 15.68 60.224 0.035 6.08 20.71 9.46
9/23/2021 11:30:00 AM 15.71 60.278 0.034 6.07 18.65 9.47
9/23/2021 11:45:00 AM 15.7 60.26 0.034 6.05 18.69 9.49
9/23/2021 12:00:00 PM 15.74 60.332 0.034 6.05 17.6 9.47
9/23/2021 12:15:00 PM 15.78 60.404 0.034 6.05 17.17 9.47
9/23/2021 12:30:00 PM 15.83 60.494 0.034 6.03 16.69 9.46
9/23/2021 12:45:00 PM 15.82 60.476 0.034 6.05 16.1 9.47
9/23/2021 1:00:00 PM 15.84 60.512 0.034 6.05 15.46 9.47
9/23/2021 1:15:00 PM 15.85 60.53 0.034 6.05 15.48 9.47
9/23/2021 1:30:00 PM 15.88 60.584 0.034 6.06 14.39 9.48
9/23/2021 1:45:00 PM -100000 -179968 -100000 -100000 -100000 -100000
9/23/2021 2:00:00 PM 15.85 60.53 0.033 6.06 14.08 9.48
9/23/2021 2:15:00 PM 15.85 60.53 0.033 5.95 13.49 9.47
9/23/2021 2:30:00 PM 15.8 60.44 0.033 6.06 12.36 9.49
9/23/2021 2:45:00 PM 15.75 60.35 0.033 6.05 12.17 9.49
9/23/2021 3:00:00 PM 15.71 60.278 0.033 6.06 11.38 9.5
9/23/2021 3:15:00 PM 15.68 60.224 0.033 5.97 11.22 9.49
9/23/2021 3:30:00 PM 15.62 60.116 0.033 6.08 10.51 9.51
9/23/2021 3:45:00 PM 15.57 60.026 0.033 6.08 10.36 9.53
9/23/2021 4:00:00 PM 15.53 59.954 0.033 5.98 10.41 9.54
9/23/2021 4:15:00 PM 15.48 59.864 0.033 6.02 9.91 9.53
9/23/2021 4:30:00 PM 15.42 59.756 0.033 6.09 9.46 9.54
9/23/2021 4:45:00 PM 15.36 59.648 0.033 6.09 8.74 9.56
9/23/2021 5:00:00 PM 15.31 59.558 0.033 6.07 8.7 9.57
9/23/2021 5:15:00 PM 15.26 59.468 0.033 6 8.5 9.58
9/23/2021 5:30:00 PM 15.22 59.396 0.033 6.1 8.15 9.59
9/23/2021 5:45:00 PM 15.17 59.306 0.033 6.09 7.91 9.6
9/23/2021 6:00:00 PM 15.14 59.252 0.033 6.1 7.34 9.6
9/23/2021 6:15:00 PM 15.11 59.198 0.033 6.09 6.8 9.61
9/23/2021 6:30:00 PM 15.07 59.126 0.033 6.09 7.23 9.62
9/23/2021 6:45:00 PM 15.03 59.054 0.033 6.09 8.3 9.62
9/23/2021 7:00:00 PM 14.99 58.982 0.033 6.12 6.89 9.63
9/23/2021 7:15:00 PM 14.94 58.892 0.033 6.11 6.97 9.64
9/23/2021 7:30:00 PM 14.89 58.802 0.033 6.1 7.81 9.64
9/23/2021 7:45:00 PM 14.84 58.712 0.033 6.11 7.55 9.65
9/23/2021 8:00:00 PM 14.79 58.622 0.033 6.09 6.44 9.67
9/23/2021 8:15:00 PM 14.74 58.532 0.033 6.14 6.57 9.67
9/23/2021 8:30:00 PM 14.7 58.46 0.033 6.13 6.95 9.68
9/23/2021 8:45:00 PM 14.66 58.388 0.033 6.05 6.26 9.7
9/23/2021 9:00:00 PM 14.63 58.334 0.033 6.14 5.83 9.7
9/23/2021 9:15:00 PM 14.6 58.28 0.033 6.14 5.65 9.71
9/23/2021 9:30:00 PM 14.55 58.19 0.033 6.13 5.49 9.72
9/23/2021 9:45:00 PM 14.51 58.118 0.033 6.14 5.81 9.73
9/23/2021 10:00:00 PM -100000 -179968 -100000 -100000 -100000 -100000
9/23/2021 10:15:00 PM 14.41 57.938 0.033 6.13 5.54 9.75
9/23/2021 10:30:00 PM 14.36 57.848 0.033 6.15 5.27 9.76
9/23/2021 10:45:00 PM 14.31 57.758 0.033 6.14 5.22 9.77
9/23/2021 11:00:00 PM 14.26 57.668 0.033 6.13 4.79 9.79
9/23/2021 11:15:00 PM 14.22 57.596 0.033 6.15 5.11 9.8
9/23/2021 11:30:00 PM 14.18 57.524 0.033 6.15 5.15 9.8
9/23/2021 11:45:00 PM 14.15 57.47 0.033 6.14 4.77 9.82
9/24/2021 12:00:00 AM 14.11 57.398 0.033 6.14 4.96 9.83
9/24/2021 12:15:00 AM 14.07 57.326 0.033 6.16 4.68 9.83
9/24/2021 12:30:00 AM 14.02 57.236 0.033 6.16 5.16 9.84
9/24/2021 12:45:00 AM 13.97 57.146 0.033 6.14 4.33 9.86
9/24/2021 1:00:00 AM 13.91 57.038 0.033 6.16 4.54 9.87
9/24/2021 1:15:00 AM 13.85 56.93 0.033 6.16 4.49 9.88
9/24/2021 1:30:00 AM 13.8 56.84 0.033 6.17 4.23 9.89
9/24/2021 1:45:00 AM 13.76 56.768 0.033 6.16 4.52 9.9
9/24/2021 2:00:00 AM 13.71 56.678 0.033 6.17 4.55 9.92
9/24/2021 2:15:00 AM 13.66 56.588 0.033 6.06 4.6 9.93
9/24/2021 2:30:00 AM 13.61 56.498 0.033 6.17 5.06 9.94
9/24/2021 2:45:00 AM 13.56 56.408 0.033 6.16 4.94 9.95
9/24/2021 3:00:00 AM 13.51 56.318 0.033 6.16 4.68 9.96
9/24/2021 3:15:00 AM 13.46 56.228 0.033 6.16 3.96 9.98
9/24/2021 3:30:00 AM 13.4 56.12 0.033 6.16 4.33 9.99
9/24/2021 3:45:00 AM 13.34 56.012 0.033 6.13 4.55 10.01
9/24/2021 4:00:00 AM -100000 -179968 -100000 -100000 -100000 -100000
9/24/2021 4:15:00 AM 13.23 55.814 0.033 6.17 3.7 10.02
9/24/2021 4:30:00 AM 13.17 55.706 0.033 6.17 3.81 10.05
9/24/2021 4:45:00 AM 13.11 55.598 0.033 6.13 3.77 10.06
9/24/2021 5:00:00 AM 13.06 55.508 0.033 6.17 3.65 10.07
9/24/2021 5:15:00 AM 13 55.4 0.033 6.17 3.62 10.1
9/24/2021 5:30:00 AM 12.95 55.31 0.033 6.16 3.85 10.11
9/24/2021 5:45:00 AM 12.9 55.22 0.033 6.18 3.97 10.12
9/24/2021 6:00:00 AM 12.84 55.112 0.033 6.17 3.81 10.13
9/24/2021 6:15:00 AM 12.79 55.022 0.033 6.17 3.99 10.15
9/24/2021 6:30:00 AM 12.74 54.932 0.033 6.17 3.64 10.16
9/24/2021 6:45:00 AM 12.69 54.842 0.033 6.17 3.59 10.18
9/24/2021 7:00:00 AM 12.63 54.734 0.033 6.04 3.39 10.2
9/24/2021 7:15:00 AM 12.59 54.662 0.033 6.15 3.48 10.21
9/24/2021 7:30:00 AM 12.54 54.572 0.033 6.14 3.54 10.22
9/24/2021 7:45:00 AM 12.49 54.482 0.033 6.14 3.36 10.24
9/24/2021 8:00:00 AM 12.45 54.41 0.033 6.14 12.78 10.25
9/24/2021 8:15:00 AM -100000 -179968 -100000 -100000 -100000 -100000
9/24/2021 8:30:00 AM 12.4 54.32 0.033 6.16 3.16 10.29
9/24/2021 8:45:00 AM 12.4 54.32 0.033 6.16 2.99 10.3
9/24/2021 9:00:00 AM 12.4 54.32 0.032 6.17 3.22 10.31
9/24/2021 9:15:00 AM 12.41 54.338 0.033 6.18 5.6 10.32
9/24/2021 9:30:00 AM 12.44 54.392 0.033 6.2 2.97 10.32
9/24/2021 9:45:00 AM -100000 -179968 -100000 -100000 -100000 -100000
9/24/2021 10:00:00 AM 12.5 54.5 0.032 6.09 3.17 10.31
9/24/2021 10:15:00 AM 12.53 54.554 0.032 6.2 3.06 10.3
9/24/2021 10:30:00 AM 12.57 54.626 0.032 6.2 4.22 10.29
9/24/2021 10:45:00 AM 12.62 54.716 0.032 6.21 3.21 10.28
9/24/2021 11:00:00 AM -100000 -179968 -100000 -100000 -100000 -100000
9/24/2021 11:15:00 AM 12.73 54.914 0.032 6.21 2.97 10.26
9/24/2021 11:30:00 AM 12.8 55.04 0.032 6.14 3.06 10.25
9/24/2021 11:45:00 AM 12.87 55.166 0.032 6.23 2.86 10.23
9/24/2021 12:00:00 PM 12.96 55.328 0.032 6.23 2.93 10.21
9/24/2021 12:15:00 PM 13.06 55.508 0.032 6.22 3.14 10.19
9/24/2021 12:30:00 PM 13.17 55.706 0.032 6.22 2.82 10.17
9/24/2021 12:45:00 PM 13.3 55.94 0.032 6.23 2.88 10.13
9/24/2021 1:00:00 PM 13.41 56.138 0.032 6.24 2.67 10.11
9/24/2021 1:15:00 PM 13.53 56.354 0.032 6.14 2.84 10.09
9/24/2021 1:30:00 PM 13.65 56.57 0.032 6.19 2.98 10.07
9/24/2021 1:45:00 PM 13.75 56.75 0.032 6.25 2.59 10.04
9/24/2021 2:00:00 PM 13.84 56.912 0.032 6.24 2.87 10.02
9/24/2021 2:15:00 PM 13.93 57.074 0.032 6.22 2.74 9.99
9/24/2021 2:30:00 PM 14.03 57.254 0.032 6.21 2.69 9.97
9/24/2021 2:45:00 PM 14.1 57.38 0.032 6.26 2.63 9.96
9/24/2021 3:00:00 PM 14.15 57.47 0.032 6.25 2.71 9.94
9/24/2021 3:15:00 PM 14.15 57.47 0.032 6.25 2.58 9.94
9/24/2021 3:30:00 PM 14.2 57.56 0.032 6.22 2.65 9.93
9/24/2021 3:45:00 PM 14.19 57.542 0.032 6.26 2.79 9.92
9/24/2021 4:00:00 PM 14.21 57.578 0.032 6.26 2.93 9.92
9/24/2021 4:15:00 PM 14.22 57.596 0.032 6.26 2.81 9.91
9/24/2021 4:30:00 PM 14.23 57.614 0.032 6.16 2.47 9.91
9/24/2021 4:45:00 PM 14.22 57.596 0.032 6.26 2.61 9.9
9/24/2021 5:00:00 PM 14.19 57.542 0.032 6.25 2.65 9.9
9/24/2021 5:15:00 PM 14.15 57.47 0.032 6.24 2.75 9.91
9/24/2021 5:30:00 PM 14.12 57.416 0.032 6.24 2.9 9.91
9/24/2021 5:45:00 PM -100000 -179968 -100000 -100000 -100000 -100000
9/24/2021 6:00:00 PM 14.03 57.254 0.032 6.24 2.48 9.92
9/24/2021 6:15:00 PM 13.99 57.182 0.032 6.25 2.44 9.92
9/24/2021 6:30:00 PM 13.95 57.11 0.032 6.24 2.71 9.93
9/24/2021 6:45:00 PM 13.9 57.02 0.032 6.25 2.6 9.94
9/24/2021 7:00:00 PM 13.86 56.948 0.032 6.25 2.8 9.95
9/24/2021 7:15:00 PM 13.81 56.858 0.032 6.24 2.73 9.96
9/24/2021 7:30:00 PM 13.77 56.786 0.032 6.27 2.69 9.95
9/24/2021 7:45:00 PM 13.73 56.714 0.032 6.25 2.77 9.97
9/24/2021 8:00:00 PM 13.69 56.642 0.032 6.25 2.57 9.97
9/24/2021 8:15:00 PM 13.65 56.57 0.032 6.25 2.58 9.98
9/24/2021 8:30:00 PM 13.62 56.516 0.032 6.26 2.55 9.98
9/24/2021 8:45:00 PM 13.58 56.444 0.032 6.25 2.82 9.99
9/24/2021 9:00:00 PM 13.55 56.39 0.032 6.24 2.58 10
9/24/2021 9:15:00 PM 13.52 56.336 0.032 6.24 2.46 10.01
9/24/2021 9:30:00 PM 13.48 56.264 0.032 6.26 2.62 10.02
9/24/2021 9:45:00 PM 13.44 56.192 0.032 6.24 2.49 10.02
9/24/2021 10:00:00 PM 13.4 56.12 0.032 6.24 2.4 10.03
9/24/2021 10:15:00 PM 13.36 56.048 0.032 6.23 2.56 10.04
9/24/2021 10:30:00 PM 13.32 55.976 0.032 6.24 2.47 10.06
9/24/2021 10:45:00 PM 13.28 55.904 0.032 6.23 2.48 10.06
9/24/2021 11:00:00 PM 13.24 55.832 0.032 6.24 2.29 10.06
9/24/2021 11:15:00 PM 13.19 55.742 0.032 6.14 2.39 10.09
9/24/2021 11:30:00 PM 13.15 55.67 0.032 6.18 2.37 10.1
9/24/2021 11:45:00 PM 13.11 55.598 0.032 6.25 2.47 10.11
9/25/2021 12:00:00 AM 13.07 55.526 0.032 6.23 2.41 10.12
9/25/2021 12:15:00 AM 13.02 55.436 0.032 6.23 3.52 10.12
9/25/2021 12:30:00 AM 12.98 55.364 0.032 6.23 2.53 10.14
9/25/2021 12:45:00 AM 12.94 55.292 0.032 6.23 3.08 10.15
9/25/2021 1:00:00 AM 12.89 55.202 0.032 6.24 2.57 10.16
9/25/2021 1:15:00 AM 12.85 55.13 0.032 6.14 2.5 10.16
9/25/2021 1:30:00 AM 12.8 55.04 0.032 6.24 2.48 10.18
9/25/2021 1:45:00 AM -100000 -179968 -100000 -100000 -100000 -100000
9/25/2021 2:00:00 AM 12.71 54.878 0.032 6.19 2.85 10.2
9/25/2021 2:15:00 AM 12.66 54.788 0.032 6.17 2.76 10.21
9/25/2021 2:30:00 AM 12.62 54.716 0.032 6.17 3.02 10.22
9/25/2021 2:45:00 AM 12.57 54.626 0.032 6.23 2.32 10.23
9/25/2021 3:00:00 AM 12.52 54.536 0.032 6.23 2.36 10.24
9/25/2021 3:15:00 AM 12.48 54.464 0.032 6.22 2.85 10.25
9/25/2021 3:30:00 AM 12.44 54.392 0.032 6.2 2.56 10.26
9/25/2021 3:45:00 AM 12.4 54.32 0.032 6.24 2.61 10.27
9/25/2021 4:00:00 AM 12.37 54.266 0.032 6.22 2.81 10.28
9/25/2021 4:15:00 AM 12.32 54.176 0.032 6.21 2.5 10.3
9/25/2021 4:30:00 AM 12.28 54.104 0.032 6.22 2.57 10.31
9/25/2021 4:45:00 AM 12.25 54.05 0.032 6.22 2.58 10.32
9/25/2021 5:00:00 AM 12.21 53.978 0.032 6.23 2.95 10.32
9/25/2021 5:15:00 AM 12.16 53.888 0.032 6.23 3.05 10.33
9/25/2021 5:30:00 AM -100000 -179968 -100000 -100000 -100000 -100000
9/25/2021 5:45:00 AM 12.09 53.762 0.032 6.21 4.04 10.35
9/25/2021 6:00:00 AM 12.04 53.672 0.032 6.17 2.5 10.37
9/25/2021 6:15:00 AM -100000 -179968 -100000 -100000 -100000 -100000
9/25/2021 6:30:00 AM 11.96 53.528 0.032 6.22 2.55 10.39
9/25/2021 6:45:00 AM 11.9 53.42 0.032 6.22 3.05 10.4
9/25/2021 7:00:00 AM -100000 -179968 -100000 -100000 -100000 -100000
9/25/2021 7:15:00 AM 11.82 53.276 0.032 6.24 2.32 10.42
9/25/2021 7:30:00 AM 11.79 53.222 0.032 6.21 2.08 10.43
9/25/2021 7:45:00 AM 11.75 53.15 0.032 6.22 2.13 10.46
9/25/2021 8:00:00 AM 11.72 53.096 0.032 6.22 2.17 10.47
9/25/2021 8:15:00 AM 11.69 53.042 0.032 6.15 2.33 10.48
9/25/2021 8:30:00 AM 11.66 52.988 0.032 6.23 2.15 10.5
9/25/2021 8:45:00 AM 11.65 52.97 0.032 6.23 2.22 10.51
9/25/2021 9:00:00 AM 11.64 52.952 0.032 6.22 3.06 10.53
9/25/2021 9:15:00 AM 11.65 52.97 0.032 6.24 2.05 10.54
9/25/2021 9:30:00 AM 11.65 52.97 0.032 6.24 2.11 10.54
9/25/2021 9:45:00 AM 11.66 52.988 0.032 6.13 2.26 10.54
9/25/2021 10:00:00 AM 11.69 53.042 0.032 6.24 2.3 10.53
9/25/2021 10:15:00 AM 11.71 53.078 0.032 6.19 2.02 10.52
9/25/2021 10:30:00 AM 11.76 53.168 0.032 6.24 2.14 10.51
9/25/2021 10:45:00 AM 11.81 53.258 0.032 6.25 2.13 10.5
9/25/2021 11:00:00 AM 11.88 53.384 0.032 6.25 2.1 10.48
9/25/2021 11:15:00 AM 11.97 53.546 0.032 6.24 2.12 10.47
9/25/2021 11:30:00 AM 12.05 53.69 0.032 6.15 2.17 10.44
9/25/2021 11:45:00 AM 12.15 53.87 0.032 6.26 2.12 10.42
9/25/2021 12:00:00 PM 12.27 54.086 0.032 6.18 2.1 10.4
9/25/2021 12:15:00 PM 12.39 54.302 0.032 6.22 2.18 10.38
9/25/2021 12:30:00 PM 12.53 54.554 0.032 6.26 2.18 10.35
9/25/2021 12:45:00 PM 12.67 54.806 0.032 6.28 2.36 10.31
9/25/2021 1:00:00 PM 12.82 55.076 0.032 6.18 2.07 10.28
9/25/2021 1:15:00 PM 12.95 55.31 0.031 6.28 1.97 10.24
9/25/2021 1:30:00 PM 13.09 55.562 0.031 6.28 2.1 10.21
9/25/2021 1:45:00 PM 13.2 55.76 0.031 6.29 2.13 10.18
9/25/2021 2:00:00 PM 13.33 55.994 0.032 6.29 2.05 10.15
9/25/2021 2:15:00 PM 13.44 56.192 0.031 6.29 2.03 10.12
9/25/2021 2:30:00 PM 13.52 56.336 0.031 6.29 1.96 10.1
9/25/2021 2:45:00 PM 13.59 56.462 0.031 6.3 2.27 10.07
9/25/2021 3:00:00 PM 13.63 56.534 0.031 6.29 2.16 10.07
9/25/2021 3:15:00 PM 13.66 56.588 0.031 6.29 1.93 10.06
9/25/2021 3:30:00 PM 13.68 56.624 0.031 6.28 2.15 10.05
9/25/2021 4:00:00 PM 13.69 56.642 0.031 6.28 2.23 10.04
9/25/2021 4:15:00 PM 13.7 56.66 0.032 6.26 2.25 10.03
9/25/2021 4:30:00 PM 13.69 56.642 0.031 6.29 2.01 10.03
9/25/2021 4:45:00 PM 13.69 56.642 0.031 6.29 2.16 10.01
9/25/2021 5:00:00 PM 13.67 56.606 0.031 6.28 2.14 10.02
9/25/2021 5:15:00 PM 13.66 56.588 0.031 6.28 2.22 10.01
9/25/2021 5:30:00 PM 13.64 56.552 0.031 6.27 2.12 10
9/25/2021 5:45:00 PM 13.63 56.534 0.031 6.28 2.06 9.99
9/25/2021 6:00:00 PM 13.62 56.516 0.031 6.27 1.84 9.99
9/25/2021 6:15:00 PM 13.61 56.498 0.031 6.28 2.02 9.99
9/25/2021 6:30:00 PM 13.59 56.462 0.031 6.28 4.14 9.99
9/25/2021 6:45:00 PM 13.57 56.426 0.031 6.18 1.97 9.98
9/25/2021 7:00:00 PM 13.54 56.372 0.031 6.29 2.17 9.99
9/25/2021 7:15:00 PM 13.51 56.318 0.032 6.29 2.31 9.98
9/25/2021 7:30:00 PM 13.47 56.246 0.031 6.28 2.15 9.99
9/25/2021 7:45:00 PM 13.44 56.192 0.032 6.18 2.11 10
9/25/2021 8:00:00 PM 13.42 56.156 0.031 6.24 3.46 9.99
9/25/2021 8:15:00 PM 13.4 56.12 0.032 6.28 1.95 10.01
9/25/2021 8:30:00 PM 13.39 56.102 0.032 6.19 2.14 10.01
9/25/2021 8:45:00 PM 13.37 56.066 0.032 6.29 2.51 10
9/25/2021 9:00:00 PM 13.36 56.048 0.032 6.28 7.24 10.02
9/25/2021 9:15:00 PM 13.36 56.048 0.031 6.28 16.24 10.02
9/25/2021 9:30:00 PM 13.35 56.03 0.031 6.27 2.32 10.01
9/25/2021 9:45:00 PM 13.34 56.012 0.032 6.28 2.42 10.02
9/25/2021 10:00:00 PM 13.33 55.994 0.032 6.28 1.94 10.02
9/25/2021 10:15:00 PM 13.33 55.994 0.032 6.27 2.06 10.03
9/25/2021 10:30:00 PM 13.32 55.976 0.032 6.27 2.24 10.02
9/25/2021 10:45:00 PM 13.32 55.976 0.032 6.27 2.18 10.04
9/25/2021 11:00:00 PM 13.31 55.958 0.032 6.18 1.84 10.03
9/25/2021 11:15:00 PM 13.29 55.922 0.032 6.28 1.93 10.03
9/25/2021 11:30:00 PM 13.28 55.904 0.032 6.27 2.2 10.04
9/25/2021 11:45:00 PM 13.26 55.868 0.032 6.27 2.1 10.05
9/26/2021 12:00:00 AM 13.24 55.832 0.032 6.29 1.94 10.03
9/26/2021 12:15:00 AM 13.22 55.796 0.032 6.16 3.97 10.05
9/26/2021 12:30:00 AM 13.19 55.742 0.032 6.28 2.03 10.06
9/26/2021 12:45:00 AM 13.16 55.688 0.032 6.28 1.95 10.06
9/26/2021 1:00:00 AM 13.13 55.634 0.032 6.28 2.22 10.07
9/26/2021 1:15:00 AM 13.1 55.58 0.032 6.16 1.97 10.08
9/26/2021 1:30:00 AM 13.06 55.508 0.032 6.28 2.36 10.09
9/26/2021 1:45:00 AM 13.02 55.436 0.031 6.26 2.17 10.1
9/26/2021 2:00:00 AM 12.98 55.364 0.032 6.21 2.13 10.1
9/26/2021 2:15:00 AM 12.93 55.274 0.032 6.2 2.11 10.12
9/26/2021 2:30:00 AM 12.88 55.184 0.032 6.28 2.01 10.12
9/26/2021 2:45:00 AM 12.84 55.112 0.031 6.25 1.98 10.14
9/26/2021 3:00:00 AM 12.79 55.022 0.032 6.27 2.11 10.14
9/26/2021 3:15:00 AM 12.74 54.932 0.032 6.26 3.48 10.15
9/26/2021 3:30:00 AM 12.7 54.86 0.032 6.24 3.22 10.16
9/26/2021 3:45:00 AM 12.65 54.77 0.032 6.26 2.59 10.18
9/26/2021 4:00:00 AM 12.6 54.68 0.032 6.25 2.97 10.19
9/26/2021 4:15:00 AM 12.56 54.608 0.032 6.15 3.66 10.2
9/26/2021 4:30:00 AM 12.51 54.518 0.032 6.27 2.72 10.21
9/26/2021 4:45:00 AM -100000 -179968 -100000 -100000 -100000 -100000
9/26/2021 5:00:00 AM 12.43 54.374 0.032 6.22 2.66 10.22
9/26/2021 5:15:00 AM 12.4 54.32 0.032 6.26 2.46 10.24
9/26/2021 5:30:00 AM 12.36 54.248 0.032 6.25 2.54 10.26
9/26/2021 5:45:00 AM 12.33 54.194 0.032 6.26 2.8 10.26
9/26/2021 6:00:00 AM 12.29 54.122 0.032 6.26 2.64 10.26
9/26/2021 6:15:00 AM 12.25 54.05 0.032 6.25 2.7 10.28
9/26/2021 6:30:00 AM 12.22 53.996 0.032 6.25 2.54 10.29
9/26/2021 6:45:00 AM 12.19 53.942 0.032 6.26 3.66 10.29
9/26/2021 7:00:00 AM 12.15 53.87 0.032 6.26 1.87 10.31
9/26/2021 7:15:00 AM 12.12 53.816 0.032 6.23 2.41 10.32
9/26/2021 7:30:00 AM 12.09 53.762 0.032 6.26 1.74 10.33
9/26/2021 7:45:00 AM 12.06 53.708 0.032 6.25 1.66 10.35
9/26/2021 8:00:00 AM 12.03 53.654 0.032 6.18 1.74 10.37
9/26/2021 8:15:00 AM 12 53.6 0.032 6.26 1.78 10.38
9/26/2021 8:30:00 AM 11.98 53.564 0.032 6.26 1.74 10.39
9/26/2021 8:45:00 AM 11.97 53.546 0.032 6.17 1.68 10.4
9/26/2021 9:00:00 AM 11.95 53.51 0.032 6.27 1.79 10.41
9/26/2021 9:15:00 AM 11.94 53.492 0.032 6.14 1.79 10.41
9/26/2021 9:30:00 AM 11.94 53.492 0.032 6.28 1.79 10.42
9/26/2021 9:45:00 AM 11.94 53.492 0.032 6.25 1.87 10.43
9/26/2021 10:00:00 AM 11.95 53.51 0.032 6.22 1.95 10.43
9/26/2021 10:15:00 AM 11.97 53.546 0.032 6.27 1.77 10.43
9/26/2021 10:30:00 AM 12 53.6 0.032 6.26 1.84 10.42
9/26/2021 10:45:00 AM 12.04 53.672 0.032 6.28 1.74 10.42
9/26/2021 11:00:00 AM 12.1 53.78 0.032 6.17 1.73 10.41
9/26/2021 11:15:00 AM 12.15 53.87 0.032 6.29 1.79 10.39
9/26/2021 11:30:00 AM 12.22 53.996 0.032 6.2 1.68 10.38
9/26/2021 11:45:00 AM 12.29 54.122 0.032 6.3 1.71 10.36
9/26/2021 12:00:00 PM 12.38 54.284 0.032 6.24 1.67 10.35
9/26/2021 12:15:00 PM 12.48 54.464 0.032 6.3 1.76 10.32
9/26/2021 12:30:00 PM 12.59 54.662 0.032 6.22 1.75 10.3
9/26/2021 12:45:00 PM 12.7 54.86 0.032 6.3 1.71 10.28
9/26/2021 1:00:00 PM 12.81 55.058 0.032 6.3 1.64 10.25
9/26/2021 1:15:00 PM 12.94 55.292 0.032 6.22 1.81 10.22
9/26/2021 1:30:00 PM 13.06 55.508 0.032 6.3 1.61 10.19
9/26/2021 1:45:00 PM 13.18 55.724 0.032 6.22 1.68 10.16
9/26/2021 2:00:00 PM 13.29 55.922 0.032 6.3 1.63 10.13
9/26/2021 2:15:00 PM 13.39 56.102 0.031 6.3 1.69 10.11
9/26/2021 2:30:00 PM 13.5 56.3 0.032 6.29 1.72 10.07
9/26/2021 2:45:00 PM 13.59 56.462 0.032 6.31 1.76 10.04
9/26/2021 3:00:00 PM 13.68 56.624 0.032 6.29 1.86 10.02
9/26/2021 3:15:00 PM 13.76 56.768 0.032 6.29 1.65 10
9/26/2021 3:30:00 PM 13.81 56.858 0.032 6.31 1.77 9.98
9/26/2021 3:45:00 PM 13.84 56.912 0.031 6.3 2.02 9.95
9/26/2021 4:00:00 PM 13.86 56.948 0.031 6.3 1.69 9.95
9/26/2021 4:15:00 PM 13.88 56.984 0.032 6.32 1.59 9.94
9/26/2021 4:30:00 PM 13.89 57.002 0.032 6.3 1.73 9.96
9/26/2021 4:45:00 PM 13.87 56.966 0.031 6.3 1.77 9.96
9/26/2021 5:00:00 PM 13.85 56.93 0.032 6.27 1.53 9.96
9/26/2021 5:15:00 PM 13.82 56.876 0.031 6.31 1.75 9.96
9/26/2021 5:30:00 PM 13.78 56.804 0.032 6.27 1.7 9.96
9/26/2021 5:45:00 PM 13.74 56.732 0.032 6.26 1.72 9.98
9/26/2021 6:00:00 PM 13.7 56.66 0.032 6.31 1.66 9.98
9/26/2021 6:15:00 PM 13.66 56.588 0.032 6.3 1.54 9.98
9/26/2021 6:30:00 PM 13.61 56.498 0.032 6.29 1.56 9.99
9/26/2021 6:45:00 PM 13.56 56.408 0.032 6.29 1.8 9.99
9/26/2021 7:00:00 PM 13.5 56.3 0.032 6.3 1.73 10
9/26/2021 7:15:00 PM 13.43 56.174 0.032 6.31 1.73 10
9/26/2021 7:30:00 PM 13.36 56.048 0.032 6.3 2.19 10.01
9/26/2021 7:45:00 PM 13.29 55.922 0.032 6.18 1.77 10.03
9/26/2021 8:00:00 PM 13.24 55.832 0.032 6.3 2.52 10.04
9/26/2021 8:15:00 PM 13.18 55.724 0.032 6.3 2.22 10.04
9/26/2021 8:30:00 PM 13.13 55.634 0.032 6.3 2.23 10.06
9/26/2021 8:45:00 PM 13.08 55.544 0.032 6.29 2.04 10.07
9/26/2021 9:00:00 PM 13.03 55.454 0.032 6.23 2.18 10.09
9/26/2021 9:15:00 PM 12.98 55.364 0.032 6.32 2.22 10.08
9/26/2021 9:30:00 PM 12.94 55.292 0.032 6.3 2.23 10.11
9/26/2021 9:45:00 PM 12.9 55.22 0.032 6.19 2.19 10.12
9/26/2021 10:00:00 PM 12.86 55.148 0.032 6.31 2.16 10.13
9/26/2021 10:15:00 PM 12.82 55.076 0.032 6.29 2.14 10.14
9/26/2021 10:30:00 PM 12.78 55.004 0.032 6.29 2.14 10.15
9/26/2021 10:45:00 PM 12.74 54.932 0.032 6.2 2.16 10.15
9/26/2021 11:00:00 PM 12.7 54.86 0.032 6.31 2.17 10.15
9/26/2021 11:15:00 PM 12.66 54.788 0.032 6.28 2.4 10.18
9/26/2021 11:30:00 PM -100000 -179968 -100000 -100000 -100000 -100000
9/26/2021 11:45:00 PM 12.58 54.644 0.032 6.28 2.21 10.19
9/27/2021 12:00:00 AM 12.53 54.554 0.032 6.17 2.17 10.21
9/27/2021 12:15:00 AM 12.49 54.482 0.032 6.29 2.09 10.21
9/27/2021 12:30:00 AM 12.45 54.41 0.032 6.28 2.2 10.21
9/27/2021 12:45:00 AM 12.41 54.338 0.032 6.29 2.13 10.23
9/27/2021 1:00:00 AM 12.37 54.266 0.032 6.28 2.05 10.23
9/27/2021 1:15:00 AM 12.33 54.194 0.032 6.28 2.17 10.25
9/27/2021 1:30:00 AM 12.28 54.104 0.032 6.28 2.64 10.26
9/27/2021 1:45:00 AM 12.24 54.032 0.032 6.27 2.1 10.28
9/27/2021 2:00:00 AM 12.2 53.96 0.032 6.28 2.33 10.29
9/27/2021 2:15:00 AM 12.16 53.888 0.032 6.17 1.95 10.28
9/27/2021 2:30:00 AM 12.12 53.816 0.032 6.28 2.05 10.31
9/27/2021 2:45:00 AM 12.09 53.762 0.032 6.28 2.19 10.31
9/27/2021 3:00:00 AM 12.05 53.69 0.032 6.27 2.2 10.33
9/27/2021 3:15:00 AM 12.01 53.618 0.032 6.26 2.34 10.34
9/27/2021 3:30:00 AM 11.98 53.564 0.032 6.17 1.92 10.33
9/27/2021 3:45:00 AM 11.94 53.492 0.032 6.27 2.02 10.33
9/27/2021 4:00:00 AM 11.91 53.438 0.032 6.28 2.41 10.36
9/27/2021 4:15:00 AM 11.88 53.384 0.032 6.29 2.04 10.35
9/27/2021 4:30:00 AM 11.85 53.33 0.032 6.26 1.9 10.38
9/27/2021 4:45:00 AM 11.82 53.276 0.032 6.28 2.12 10.39
9/27/2021 5:00:00 AM 11.8 53.24 0.032 6.26 2.19 10.4
9/27/2021 5:15:00 AM 11.79 53.222 0.032 6.18 1.66 10.41
9/27/2021 5:30:00 AM 11.77 53.186 0.032 6.28 2.03 10.4
9/27/2021 5:45:00 AM 11.76 53.168 0.032 6.27 2.32 10.39
9/27/2021 6:00:00 AM 11.75 53.15 0.032 6.27 2.44 10.41
9/27/2021 6:15:00 AM 11.74 53.132 0.032 6.28 2.22 10.41
9/27/2021 6:30:00 AM 11.73 53.114 0.032 6.27 2.19 10.42
9/27/2021 6:45:00 AM 11.72 53.096 0.032 6.27 1.49 10.42
9/27/2021 7:00:00 AM 11.71 53.078 0.032 6.29 1.68 10.4
9/27/2021 7:15:00 AM 11.7 53.06 0.032 6.17 1.6 10.41
9/27/2021 7:30:00 AM 11.69 53.042 0.032 6.27 1.42 10.4
9/27/2021 7:45:00 AM 11.68 53.024 0.032 6.28 1.45 10.43
9/27/2021 8:00:00 AM 11.67 53.006 0.032 6.28 1.5 10.45
9/27/2021 8:15:00 AM 11.67 53.006 0.032 6.22 1.43 10.46
9/27/2021 8:30:00 AM 11.67 53.006 0.032 6.28 1.56 10.46
9/27/2021 8:45:00 AM 11.67 53.006 0.032 6.28 2.19 10.47
9/27/2021 9:00:00 AM 11.68 53.024 0.032 6.27 1.54 10.47
9/27/2021 9:15:00 AM 11.7 53.06 0.032 6.29 2.41 10.46
9/27/2021 9:30:00 AM 11.72 53.096 0.032 6.28 1.75 10.47
9/27/2021 9:45:00 AM 11.75 53.15 0.032 6.18 1.85 10.47
9/27/2021 10:00:00 AM 11.79 53.222 0.032 6.29 1.75 10.46
9/27/2021 10:15:00 AM 11.83 53.294 0.032 6.28 1.76 10.45
9/27/2021 10:30:00 AM 11.89 53.402 0.032 6.29 1.41 10.43
9/27/2021 10:45:00 AM 11.96 53.528 0.032 6.29 1.58 10.43
9/27/2021 11:00:00 AM 12.04 53.672 0.032 6.3 1.53 10.41
9/27/2021 11:15:00 AM 12.14 53.852 0.032 6.31 1.69 10.39
9/27/2021 11:30:00 AM 12.25 54.05 0.032 6.31 1.5 10.37
9/27/2021 11:45:00 AM 12.36 54.248 0.032 6.32 1.43 10.34
9/27/2021 12:00:00 PM 12.5 54.5 0.032 6.32 1.38 10.32
9/27/2021 12:15:00 PM 12.65 54.77 0.032 6.32 1.45 10.28
9/27/2021 12:30:00 PM 12.79 55.022 0.032 6.32 1.6 10.24
9/27/2021 12:45:00 PM 12.96 55.328 0.032 6.33 1.53 10.2
9/27/2021 1:00:00 PM 13.12 55.616 0.032 6.34 1.43 10.16
9/27/2021 1:15:00 PM 13.29 55.922 0.032 6.33 1.51 10.13
9/27/2021 1:30:00 PM 13.45 56.21 0.032 6.32 1.39 10.08
9/27/2021 1:45:00 PM 13.62 56.516 0.032 6.32 1.51 10.05
9/27/2021 2:00:00 PM 13.79 56.822 0.032 6.32 1.41 10
9/27/2021 2:15:00 PM 13.95 57.11 0.032 6.34 1.63 9.96
9/27/2021 2:30:00 PM 14.11 57.398 0.032 6.23 1.56 9.91
9/27/2021 2:45:00 PM 14.23 57.614 0.032 6.33 1.48 9.87
9/27/2021 3:00:00 PM 14.36 57.848 0.032 6.33 1.52 9.84
9/27/2021 3:15:00 PM 14.47 58.046 0.032 6.34 1.47 9.8
9/27/2021 3:30:00 PM 14.56 58.208 0.032 6.28 1.55 9.78
9/27/2021 3:45:00 PM 14.64 58.352 0.032 6.34 1.53 9.75
9/27/2021 4:00:00 PM 14.71 58.478 0.032 6.33 1.42 9.74
9/27/2021 4:15:00 PM 14.75 58.55 0.032 6.33 1.53 9.72
9/27/2021 4:30:00 PM 14.79 58.622 0.032 6.33 1.53 9.7
9/27/2021 4:45:00 PM -100000 -179968 -100000 -100000 -100000 -100000
9/27/2021 5:00:00 PM 14.83 58.694 0.032 6.33 1.48 9.68
9/27/2021 5:15:00 PM 14.83 58.694 0.032 6.33 1.49 9.69
9/27/2021 5:30:00 PM 14.83 58.694 0.032 6.33 1.49 9.69
9/27/2021 5:45:00 PM 14.81 58.658 0.032 6.27 1.61 9.68
9/27/2021 6:00:00 PM 14.79 58.622 0.032 6.25 1.58 9.68
9/27/2021 6:15:00 PM 14.76 58.568 0.032 6.26 1.37 9.67
9/27/2021 6:30:00 PM 14.72 58.496 0.032 6.32 1.48 9.68
9/27/2021 6:45:00 PM 14.67 58.406 0.032 6.31 1.4 9.69
9/27/2021 7:00:00 PM 14.61 58.298 0.032 6.31 1.54 9.7
9/27/2021 7:15:00 PM 14.55 58.19 0.032 6.3 1.54 9.69
9/27/2021 7:30:00 PM 14.49 58.082 0.032 6.31 1.78 9.69
9/27/2021 7:45:00 PM 14.43 57.974 0.032 6.31 1.44 9.72
9/27/2021 8:00:00 PM 14.36 57.848 0.032 6.31 1.56 9.73
9/27/2021 8:15:00 PM 14.3 57.74 0.032 6.31 1.58 9.74
9/27/2021 8:30:00 PM 14.24 57.632 0.032 6.22 1.49 9.76
9/27/2021 8:45:00 PM 14.19 57.542 0.032 6.33 1.53 9.76
9/27/2021 9:00:00 PM 14.14 57.452 0.032 6.33 1.69 9.78
9/27/2021 9:15:00 PM 14.09 57.362 0.033 6.33 1.85 9.79
9/27/2021 9:30:00 PM 14.04 57.272 0.033 6.33 1.48 9.79
9/27/2021 9:45:00 PM 14 57.2 0.033 6.33 1.6 9.81
9/27/2021 10:00:00 PM 13.96 57.128 0.033 6.32 1.45 9.83
9/27/2021 10:15:00 PM 13.92 57.056 0.033 6.33 1.56 9.82
9/27/2021 10:30:00 PM 13.89 57.002 0.032 6.33 1.59 9.83
9/27/2021 10:45:00 PM 13.86 56.948 0.033 6.34 1.64 9.83
9/27/2021 11:00:00 PM 13.83 56.894 0.033 6.33 1.54 9.83
9/27/2021 11:15:00 PM 13.8 56.84 0.033 6.32 1.66 9.86
9/27/2021 11:30:00 PM 13.77 56.786 0.033 6.33 1.54 9.85
9/27/2021 11:45:00 PM 13.74 56.732 0.033 6.31 1.48 9.87
9/28/2021 12:00:00 AM 13.71 56.678 0.033 6.31 1.58 9.88
9/28/2021 12:15:00 AM 13.69 56.642 0.033 6.32 1.62 9.88
9/28/2021 12:30:00 AM 13.66 56.588 0.033 6.32 1.55 9.88
9/28/2021 12:45:00 AM 13.64 56.552 0.033 6.19 1.55 9.89
9/28/2021 1:00:00 AM 13.62 56.516 0.033 6.31 1.55 9.9
9/28/2021 1:15:00 AM 13.61 56.498 0.033 6.31 1.51 9.9
9/28/2021 1:30:00 AM 13.6 56.48 0.033 6.29 1.62 9.89
9/28/2021 1:45:00 AM 13.59 56.462 0.033 6.22 1.57 9.91
9/28/2021 2:00:00 AM 13.58 56.444 0.033 6.31 1.54 9.9
9/28/2021 2:15:00 AM 13.57 56.426 0.033 6.3 1.6 9.91
9/28/2021 2:30:00 AM 13.56 56.408 0.033 6.3 1.53 9.9
9/28/2021 2:45:00 AM 13.55 56.39 0.033 6.3 1.52 9.92
9/28/2021 3:00:00 AM 13.54 56.372 0.033 6.3 1.65 9.91
9/28/2021 3:15:00 AM 13.53 56.354 0.033 6.28 1.48 9.91
9/28/2021 3:30:00 AM 13.52 56.336 0.033 6.3 1.62 9.92
9/28/2021 3:45:00 AM 13.51 56.318 0.033 6.29 1.63 9.91
9/28/2021 4:00:00 AM 13.5 56.3 0.033 6.3 1.51 9.91
9/28/2021 4:15:00 AM 13.49 56.282 0.033 6.29 1.65 9.92
9/28/2021 4:30:00 AM 13.47 56.246 0.033 6.29 1.5 9.92
9/28/2021 4:45:00 AM 13.46 56.228 0.033 6.26 1.57 9.92
9/28/2021 5:00:00 AM 13.44 56.192 0.033 6.29 1.63 9.92
9/28/2021 5:15:00 AM 13.43 56.174 0.033 6.29 1.58 9.93
9/28/2021 5:30:00 AM 13.42 56.156 0.033 6.3 1.59 9.92
9/28/2021 5:45:00 AM 13.41 56.138 0.033 6.28 1.54 9.94
9/28/2021 6:00:00 AM 13.4 56.12 0.033 6.29 1.59 9.94
9/28/2021 6:15:00 AM 13.39 56.102 0.033 6.28 1.56 9.95
9/28/2021 6:30:00 AM 13.39 56.102 0.033 6.28 1.63 9.94
9/28/2021 6:45:00 AM 13.39 56.102 0.033 6.2 2.08 9.94
9/28/2021 7:00:00 AM 13.39 56.102 0.033 6.32 1.76 9.95
9/28/2021 7:15:00 AM 13.39 56.102 0.033 6.22 1.79 9.95
9/28/2021 7:30:00 AM 13.39 56.102 0.033 6.24 1.86 9.94
9/28/2021 7:45:00 AM 13.4 56.12 0.033 6.29 1.7 9.94
9/28/2021 8:00:00 AM 13.41 56.138 0.033 6.2 1.89 9.93
9/28/2021 8:15:00 AM 13.41 56.138 0.033 6.28 1.79 9.94
9/28/2021 8:30:00 AM 13.42 56.156 0.033 6.29 1.78 9.94
9/28/2021 8:45:00 AM 13.43 56.174 0.033 6.24 1.62 9.95
9/28/2021 9:00:00 AM 13.44 56.192 0.034 6.27 1.65 9.93
9/28/2021 9:15:00 AM -100000 -179968 -100000 -100000 -100000 -100000
9/28/2021 9:30:00 AM 13.48 56.264 0.034 6.19 1.7 9.95
9/28/2021 9:45:00 AM 13.49 56.282 0.034 6.27 1.61 9.95
9/28/2021 10:00:00 AM 13.51 56.318 0.034 6.17 1.85 9.95
9/28/2021 10:15:00 AM 13.52 56.336 0.034 6.27 1.76 9.93
9/28/2021 10:30:00 AM 13.54 56.372 0.034 6.26 1.94 9.94
9/28/2021 10:45:00 AM -100000 -179968 -100000 -100000 -100000 -100000
9/28/2021 11:00:00 AM 13.58 56.444 0.034 6.25 1.61 9.95
9/28/2021 11:15:00 AM 13.6 56.48 0.034 6.2 1.57 9.94
9/28/2021 11:30:00 AM 13.63 56.534 0.034 6.26 1.68 9.95
9/28/2021 11:45:00 AM 13.65 56.57 0.034 6.25 2.24 9.95
9/28/2021 12:00:00 PM 13.69 56.642 0.034 6.26 11.48 9.95
9/28/2021 12:15:00 PM 13.74 56.732 0.034 6.26 1.48 9.96
9/28/2021 12:30:00 PM 13.81 56.858 0.034 6.28 1.51 9.97
9/28/2021 12:45:00 PM 13.91 57.038 0.034 6.3 1.47 9.96
9/28/2021 1:00:00 PM 13.99 57.182 0.034 6.32 1.58 9.95
9/28/2021 1:15:00 PM 14.1 57.38 0.034 6.3 1.55 9.92
9/28/2021 1:30:00 PM 14.17 57.506 0.034 6.34 1.55 9.91
9/28/2021 1:45:00 PM 14.26 57.668 0.034 6.35 1.51 9.88
9/28/2021 2:00:00 PM 14.4 57.92 0.034 6.35 1.68 9.85
9/28/2021 2:15:00 PM 14.54 58.172 0.034 6.36 1.55 9.78
9/28/2021 2:30:00 PM 14.67 58.406 0.034 6.36 1.62 9.78
9/28/2021 2:45:00 PM 14.8 58.64 0.033 6.36 1.46 9.74
9/28/2021 3:00:00 PM 14.91 58.838 0.034 6.36 1.79 9.69
9/28/2021 3:15:00 PM 15.02 59.036 0.034 6.36 1.54 9.65
9/28/2021 3:30:00 PM 15.13 59.234 0.033 6.36 1.55 9.63
9/28/2021 3:45:00 PM 15.23 59.414 0.033 6.36 1.54 9.61
9/28/2021 4:00:00 PM 15.3 59.54 0.033 6.36 1.49 9.57
9/28/2021 4:15:00 PM 15.4 59.72 0.033 6.36 1.65 9.55
9/28/2021 4:30:00 PM 15.45 59.81 0.033 6.36 1.78 9.52
9/28/2021 4:45:00 PM 15.48 59.864 0.033 6.36 1.7 9.51
9/28/2021 5:00:00 PM 15.49 59.882 0.033 6.26 1.49 9.51
9/28/2021 5:15:00 PM -100000 -179968 -100000 -100000 -100000 -100000
9/28/2021 5:30:00 PM 15.47 59.846 0.033 6.35 1.49 9.5
9/28/2021 5:45:00 PM 15.45 59.81 0.033 6.35 1.47 9.51
9/28/2021 6:00:00 PM 15.42 59.756 0.033 6.35 1.54 9.51
9/28/2021 6:15:00 PM 15.38 59.684 0.033 6.35 1.59 9.51
9/28/2021 6:30:00 PM 15.32 59.576 0.033 6.34 2 9.53
9/28/2021 6:45:00 PM 15.25 59.45 0.033 6.34 1.56 9.54
9/28/2021 7:00:00 PM 15.18 59.324 0.033 6.35 3.66 9.55
9/28/2021 7:15:00 PM 15.09 59.162 0.033 6.35 1.48 9.57
9/28/2021 7:30:00 PM 14.99 58.982 0.033 6.35 1.53 9.58
9/28/2021 7:45:00 PM 14.89 58.802 0.033 6.35 1.41 9.59
9/28/2021 8:00:00 PM 14.79 58.622 0.033 6.35 1.79 9.61
9/28/2021 8:15:00 PM 14.68 58.424 0.033 6.35 1.62 9.65
9/28/2021 8:30:00 PM 14.58 58.244 0.033 6.35 1.47 9.66
9/28/2021 8:45:00 PM 14.48 58.064 0.033 6.35 1.59 9.7
9/28/2021 9:00:00 PM 14.38 57.884 0.033 6.36 1.56 9.72
9/28/2021 9:15:00 PM 14.28 57.704 0.033 6.35 1.74 9.75
9/28/2021 9:30:00 PM 14.21 57.578 0.034 6.35 1.46 9.76
9/28/2021 9:45:00 PM 14.13 57.434 0.033 6.35 1.71 9.78
9/28/2021 10:00:00 PM 14.05 57.29 0.034 6.35 1.5 9.81
9/28/2021 10:15:00 PM 13.97 57.146 0.033 6.34 1.42 9.8
9/28/2021 10:30:00 PM 13.9 57.02 0.033 6.35 1.44 9.84
9/28/2021 10:45:00 PM 13.84 56.912 0.033 6.34 1.55 9.86
9/28/2021 11:00:00 PM 13.78 56.804 0.033 6.35 1.52 9.88
9/28/2021 11:15:00 PM 13.73 56.714 0.033 6.34 1.49 9.89
9/28/2021 11:30:00 PM 13.68 56.624 0.033 6.34 1.49 9.9
9/28/2021 11:45:00 PM 13.63 56.534 0.033 6.32 1.54 9.92
9/29/2021 12:00:00 AM 13.59 56.462 0.034 6.28 1.4 9.91
9/29/2021 12:15:00 AM 13.55 56.39 0.034 6.35 1.47 9.91
9/29/2021 12:30:00 AM 13.51 56.318 0.034 6.34 1.54 9.93
9/29/2021 12:45:00 AM 13.48 56.264 0.034 6.35 1.57 9.92
9/29/2021 1:00:00 AM 13.44 56.192 0.034 6.34 1.81 9.93
9/29/2021 1:15:00 AM -100000 -179968 -100000 -100000 -100000 -100000
9/29/2021 1:30:00 AM 13.37 56.066 0.034 6.34 1.54 9.97
9/29/2021 1:45:00 AM -100000 -179968 -100000 -100000 -100000 -100000
9/29/2021 2:00:00 AM 13.31 55.958 0.034 6.33 1.54 9.99
9/29/2021 2:15:00 AM 13.28 55.904 0.034 6.33 1.49 9.99
9/29/2021 2:30:00 AM 13.25 55.85 0.034 6.33 1.46 10
9/29/2021 2:45:00 AM 13.22 55.796 0.034 6.33 1.61 10.01
9/29/2021 3:00:00 AM 13.19 55.742 0.034 6.33 1.66 10.03
9/29/2021 3:15:00 AM 13.16 55.688 0.034 6.33 1.72 10.02
9/29/2021 3:30:00 AM 13.13 55.634 0.034 6.33 1.71 10.04
9/29/2021 3:45:00 AM 13.1 55.58 0.034 6.33 1.64 10.02
9/29/2021 4:00:00 AM 13.06 55.508 0.034 6.33 1.58 9.99
9/29/2021 4:15:00 AM -100000 -179968 -100000 -100000 -100000 -100000
9/29/2021 4:30:00 AM 12.98 55.364 0.034 6.33 1.55 10.08
9/29/2021 4:45:00 AM 12.94 55.292 0.034 6.33 1.58 10.08
9/29/2021 5:00:00 AM 12.9 55.22 0.034 6.35 1.59 10.06
9/29/2021 5:15:00 AM 12.86 55.148 0.034 6.18 1.49 10.09
9/29/2021 5:30:00 AM 12.82 55.076 0.034 6.34 2.03 10.1
9/29/2021 5:45:00 AM 12.78 55.004 0.034 6.34 1.54 10.13
9/29/2021 6:00:00 AM 12.73 54.914 0.034 6.34 1.75 10.13
9/29/2021 6:15:00 AM 12.69 54.842 0.034 6.33 1.62 10.17
9/29/2021 6:30:00 AM 12.65 54.77 0.034 6.34 1.52 10.16
9/29/2021 6:45:00 AM 12.61 54.698 0.034 6.33 1.85 10.17
9/29/2021 7:00:00 AM -100000 -179968 -100000 -100000 -100000 -100000
9/29/2021 7:15:00 AM 12.54 54.572 0.034 6.34 1.54 10.19
9/29/2021 7:30:00 AM 12.5 54.5 0.034 6.34 1.9 10.22
9/29/2021 7:45:00 AM -100000 -179968 -100000 -100000 -100000 -100000
9/29/2021 8:00:00 AM 12.43 54.374 0.034 6.26 1.58 10.25
9/29/2021 8:15:00 AM 12.41 54.338 0.034 6.34 1.96 10.27
9/29/2021 8:30:00 AM 12.39 54.302 0.034 6.33 1.72 10.28
9/29/2021 8:45:00 AM 12.37 54.266 0.034 6.35 1.68 10.3
9/29/2021 9:00:00 AM -100000 -179968 -100000 -100000 -100000 -100000
9/29/2021 9:15:00 AM 12.4 54.32 0.034 6.36 1.72 10.34
9/29/2021 9:30:00 AM 12.39 54.302 0.034 6.36 1.64 10.35
9/29/2021 9:45:00 AM 12.39 54.302 0.034 6.36 1.55 10.35
9/29/2021 10:00:00 AM 12.41 54.338 0.034 6.27 1.63 10.34
9/29/2021 10:15:00 AM 12.43 54.374 0.034 6.37 1.67 10.34
9/29/2021 10:30:00 AM 12.44 54.392 0.034 6.36 1.57 10.33
9/29/2021 10:45:00 AM 12.46 54.428 0.034 6.36 3.41 10.34
9/29/2021 11:00:00 AM 12.49 54.482 0.034 6.36 1.45 10.32
9/29/2021 11:15:00 AM 12.52 54.536 0.034 6.36 1.55 10.33
9/29/2021 11:30:00 AM 12.58 54.644 0.034 6.37 1.57 10.31
9/29/2021 11:45:00 AM 12.63 54.734 0.034 6.26 1.5 10.3
9/29/2021 12:00:00 PM 12.72 54.896 0.034 6.33 1.4 10.28
9/29/2021 12:15:00 PM 12.81 55.058 0.034 6.37 1.55 10.27
9/29/2021 12:30:00 PM 12.9 55.22 0.034 6.37 1.48 10.25
9/29/2021 12:45:00 PM 12.99 55.382 0.034 6.37 1.54 10.22
9/29/2021 1:00:00 PM -100000 -179968 -100000 -100000 -100000 -100000
9/29/2021 1:15:00 PM 13.22 55.796 0.034 6.37 1.59 10.16
9/29/2021 1:30:00 PM 13.32 55.976 0.034 6.37 1.65 10.15
9/29/2021 1:45:00 PM 13.43 56.174 0.034 6.38 1.49 10.11
9/29/2021 2:00:00 PM 13.57 56.426 0.034 6.38 1.66 10.08
9/29/2021 2:15:00 PM 13.69 56.642 0.034 6.38 1.52 10.04
9/29/2021 2:30:00 PM 13.81 56.858 0.034 6.38 1.6 10.01
9/29/2021 2:45:00 PM 13.93 57.074 0.034 6.38 1.56 9.97
9/29/2021 3:00:00 PM 14.06 57.308 0.034 6.38 1.52 9.94
9/29/2021 3:15:00 PM 14.15 57.47 0.034 6.38 1.52 9.9
9/29/2021 3:30:00 PM 14.24 57.632 0.034 6.38 1.5 9.88
9/29/2021 3:45:00 PM 14.3 57.74 0.034 6.28 1.55 9.84
9/29/2021 4:00:00 PM 14.34 57.812 0.034 6.38 1.46 9.84
9/29/2021 4:15:00 PM 14.37 57.866 0.034 6.37 1.67 9.81
9/29/2021 4:30:00 PM 14.39 57.902 0.034 6.38 1.57 9.79
9/29/2021 4:45:00 PM 14.4 57.92 0.034 6.37 1.69 9.8
9/29/2021 5:00:00 PM 14.4 57.92 0.034 6.3 1.7 9.78
9/29/2021 5:15:00 PM 14.39 57.902 0.034 6.37 1.63 9.8
9/29/2021 5:30:00 PM 14.37 57.866 0.034 6.36 1.56 9.8
9/29/2021 5:45:00 PM 14.34 57.812 0.034 6.37 1.63 9.78
9/29/2021 6:00:00 PM 14.3 57.74 0.034 6.33 1.67 9.8
9/29/2021 6:15:00 PM 14.24 57.632 0.034 6.37 1.64 9.82
9/29/2021 6:30:00 PM 14.17 57.506 0.034 6.37 2.59 9.81
9/29/2021 6:45:00 PM 14.1 57.38 0.034 6.37 1.63 9.85
9/29/2021 7:00:00 PM 14.02 57.236 0.034 6.37 1.52 9.87
9/29/2021 7:15:00 PM 13.93 57.074 0.034 6.37 1.3 9.87
9/29/2021 7:30:00 PM 13.83 56.894 0.034 6.37 1.51 9.89
9/29/2021 7:45:00 PM 13.72 56.696 0.034 6.37 1.5 9.89
9/29/2021 8:00:00 PM 13.62 56.516 0.034 6.33 1.68 9.92
9/29/2021 8:15:00 PM 13.51 56.318 0.034 6.37 1.55 9.95
9/29/2021 8:30:00 PM 13.4 56.12 0.034 6.37 1.49 9.99
9/29/2021 8:45:00 PM 13.3 55.94 0.034 6.37 1.52 9.98
9/29/2021 9:00:00 PM 13.22 55.796 0.034 6.38 1.4 10.04
9/29/2021 9:15:00 PM 13.12 55.616 0.034 6.27 1.53 10.06
9/29/2021 9:30:00 PM 13.03 55.454 0.034 6.38 1.52 10.09
9/29/2021 9:45:00 PM 12.94 55.292 0.034 6.38 1.52 10.08
9/29/2021 10:00:00 PM 12.86 55.148 0.034 6.38 1.52 10.13
9/29/2021 10:15:00 PM 12.78 55.004 0.034 6.38 1.32 10.13
9/29/2021 10:30:00 PM 12.7 54.86 0.034 6.37 1.63 10.17
9/29/2021 10:45:00 PM 12.63 54.734 0.034 6.37 1.54 10.17
9/29/2021 11:00:00 PM 12.56 54.608 0.034 6.37 1.32 10.19
9/29/2021 11:15:00 PM 12.49 54.482 0.034 6.37 1.56 10.21
9/29/2021 11:30:00 PM -100000 -179968 -100000 -100000 -100000 -100000
9/29/2021 11:45:00 PM 12.37 54.266 0.034 6.38 1.48 10.22
9/30/2021 12:00:00 AM 12.3 54.14 0.034 6.37 1.48 10.25
9/30/2021 12:15:00 AM 12.25 54.05 0.034 6.25 1.51 10.27
9/30/2021 12:30:00 AM 12.18 53.924 0.034 6.37 1.43 10.29
9/30/2021 12:45:00 AM 12.12 53.816 0.034 6.36 1.49 10.3
9/30/2021 1:00:00 AM 12.06 53.708 0.034 6.27 1.49 10.31
9/30/2021 1:15:00 AM 12.01 53.618 0.034 6.37 1.63 10.34
9/30/2021 1:30:00 AM 11.95 53.51 0.034 6.36 1.52 10.34
9/30/2021 1:45:00 AM -100000 -179968 -100000 -100000 -100000 -100000
9/30/2021 2:00:00 AM 11.83 53.294 0.034 6.36 1.51 10.35
9/30/2021 2:15:00 AM 11.77 53.186 0.034 6.36 1.84 10.39
9/30/2021 2:30:00 AM 11.71 53.078 0.034 6.36 1.69 10.42
9/30/2021 2:45:00 AM 11.66 52.988 0.034 6.36 1.49 10.44
9/30/2021 3:00:00 AM 11.6 52.88 0.034 6.36 1.48 10.43
9/30/2021 3:15:00 AM 11.56 52.808 0.034 6.35 1.46 10.42
9/30/2021 3:30:00 AM 11.51 52.718 0.034 6.36 1.49 10.46
9/30/2021 3:45:00 AM -100000 -179968 -100000 -100000 -100000 -100000
9/30/2021 4:00:00 AM 11.4 52.52 0.034 6.36 1.46 10.49
9/30/2021 4:15:00 AM 11.35 52.43 0.034 6.35 1.61 10.5
9/30/2021 4:30:00 AM 11.3 52.34 0.035 6.35 1.6 10.51
9/30/2021 4:45:00 AM 11.24 52.232 0.034 6.36 1.65 10.54
9/30/2021 5:00:00 AM 11.19 52.142 0.034 6.23 1.64 10.53
9/30/2021 5:15:00 AM 11.14 52.052 0.035 6.36 1.64 10.57
9/30/2021 5:30:00 AM 11.09 51.962 0.034 6.35 1.55 10.58
9/30/2021 5:45:00 AM 11.03 51.854 0.034 6.33 1.85 10.58
9/30/2021 6:00:00 AM 10.98 51.764 0.035 6.35 1.61 10.61
9/30/2021 6:15:00 AM 10.92 51.656 0.035 6.35 1.57 10.62
9/30/2021 6:30:00 AM 10.86 51.548 0.035 6.35 1.66 10.62
9/30/2021 6:45:00 AM 10.81 51.458 0.035 6.35 1.71 10.65
9/30/2021 7:00:00 AM 10.75 51.35 0.035 6.34 2.52 10.68
9/30/2021 7:15:00 AM 10.69 51.242 0.035 6.25 1.8 10.7
9/30/2021 7:30:00 AM 10.63 51.134 0.035 6.35 1.63 10.72
9/30/2021 7:45:00 AM 10.59 51.062 0.034 6.34 1.82 10.74
9/30/2021 8:00:00 AM 10.55 50.99 0.035 6.35 1.67 10.77
9/30/2021 8:15:00 AM 10.52 50.936 0.035 6.36 1.63 10.77
9/30/2021 8:30:00 AM 10.48 50.864 0.035 6.29 1.76 10.81
9/30/2021 8:45:00 AM -100000 -179968 -100000 -100000 -100000 -100000
9/30/2021 9:00:00 AM 10.44 50.792 0.034 6.36 1.69 10.84
9/30/2021 9:15:00 AM 10.44 50.792 0.035 6.36 1.59 10.86
9/30/2021 9:30:00 AM 10.44 50.792 0.035 6.36 1.69 10.86
9/30/2021 9:45:00 AM 10.45 50.81 0.034 6.36 1.59 10.89
9/30/2021 10:00:00 AM 10.47 50.846 0.034